<?xml version="1.0" encoding="UTF-8" standalone="no" ?>
<gpx xmlns="http://www.topografix.com/GPX/1/1" xmlns:xsi="http://www.w3.org/2001/XMLSchema-instance" xsi:schemaLocation="http://www.topografix.com/GPX/1/1 http://www.topografix.com/GPX/1/1/gpx.xsd" version="1.1" creator="VisuGPX - https://www.visugpx.com">
  <metadata>
    <name>gelinotte</name>
    <desc><![CDATA[Parcours equipe Fred / Olivier]]></desc>
  </metadata>
  <trk>
    <name><![CDATA[26-SEPT-11 19:36:38]]></name>
    <trkseg>
      <trkpt lat="45.47864" lon="6.17012">
        <ele>774</ele>
        <time>2011-09-25T11:53:41Z</time>
      </trkpt>
      <trkpt lat="45.47865" lon="6.17011">
        <ele>777.84</ele>
        <time>2011-09-25T11:53:43Z</time>
      </trkpt>
      <trkpt lat="45.47865" lon="6.17011">
        <ele>782.17</ele>
        <time>2011-09-25T11:53:44Z</time>
      </trkpt>
      <trkpt lat="45.47865" lon="6.17011">
        <ele>782.17</ele>
        <time>2011-09-25T11:53:45Z</time>
      </trkpt>
      <trkpt lat="45.47865" lon="6.17011">
        <ele>785.53</ele>
        <time>2011-09-25T11:53:47Z</time>
      </trkpt>
      <trkpt lat="45.47865" lon="6.17011">
        <ele>788.42</ele>
        <time>2011-09-25T11:53:49Z</time>
      </trkpt>
      <trkpt lat="45.47864" lon="6.17011">
        <ele>792.26</ele>
        <time>2011-09-25T11:53:51Z</time>
      </trkpt>
      <trkpt lat="45.47864" lon="6.17011">
        <ele>796.11</ele>
        <time>2011-09-25T11:53:54Z</time>
      </trkpt>
      <trkpt lat="45.47864" lon="6.17011">
        <ele>797.55</ele>
        <time>2011-09-25T11:53:55Z</time>
      </trkpt>
      <trkpt lat="45.47865" lon="6.1701">
        <ele>803.8</ele>
        <time>2011-09-25T11:54:00Z</time>
      </trkpt>
      <trkpt lat="45.47865" lon="6.17009">
        <ele>807.64</ele>
        <time>2011-09-25T11:54:04Z</time>
      </trkpt>
      <trkpt lat="45.47865" lon="6.17008">
        <ele>811.01</ele>
        <time>2011-09-25T11:54:07Z</time>
      </trkpt>
      <trkpt lat="45.47864" lon="6.17008">
        <ele>813.89</ele>
        <time>2011-09-25T11:54:11Z</time>
      </trkpt>
      <trkpt lat="45.47863" lon="6.17007">
        <ele>817.26</ele>
        <time>2011-09-25T11:54:16Z</time>
      </trkpt>
      <trkpt lat="45.47863" lon="6.17007">
        <ele>818.22</ele>
        <time>2011-09-25T11:54:18Z</time>
      </trkpt>
      <trkpt lat="45.47863" lon="6.17005">
        <ele>821.58</ele>
        <time>2011-09-25T11:54:22Z</time>
      </trkpt>
      <trkpt lat="45.47862" lon="6.17004">
        <ele>824.47</ele>
        <time>2011-09-25T11:54:29Z</time>
      </trkpt>
      <trkpt lat="45.4786" lon="6.17004">
        <ele>827.83</ele>
        <time>2011-09-25T11:54:36Z</time>
      </trkpt>
      <trkpt lat="45.47859" lon="6.17006">
        <ele>830.72</ele>
        <time>2011-09-25T11:54:46Z</time>
      </trkpt>
      <trkpt lat="45.47861" lon="6.1701">
        <ele>834.08</ele>
        <time>2011-09-25T11:55:02Z</time>
      </trkpt>
      <trkpt lat="45.47863" lon="6.1701">
        <ele>836.48</ele>
        <time>2011-09-25T11:55:19Z</time>
      </trkpt>
      <trkpt lat="45.47863" lon="6.1701">
        <ele>836.96</ele>
        <time>2011-09-25T11:55:42Z</time>
      </trkpt>
      <trkpt lat="45.47862" lon="6.1701">
        <ele>836.96</ele>
        <time>2011-09-25T11:56:04Z</time>
      </trkpt>
      <trkpt lat="45.47862" lon="6.1701">
        <ele>836.96</ele>
        <time>2011-09-25T11:56:30Z</time>
      </trkpt>
      <trkpt lat="45.47862" lon="6.1701">
        <ele>837.45</ele>
        <time>2011-09-25T11:56:38Z</time>
      </trkpt>
      <trkpt lat="45.47864" lon="6.17009">
        <ele>836.96</ele>
        <time>2011-09-25T11:56:53Z</time>
      </trkpt>
      <trkpt lat="45.47863" lon="6.17009">
        <ele>837.45</ele>
        <time>2011-09-25T11:57:19Z</time>
      </trkpt>
      <trkpt lat="45.47861" lon="6.17014">
        <ele>837.45</ele>
        <time>2011-09-25T11:57:32Z</time>
      </trkpt>
      <trkpt lat="45.47861" lon="6.17013">
        <ele>837.45</ele>
        <time>2011-09-25T11:57:34Z</time>
      </trkpt>
      <trkpt lat="45.4787" lon="6.17028">
        <ele>837.45</ele>
        <time>2011-09-25T11:57:44Z</time>
      </trkpt>
      <trkpt lat="45.47901" lon="6.17067">
        <ele>840.81</ele>
        <time>2011-09-25T11:57:58Z</time>
      </trkpt>
      <trkpt lat="45.47934" lon="6.17118">
        <ele>844.18</ele>
        <time>2011-09-25T11:58:13Z</time>
      </trkpt>
      <trkpt lat="45.47958" lon="6.17147">
        <ele>847.06</ele>
        <time>2011-09-25T11:58:24Z</time>
      </trkpt>
      <trkpt lat="45.47968" lon="6.17148">
        <ele>848.5</ele>
        <time>2011-09-25T11:58:35Z</time>
      </trkpt>
      <trkpt lat="45.47968" lon="6.17148">
        <ele>848.5</ele>
        <time>2011-09-25T11:59:04Z</time>
      </trkpt>
      <trkpt lat="45.47968" lon="6.17148">
        <ele>848.5</ele>
        <time>2011-09-25T11:59:34Z</time>
      </trkpt>
      <trkpt lat="45.47968" lon="6.17147">
        <ele>848.02</ele>
        <time>2011-09-25T11:59:50Z</time>
      </trkpt>
      <trkpt lat="45.47968" lon="6.17145">
        <ele>848.5</ele>
        <time>2011-09-25T11:59:54Z</time>
      </trkpt>
      <trkpt lat="45.47967" lon="6.17146">
        <ele>847.06</ele>
        <time>2011-09-25T12:00:03Z</time>
      </trkpt>
      <trkpt lat="45.47964" lon="6.1714">
        <ele>846.1</ele>
        <time>2011-09-25T12:00:06Z</time>
      </trkpt>
      <trkpt lat="45.47961" lon="6.17134">
        <ele>846.1</ele>
        <time>2011-09-25T12:00:07Z</time>
      </trkpt>
      <trkpt lat="45.47942" lon="6.17109">
        <ele>844.66</ele>
        <time>2011-09-25T12:00:10Z</time>
      </trkpt>
      <trkpt lat="45.47925" lon="6.17091">
        <ele>843.69</ele>
        <time>2011-09-25T12:00:12Z</time>
      </trkpt>
      <trkpt lat="45.47915" lon="6.17079">
        <ele>843.69</ele>
        <time>2011-09-25T12:00:13Z</time>
      </trkpt>
      <trkpt lat="45.4791" lon="6.1707">
        <ele>842.73</ele>
        <time>2011-09-25T12:00:14Z</time>
      </trkpt>
      <trkpt lat="45.47876" lon="6.17028">
        <ele>839.85</ele>
        <time>2011-09-25T12:00:19Z</time>
      </trkpt>
      <trkpt lat="45.47865" lon="6.17016">
        <ele>837.45</ele>
        <time>2011-09-25T12:00:25Z</time>
      </trkpt>
      <trkpt lat="45.47865" lon="6.17015">
        <ele>836.96</ele>
        <time>2011-09-25T12:00:31Z</time>
      </trkpt>
      <trkpt lat="45.47865" lon="6.17012">
        <ele>836.96</ele>
        <time>2011-09-25T12:00:39Z</time>
      </trkpt>
      <trkpt lat="45.47865" lon="6.17011">
        <ele>839.85</ele>
        <time>2011-09-25T12:00:53Z</time>
      </trkpt>
      <trkpt lat="45.47864" lon="6.17012">
        <ele>836.96</ele>
        <time>2011-09-25T12:00:58Z</time>
      </trkpt>
      <trkpt lat="45.47863" lon="6.17011">
        <ele>836.96</ele>
        <time>2011-09-25T12:00:59Z</time>
      </trkpt>
      <trkpt lat="45.47864" lon="6.17021">
        <ele>838.41</ele>
        <time>2011-09-25T12:01:04Z</time>
      </trkpt>
      <trkpt lat="45.47901" lon="6.17059">
        <ele>841.29</ele>
        <time>2011-09-25T12:01:20Z</time>
      </trkpt>
      <trkpt lat="45.47929" lon="6.17106">
        <ele>844.18</ele>
        <time>2011-09-25T12:01:35Z</time>
      </trkpt>
      <trkpt lat="45.47948" lon="6.17139">
        <ele>847.54</ele>
        <time>2011-09-25T12:01:46Z</time>
      </trkpt>
      <trkpt lat="45.47968" lon="6.1714">
        <ele>849.46</ele>
        <time>2011-09-25T12:01:57Z</time>
      </trkpt>
      <trkpt lat="45.47969" lon="6.17138">
        <ele>848.98</ele>
        <time>2011-09-25T12:02:11Z</time>
      </trkpt>
      <trkpt lat="45.47968" lon="6.17139">
        <ele>848.98</ele>
        <time>2011-09-25T12:02:32Z</time>
      </trkpt>
      <trkpt lat="45.47964" lon="6.17143">
        <ele>848.98</ele>
        <time>2011-09-25T12:02:43Z</time>
      </trkpt>
      <trkpt lat="45.47952" lon="6.17142">
        <ele>847.06</ele>
        <time>2011-09-25T12:02:52Z</time>
      </trkpt>
      <trkpt lat="45.47939" lon="6.1712">
        <ele>845.14</ele>
        <time>2011-09-25T12:03:06Z</time>
      </trkpt>
      <trkpt lat="45.47923" lon="6.17091">
        <ele>843.69</ele>
        <time>2011-09-25T12:03:23Z</time>
      </trkpt>
      <trkpt lat="45.47917" lon="6.17081">
        <ele>843.21</ele>
        <time>2011-09-25T12:03:32Z</time>
      </trkpt>
      <trkpt lat="45.47912" lon="6.17079">
        <ele>842.73</ele>
        <time>2011-09-25T12:03:45Z</time>
      </trkpt>
      <trkpt lat="45.47912" lon="6.1708">
        <ele>842.73</ele>
        <time>2011-09-25T12:04:12Z</time>
      </trkpt>
      <trkpt lat="45.47912" lon="6.1708">
        <ele>842.73</ele>
        <time>2011-09-25T12:04:28Z</time>
      </trkpt>
      <trkpt lat="45.47913" lon="6.17079">
        <ele>842.73</ele>
        <time>2011-09-25T12:04:54Z</time>
      </trkpt>
      <trkpt lat="45.47917" lon="6.17086">
        <ele>843.21</ele>
        <time>2011-09-25T12:04:58Z</time>
      </trkpt>
      <trkpt lat="45.4795" lon="6.17139">
        <ele>847.06</ele>
        <time>2011-09-25T12:05:16Z</time>
      </trkpt>
      <trkpt lat="45.47983" lon="6.172">
        <ele>849.94</ele>
        <time>2011-09-25T12:05:31Z</time>
      </trkpt>
      <trkpt lat="45.4796" lon="6.17249">
        <ele>851.87</ele>
        <time>2011-09-25T12:05:43Z</time>
      </trkpt>
      <trkpt lat="45.47952" lon="6.17318">
        <ele>854.27</ele>
        <time>2011-09-25T12:05:55Z</time>
      </trkpt>
      <trkpt lat="45.47944" lon="6.17412">
        <ele>857.63</ele>
        <time>2011-09-25T12:06:11Z</time>
      </trkpt>
      <trkpt lat="45.47929" lon="6.17468">
        <ele>861</ele>
        <time>2011-09-25T12:06:24Z</time>
      </trkpt>
      <trkpt lat="45.4791" lon="6.17512">
        <ele>864.36</ele>
        <time>2011-09-25T12:06:36Z</time>
      </trkpt>
      <trkpt lat="45.47886" lon="6.17548">
        <ele>868.21</ele>
        <time>2011-09-25T12:06:48Z</time>
      </trkpt>
      <trkpt lat="45.47851" lon="6.17592">
        <ele>870.13</ele>
        <time>2011-09-25T12:07:03Z</time>
      </trkpt>
      <trkpt lat="45.47834" lon="6.17667">
        <ele>868.69</ele>
        <time>2011-09-25T12:07:15Z</time>
      </trkpt>
      <trkpt lat="45.47836" lon="6.17679">
        <ele>867.73</ele>
        <time>2011-09-25T12:07:16Z</time>
      </trkpt>
      <trkpt lat="45.47849" lon="6.17734">
        <ele>866.29</ele>
        <time>2011-09-25T12:07:20Z</time>
      </trkpt>
      <trkpt lat="45.47849" lon="6.17748">
        <ele>865.32</ele>
        <time>2011-09-25T12:07:21Z</time>
      </trkpt>
      <trkpt lat="45.47849" lon="6.17762">
        <ele>865.32</ele>
        <time>2011-09-25T12:07:22Z</time>
      </trkpt>
      <trkpt lat="45.47847" lon="6.17775">
        <ele>864.84</ele>
        <time>2011-09-25T12:07:23Z</time>
      </trkpt>
      <trkpt lat="45.47844" lon="6.17787">
        <ele>863.4</ele>
        <time>2011-09-25T12:07:24Z</time>
      </trkpt>
      <trkpt lat="45.47839" lon="6.17797">
        <ele>863.4</ele>
        <time>2011-09-25T12:07:25Z</time>
      </trkpt>
      <trkpt lat="45.47833" lon="6.17807">
        <ele>862.44</ele>
        <time>2011-09-25T12:07:26Z</time>
      </trkpt>
      <trkpt lat="45.47825" lon="6.17817">
        <ele>862.44</ele>
        <time>2011-09-25T12:07:27Z</time>
      </trkpt>
      <trkpt lat="45.47819" lon="6.17827">
        <ele>861</ele>
        <time>2011-09-25T12:07:28Z</time>
      </trkpt>
      <trkpt lat="45.47815" lon="6.17838">
        <ele>860.04</ele>
        <time>2011-09-25T12:07:29Z</time>
      </trkpt>
      <trkpt lat="45.47813" lon="6.17852">
        <ele>859.56</ele>
        <time>2011-09-25T12:07:30Z</time>
      </trkpt>
      <trkpt lat="45.47815" lon="6.17893">
        <ele>858.11</ele>
        <time>2011-09-25T12:07:33Z</time>
      </trkpt>
      <trkpt lat="45.47819" lon="6.17907">
        <ele>858.11</ele>
        <time>2011-09-25T12:07:34Z</time>
      </trkpt>
      <trkpt lat="45.47825" lon="6.1792">
        <ele>856.19</ele>
        <time>2011-09-25T12:07:35Z</time>
      </trkpt>
      <trkpt lat="45.4785" lon="6.17974">
        <ele>853.31</ele>
        <time>2011-09-25T12:07:39Z</time>
      </trkpt>
      <trkpt lat="45.47873" lon="6.18034">
        <ele>848.5</ele>
        <time>2011-09-25T12:07:43Z</time>
      </trkpt>
      <trkpt lat="45.47884" lon="6.18066">
        <ele>846.58</ele>
        <time>2011-09-25T12:07:45Z</time>
      </trkpt>
      <trkpt lat="45.47889" lon="6.18083">
        <ele>845.62</ele>
        <time>2011-09-25T12:07:46Z</time>
      </trkpt>
      <trkpt lat="45.47891" lon="6.18101">
        <ele>844.66</ele>
        <time>2011-09-25T12:07:47Z</time>
      </trkpt>
      <trkpt lat="45.47894" lon="6.18156">
        <ele>841.29</ele>
        <time>2011-09-25T12:07:50Z</time>
      </trkpt>
      <trkpt lat="45.47896" lon="6.18232">
        <ele>836.96</ele>
        <time>2011-09-25T12:07:54Z</time>
      </trkpt>
      <trkpt lat="45.47897" lon="6.18254">
        <ele>834.56</ele>
        <time>2011-09-25T12:07:55Z</time>
      </trkpt>
      <trkpt lat="45.47897" lon="6.18314">
        <ele>834.56</ele>
        <time>2011-09-25T12:07:59Z</time>
      </trkpt>
      <trkpt lat="45.47892" lon="6.18335">
        <ele>833.6</ele>
        <time>2011-09-25T12:08:01Z</time>
      </trkpt>
      <trkpt lat="45.47887" lon="6.18346">
        <ele>833.6</ele>
        <time>2011-09-25T12:08:02Z</time>
      </trkpt>
      <trkpt lat="45.47883" lon="6.18355">
        <ele>834.08</ele>
        <time>2011-09-25T12:08:03Z</time>
      </trkpt>
      <trkpt lat="45.47877" lon="6.18363">
        <ele>833.6</ele>
        <time>2011-09-25T12:08:04Z</time>
      </trkpt>
      <trkpt lat="45.4787" lon="6.1837">
        <ele>833.12</ele>
        <time>2011-09-25T12:08:05Z</time>
      </trkpt>
      <trkpt lat="45.47864" lon="6.18373">
        <ele>832.64</ele>
        <time>2011-09-25T12:08:06Z</time>
      </trkpt>
      <trkpt lat="45.4786" lon="6.18375">
        <ele>831.68</ele>
        <time>2011-09-25T12:08:07Z</time>
      </trkpt>
      <trkpt lat="45.47849" lon="6.18362">
        <ele>831.68</ele>
        <time>2011-09-25T12:08:12Z</time>
      </trkpt>
      <trkpt lat="45.47849" lon="6.18359">
        <ele>831.68</ele>
        <time>2011-09-25T12:08:17Z</time>
      </trkpt>
      <trkpt lat="45.4785" lon="6.18358">
        <ele>831.68</ele>
        <time>2011-09-25T12:08:18Z</time>
      </trkpt>
      <trkpt lat="45.47849" lon="6.18355">
        <ele>831.68</ele>
        <time>2011-09-25T12:08:19Z</time>
      </trkpt>
      <trkpt lat="45.47844" lon="6.18346">
        <ele>831.2</ele>
        <time>2011-09-25T12:08:21Z</time>
      </trkpt>
      <trkpt lat="45.47839" lon="6.18343">
        <ele>831.2</ele>
        <time>2011-09-25T12:08:22Z</time>
      </trkpt>
      <trkpt lat="45.47833" lon="6.18341">
        <ele>831.68</ele>
        <time>2011-09-25T12:08:23Z</time>
      </trkpt>
      <trkpt lat="45.47814" lon="6.18336">
        <ele>830.72</ele>
        <time>2011-09-25T12:08:26Z</time>
      </trkpt>
      <trkpt lat="45.47808" lon="6.18333">
        <ele>831.2</ele>
        <time>2011-09-25T12:08:27Z</time>
      </trkpt>
      <trkpt lat="45.47802" lon="6.18332">
        <ele>829.27</ele>
        <time>2011-09-25T12:08:28Z</time>
      </trkpt>
      <trkpt lat="45.47795" lon="6.18331">
        <ele>829.27</ele>
        <time>2011-09-25T12:08:29Z</time>
      </trkpt>
      <trkpt lat="45.47788" lon="6.18331">
        <ele>828.31</ele>
        <time>2011-09-25T12:08:30Z</time>
      </trkpt>
      <trkpt lat="45.47783" lon="6.18333">
        <ele>827.83</ele>
        <time>2011-09-25T12:08:31Z</time>
      </trkpt>
      <trkpt lat="45.47778" lon="6.18337">
        <ele>826.87</ele>
        <time>2011-09-25T12:08:32Z</time>
      </trkpt>
      <trkpt lat="45.47773" lon="6.18342">
        <ele>824.95</ele>
        <time>2011-09-25T12:08:33Z</time>
      </trkpt>
      <trkpt lat="45.47768" lon="6.18342">
        <ele>824.95</ele>
        <time>2011-09-25T12:08:34Z</time>
      </trkpt>
      <trkpt lat="45.47763" lon="6.18344">
        <ele>823.99</ele>
        <time>2011-09-25T12:08:37Z</time>
      </trkpt>
      <trkpt lat="45.47766" lon="6.18344">
        <ele>822.55</ele>
        <time>2011-09-25T12:08:39Z</time>
      </trkpt>
      <trkpt lat="45.47773" lon="6.18342">
        <ele>821.1</ele>
        <time>2011-09-25T12:08:41Z</time>
      </trkpt>
      <trkpt lat="45.47781" lon="6.18335">
        <ele>820.62</ele>
        <time>2011-09-25T12:08:42Z</time>
      </trkpt>
      <trkpt lat="45.47789" lon="6.18324">
        <ele>819.18</ele>
        <time>2011-09-25T12:08:43Z</time>
      </trkpt>
      <trkpt lat="45.47795" lon="6.18317">
        <ele>818.22</ele>
        <time>2011-09-25T12:08:44Z</time>
      </trkpt>
      <trkpt lat="45.47798" lon="6.18311">
        <ele>817.26</ele>
        <time>2011-09-25T12:08:45Z</time>
      </trkpt>
      <trkpt lat="45.478" lon="6.18305">
        <ele>817.26</ele>
        <time>2011-09-25T12:08:46Z</time>
      </trkpt>
      <trkpt lat="45.47801" lon="6.183">
        <ele>817.26</ele>
        <time>2011-09-25T12:08:47Z</time>
      </trkpt>
      <trkpt lat="45.47799" lon="6.18294">
        <ele>815.82</ele>
        <time>2011-09-25T12:08:49Z</time>
      </trkpt>
      <trkpt lat="45.47795" lon="6.18291">
        <ele>815.82</ele>
        <time>2011-09-25T12:08:50Z</time>
      </trkpt>
      <trkpt lat="45.47792" lon="6.18287">
        <ele>814.85</ele>
        <time>2011-09-25T12:08:51Z</time>
      </trkpt>
      <trkpt lat="45.47773" lon="6.18285">
        <ele>812.93</ele>
        <time>2011-09-25T12:08:55Z</time>
      </trkpt>
      <trkpt lat="45.47768" lon="6.18282">
        <ele>812.45</ele>
        <time>2011-09-25T12:08:56Z</time>
      </trkpt>
      <trkpt lat="45.47763" lon="6.18287">
        <ele>811.97</ele>
        <time>2011-09-25T12:08:57Z</time>
      </trkpt>
      <trkpt lat="45.47743" lon="6.18313">
        <ele>809.57</ele>
        <time>2011-09-25T12:09:01Z</time>
      </trkpt>
      <trkpt lat="45.47717" lon="6.18346">
        <ele>805.72</ele>
        <time>2011-09-25T12:09:04Z</time>
      </trkpt>
      <trkpt lat="45.47715" lon="6.18363">
        <ele>805.72</ele>
        <time>2011-09-25T12:09:05Z</time>
      </trkpt>
      <trkpt lat="45.47712" lon="6.18378">
        <ele>804.76</ele>
        <time>2011-09-25T12:09:06Z</time>
      </trkpt>
      <trkpt lat="45.47712" lon="6.18397">
        <ele>803.32</ele>
        <time>2011-09-25T12:09:07Z</time>
      </trkpt>
      <trkpt lat="45.47715" lon="6.18417">
        <ele>802.84</ele>
        <time>2011-09-25T12:09:08Z</time>
      </trkpt>
      <trkpt lat="45.4771" lon="6.1848">
        <ele>799.95</ele>
        <time>2011-09-25T12:09:11Z</time>
      </trkpt>
      <trkpt lat="45.47696" lon="6.18571">
        <ele>794.67</ele>
        <time>2011-09-25T12:09:16Z</time>
      </trkpt>
      <trkpt lat="45.47696" lon="6.18587">
        <ele>793.71</ele>
        <time>2011-09-25T12:09:17Z</time>
      </trkpt>
      <trkpt lat="45.47697" lon="6.18604">
        <ele>792.26</ele>
        <time>2011-09-25T12:09:18Z</time>
      </trkpt>
      <trkpt lat="45.47699" lon="6.18619">
        <ele>791.78</ele>
        <time>2011-09-25T12:09:19Z</time>
      </trkpt>
      <trkpt lat="45.47707" lon="6.18651">
        <ele>789.86</ele>
        <time>2011-09-25T12:09:21Z</time>
      </trkpt>
      <trkpt lat="45.47723" lon="6.18707">
        <ele>786.98</ele>
        <time>2011-09-25T12:09:24Z</time>
      </trkpt>
      <trkpt lat="45.47735" lon="6.18753">
        <ele>784.09</ele>
        <time>2011-09-25T12:09:27Z</time>
      </trkpt>
      <trkpt lat="45.47747" lon="6.18794">
        <ele>779.77</ele>
        <time>2011-09-25T12:09:30Z</time>
      </trkpt>
      <trkpt lat="45.47757" lon="6.18841">
        <ele>775.92</ele>
        <time>2011-09-25T12:09:33Z</time>
      </trkpt>
      <trkpt lat="45.47757" lon="6.18851">
        <ele>775.44</ele>
        <time>2011-09-25T12:09:34Z</time>
      </trkpt>
      <trkpt lat="45.47757" lon="6.18858">
        <ele>774.96</ele>
        <time>2011-09-25T12:09:35Z</time>
      </trkpt>
      <trkpt lat="45.47755" lon="6.18864">
        <ele>774.96</ele>
        <time>2011-09-25T12:09:36Z</time>
      </trkpt>
      <trkpt lat="45.47753" lon="6.18868">
        <ele>774.48</ele>
        <time>2011-09-25T12:09:37Z</time>
      </trkpt>
      <trkpt lat="45.47752" lon="6.1887">
        <ele>774</ele>
        <time>2011-09-25T12:09:38Z</time>
      </trkpt>
      <trkpt lat="45.47752" lon="6.18874">
        <ele>774.96</ele>
        <time>2011-09-25T12:09:49Z</time>
      </trkpt>
      <trkpt lat="45.47751" lon="6.18874">
        <ele>774.48</ele>
        <time>2011-09-25T12:09:55Z</time>
      </trkpt>
      <trkpt lat="45.47746" lon="6.18867">
        <ele>775.92</ele>
        <time>2011-09-25T12:09:58Z</time>
      </trkpt>
      <trkpt lat="45.4774" lon="6.18858">
        <ele>776.4</ele>
        <time>2011-09-25T12:10:00Z</time>
      </trkpt>
      <trkpt lat="45.47721" lon="6.18822">
        <ele>776.88</ele>
        <time>2011-09-25T12:10:06Z</time>
      </trkpt>
      <trkpt lat="45.47717" lon="6.18818">
        <ele>777.84</ele>
        <time>2011-09-25T12:10:07Z</time>
      </trkpt>
      <trkpt lat="45.47694" lon="6.18801">
        <ele>779.77</ele>
        <time>2011-09-25T12:10:12Z</time>
      </trkpt>
      <trkpt lat="45.47682" lon="6.18797">
        <ele>780.25</ele>
        <time>2011-09-25T12:10:14Z</time>
      </trkpt>
      <trkpt lat="45.47677" lon="6.18796">
        <ele>780.73</ele>
        <time>2011-09-25T12:10:15Z</time>
      </trkpt>
      <trkpt lat="45.47638" lon="6.18775">
        <ele>783.61</ele>
        <time>2011-09-25T12:10:28Z</time>
      </trkpt>
      <trkpt lat="45.47607" lon="6.18735">
        <ele>786.98</ele>
        <time>2011-09-25T12:10:40Z</time>
      </trkpt>
      <trkpt lat="45.47571" lon="6.18696">
        <ele>789.86</ele>
        <time>2011-09-25T12:10:52Z</time>
      </trkpt>
      <trkpt lat="45.47542" lon="6.18675">
        <ele>791.78</ele>
        <time>2011-09-25T12:11:01Z</time>
      </trkpt>
      <trkpt lat="45.47541" lon="6.18672">
        <ele>791.78</ele>
        <time>2011-09-25T12:11:02Z</time>
      </trkpt>
      <trkpt lat="45.47541" lon="6.1867">
        <ele>792.26</ele>
        <time>2011-09-25T12:11:03Z</time>
      </trkpt>
      <trkpt lat="45.47541" lon="6.18646">
        <ele>794.19</ele>
        <time>2011-09-25T12:11:09Z</time>
      </trkpt>
      <trkpt lat="45.4753" lon="6.18599">
        <ele>797.55</ele>
        <time>2011-09-25T12:11:20Z</time>
      </trkpt>
      <trkpt lat="45.47524" lon="6.18524">
        <ele>800.44</ele>
        <time>2011-09-25T12:11:35Z</time>
      </trkpt>
      <trkpt lat="45.47501" lon="6.18478">
        <ele>803.32</ele>
        <time>2011-09-25T12:11:49Z</time>
      </trkpt>
      <trkpt lat="45.4745" lon="6.18483">
        <ele>805.72</ele>
        <time>2011-09-25T12:12:03Z</time>
      </trkpt>
      <trkpt lat="45.47423" lon="6.18448">
        <ele>808.61</ele>
        <time>2011-09-25T12:12:16Z</time>
      </trkpt>
      <trkpt lat="45.47404" lon="6.18451">
        <ele>809.09</ele>
        <time>2011-09-25T12:12:27Z</time>
      </trkpt>
      <trkpt lat="45.47424" lon="6.1849">
        <ele>810.53</ele>
        <time>2011-09-25T12:12:38Z</time>
      </trkpt>
      <trkpt lat="45.47447" lon="6.18534">
        <ele>812.93</ele>
        <time>2011-09-25T12:12:52Z</time>
      </trkpt>
      <trkpt lat="45.47469" lon="6.18578">
        <ele>815.82</ele>
        <time>2011-09-25T12:13:06Z</time>
      </trkpt>
      <trkpt lat="45.47471" lon="6.18626">
        <ele>819.66</ele>
        <time>2011-09-25T12:13:20Z</time>
      </trkpt>
      <trkpt lat="45.47437" lon="6.18635">
        <ele>822.06</ele>
        <time>2011-09-25T12:13:33Z</time>
      </trkpt>
      <trkpt lat="45.47389" lon="6.18631">
        <ele>824.47</ele>
        <time>2011-09-25T12:13:49Z</time>
      </trkpt>
      <trkpt lat="45.47352" lon="6.18627">
        <ele>827.35</ele>
        <time>2011-09-25T12:14:01Z</time>
      </trkpt>
      <trkpt lat="45.47311" lon="6.18617">
        <ele>830.24</ele>
        <time>2011-09-25T12:14:16Z</time>
      </trkpt>
      <trkpt lat="45.47275" lon="6.18623">
        <ele>832.16</ele>
        <time>2011-09-25T12:14:29Z</time>
      </trkpt>
      <trkpt lat="45.47231" lon="6.18639">
        <ele>835.52</ele>
        <time>2011-09-25T12:14:46Z</time>
      </trkpt>
      <trkpt lat="45.47192" lon="6.18672">
        <ele>837.45</ele>
        <time>2011-09-25T12:15:02Z</time>
      </trkpt>
      <trkpt lat="45.47149" lon="6.18686">
        <ele>840.33</ele>
        <time>2011-09-25T12:15:17Z</time>
      </trkpt>
      <trkpt lat="45.47096" lon="6.18686">
        <ele>843.21</ele>
        <time>2011-09-25T12:15:36Z</time>
      </trkpt>
      <trkpt lat="45.47072" lon="6.18727">
        <ele>846.1</ele>
        <time>2011-09-25T12:15:50Z</time>
      </trkpt>
      <trkpt lat="45.47082" lon="6.18751">
        <ele>847.06</ele>
        <time>2011-09-25T12:15:58Z</time>
      </trkpt>
      <trkpt lat="45.47092" lon="6.18753">
        <ele>847.54</ele>
        <time>2011-09-25T12:15:59Z</time>
      </trkpt>
      <trkpt lat="45.471" lon="6.18754">
        <ele>847.54</ele>
        <time>2011-09-25T12:16:00Z</time>
      </trkpt>
      <trkpt lat="45.47106" lon="6.18755">
        <ele>847.06</ele>
        <time>2011-09-25T12:16:01Z</time>
      </trkpt>
      <trkpt lat="45.47115" lon="6.18756">
        <ele>847.54</ele>
        <time>2011-09-25T12:16:02Z</time>
      </trkpt>
      <trkpt lat="45.47158" lon="6.18763">
        <ele>849.94</ele>
        <time>2011-09-25T12:16:16Z</time>
      </trkpt>
      <trkpt lat="45.47193" lon="6.18776">
        <ele>852.35</ele>
        <time>2011-09-25T12:16:30Z</time>
      </trkpt>
      <trkpt lat="45.47239" lon="6.18793">
        <ele>855.23</ele>
        <time>2011-09-25T12:16:48Z</time>
      </trkpt>
      <trkpt lat="45.47264" lon="6.18826">
        <ele>857.15</ele>
        <time>2011-09-25T12:17:02Z</time>
      </trkpt>
      <trkpt lat="45.47289" lon="6.18849">
        <ele>859.56</ele>
        <time>2011-09-25T12:17:17Z</time>
      </trkpt>
      <trkpt lat="45.47324" lon="6.18873">
        <ele>862.92</ele>
        <time>2011-09-25T12:17:32Z</time>
      </trkpt>
      <trkpt lat="45.47356" lon="6.18913">
        <ele>865.8</ele>
        <time>2011-09-25T12:17:48Z</time>
      </trkpt>
      <trkpt lat="45.47379" lon="6.18962">
        <ele>869.17</ele>
        <time>2011-09-25T12:18:03Z</time>
      </trkpt>
      <trkpt lat="45.47398" lon="6.19016">
        <ele>871.57</ele>
        <time>2011-09-25T12:18:19Z</time>
      </trkpt>
      <trkpt lat="45.47417" lon="6.19051">
        <ele>874.94</ele>
        <time>2011-09-25T12:18:32Z</time>
      </trkpt>
      <trkpt lat="45.4743" lon="6.19099">
        <ele>878.3</ele>
        <time>2011-09-25T12:18:47Z</time>
      </trkpt>
      <trkpt lat="45.47387" lon="6.19133">
        <ele>879.74</ele>
        <time>2011-09-25T12:18:59Z</time>
      </trkpt>
      <trkpt lat="45.47348" lon="6.19107">
        <ele>882.15</ele>
        <time>2011-09-25T12:19:14Z</time>
      </trkpt>
      <trkpt lat="45.47308" lon="6.19084">
        <ele>885.03</ele>
        <time>2011-09-25T12:19:32Z</time>
      </trkpt>
      <trkpt lat="45.47272" lon="6.19072">
        <ele>887.43</ele>
        <time>2011-09-25T12:19:49Z</time>
      </trkpt>
      <trkpt lat="45.47243" lon="6.19059">
        <ele>890.32</ele>
        <time>2011-09-25T12:20:03Z</time>
      </trkpt>
      <trkpt lat="45.47199" lon="6.19057">
        <ele>893.2</ele>
        <time>2011-09-25T12:20:19Z</time>
      </trkpt>
      <trkpt lat="45.47168" lon="6.19087">
        <ele>896.57</ele>
        <time>2011-09-25T12:20:35Z</time>
      </trkpt>
      <trkpt lat="45.47133" lon="6.19088">
        <ele>898.97</ele>
        <time>2011-09-25T12:20:50Z</time>
      </trkpt>
      <trkpt lat="45.47096" lon="6.1908">
        <ele>900.89</ele>
        <time>2011-09-25T12:21:06Z</time>
      </trkpt>
      <trkpt lat="45.47064" lon="6.19108">
        <ele>903.78</ele>
        <time>2011-09-25T12:21:23Z</time>
      </trkpt>
      <trkpt lat="45.47046" lon="6.19147">
        <ele>906.18</ele>
        <time>2011-09-25T12:21:40Z</time>
      </trkpt>
      <trkpt lat="45.47052" lon="6.19166">
        <ele>908.1</ele>
        <time>2011-09-25T12:21:52Z</time>
      </trkpt>
      <trkpt lat="45.47054" lon="6.19166">
        <ele>908.1</ele>
        <time>2011-09-25T12:21:53Z</time>
      </trkpt>
      <trkpt lat="45.47057" lon="6.19168">
        <ele>908.58</ele>
        <time>2011-09-25T12:21:54Z</time>
      </trkpt>
      <trkpt lat="45.47089" lon="6.1918">
        <ele>910.99</ele>
        <time>2011-09-25T12:22:09Z</time>
      </trkpt>
      <trkpt lat="45.47118" lon="6.19205">
        <ele>912.91</ele>
        <time>2011-09-25T12:22:23Z</time>
      </trkpt>
      <trkpt lat="45.47152" lon="6.19231">
        <ele>915.31</ele>
        <time>2011-09-25T12:22:41Z</time>
      </trkpt>
      <trkpt lat="45.47176" lon="6.19256">
        <ele>917.72</ele>
        <time>2011-09-25T12:22:55Z</time>
      </trkpt>
      <trkpt lat="45.47194" lon="6.19284">
        <ele>920.12</ele>
        <time>2011-09-25T12:23:11Z</time>
      </trkpt>
      <trkpt lat="45.47208" lon="6.19314">
        <ele>923.48</ele>
        <time>2011-09-25T12:23:25Z</time>
      </trkpt>
      <trkpt lat="45.47208" lon="6.19327">
        <ele>923.96</ele>
        <time>2011-09-25T12:23:33Z</time>
      </trkpt>
      <trkpt lat="45.47208" lon="6.19329">
        <ele>923.96</ele>
        <time>2011-09-25T12:23:34Z</time>
      </trkpt>
      <trkpt lat="45.47207" lon="6.19332">
        <ele>924.45</ele>
        <time>2011-09-25T12:23:35Z</time>
      </trkpt>
      <trkpt lat="45.47206" lon="6.19334">
        <ele>924.45</ele>
        <time>2011-09-25T12:23:36Z</time>
      </trkpt>
      <trkpt lat="45.47205" lon="6.19337">
        <ele>924.93</ele>
        <time>2011-09-25T12:23:37Z</time>
      </trkpt>
      <trkpt lat="45.47203" lon="6.19339">
        <ele>924.93</ele>
        <time>2011-09-25T12:23:38Z</time>
      </trkpt>
      <trkpt lat="45.47202" lon="6.19342">
        <ele>924.93</ele>
        <time>2011-09-25T12:23:39Z</time>
      </trkpt>
      <trkpt lat="45.47172" lon="6.19364">
        <ele>927.81</ele>
        <time>2011-09-25T12:23:57Z</time>
      </trkpt>
      <trkpt lat="45.47144" lon="6.19358">
        <ele>930.69</ele>
        <time>2011-09-25T12:24:12Z</time>
      </trkpt>
      <trkpt lat="45.47107" lon="6.19357">
        <ele>934.06</ele>
        <time>2011-09-25T12:24:29Z</time>
      </trkpt>
      <trkpt lat="45.47078" lon="6.1935">
        <ele>937.42</ele>
        <time>2011-09-25T12:24:47Z</time>
      </trkpt>
      <trkpt lat="45.47049" lon="6.19334">
        <ele>939.35</ele>
        <time>2011-09-25T12:25:02Z</time>
      </trkpt>
      <trkpt lat="45.47019" lon="6.19353">
        <ele>942.71</ele>
        <time>2011-09-25T12:25:17Z</time>
      </trkpt>
      <trkpt lat="45.47018" lon="6.19362">
        <ele>943.67</ele>
        <time>2011-09-25T12:25:23Z</time>
      </trkpt>
      <trkpt lat="45.47019" lon="6.19365">
        <ele>943.67</ele>
        <time>2011-09-25T12:25:24Z</time>
      </trkpt>
      <trkpt lat="45.4702" lon="6.19366">
        <ele>943.67</ele>
        <time>2011-09-25T12:25:25Z</time>
      </trkpt>
      <trkpt lat="45.47055" lon="6.19393">
        <ele>947.04</ele>
        <time>2011-09-25T12:25:40Z</time>
      </trkpt>
      <trkpt lat="45.47084" lon="6.19424">
        <ele>949.44</ele>
        <time>2011-09-25T12:25:55Z</time>
      </trkpt>
      <trkpt lat="45.471" lon="6.19464">
        <ele>952.8</ele>
        <time>2011-09-25T12:26:09Z</time>
      </trkpt>
      <trkpt lat="45.47118" lon="6.19507">
        <ele>955.69</ele>
        <time>2011-09-25T12:26:24Z</time>
      </trkpt>
      <trkpt lat="45.47147" lon="6.19544">
        <ele>957.61</ele>
        <time>2011-09-25T12:26:41Z</time>
      </trkpt>
      <trkpt lat="45.47173" lon="6.19569">
        <ele>959.53</ele>
        <time>2011-09-25T12:26:55Z</time>
      </trkpt>
      <trkpt lat="45.47198" lon="6.19612">
        <ele>961.94</ele>
        <time>2011-09-25T12:27:09Z</time>
      </trkpt>
      <trkpt lat="45.47177" lon="6.19636">
        <ele>964.82</ele>
        <time>2011-09-25T12:27:23Z</time>
      </trkpt>
      <trkpt lat="45.47138" lon="6.19605">
        <ele>967.7</ele>
        <time>2011-09-25T12:27:40Z</time>
      </trkpt>
      <trkpt lat="45.47097" lon="6.19573">
        <ele>971.07</ele>
        <time>2011-09-25T12:28:00Z</time>
      </trkpt>
      <trkpt lat="45.47068" lon="6.19541">
        <ele>973.95</ele>
        <time>2011-09-25T12:28:16Z</time>
      </trkpt>
      <trkpt lat="45.47037" lon="6.19509">
        <ele>976.36</ele>
        <time>2011-09-25T12:28:31Z</time>
      </trkpt>
      <trkpt lat="45.47009" lon="6.19493">
        <ele>979.72</ele>
        <time>2011-09-25T12:28:46Z</time>
      </trkpt>
      <trkpt lat="45.46994" lon="6.1952">
        <ele>983.09</ele>
        <time>2011-09-25T12:28:59Z</time>
      </trkpt>
      <trkpt lat="45.47015" lon="6.19552">
        <ele>985.49</ele>
        <time>2011-09-25T12:29:14Z</time>
      </trkpt>
      <trkpt lat="45.47041" lon="6.1958">
        <ele>988.37</ele>
        <time>2011-09-25T12:29:27Z</time>
      </trkpt>
      <trkpt lat="45.47061" lon="6.19623">
        <ele>991.74</ele>
        <time>2011-09-25T12:29:43Z</time>
      </trkpt>
      <trkpt lat="45.47076" lon="6.19672">
        <ele>995.1</ele>
        <time>2011-09-25T12:29:58Z</time>
      </trkpt>
      <trkpt lat="45.47096" lon="6.19721">
        <ele>997.99</ele>
        <time>2011-09-25T12:30:13Z</time>
      </trkpt>
      <trkpt lat="45.47118" lon="6.19771">
        <ele>1000.87</ele>
        <time>2011-09-25T12:30:29Z</time>
      </trkpt>
      <trkpt lat="45.4713" lon="6.19795">
        <ele>1002.31</ele>
        <time>2011-09-25T12:30:43Z</time>
      </trkpt>
      <trkpt lat="45.4713" lon="6.19796">
        <ele>1002.31</ele>
        <time>2011-09-25T12:30:59Z</time>
      </trkpt>
      <trkpt lat="45.4713" lon="6.19807">
        <ele>1002.79</ele>
        <time>2011-09-25T12:31:13Z</time>
      </trkpt>
      <trkpt lat="45.47128" lon="6.19807">
        <ele>1002.79</ele>
        <time>2011-09-25T12:31:15Z</time>
      </trkpt>
      <trkpt lat="45.47127" lon="6.19806">
        <ele>1002.79</ele>
        <time>2011-09-25T12:31:16Z</time>
      </trkpt>
      <trkpt lat="45.47126" lon="6.19805">
        <ele>1002.79</ele>
        <time>2011-09-25T12:31:17Z</time>
      </trkpt>
      <trkpt lat="45.4712" lon="6.19803">
        <ele>1002.79</ele>
        <time>2011-09-25T12:31:24Z</time>
      </trkpt>
      <trkpt lat="45.47095" lon="6.19793">
        <ele>1005.68</ele>
        <time>2011-09-25T12:31:40Z</time>
      </trkpt>
      <trkpt lat="45.47059" lon="6.19757">
        <ele>1008.08</ele>
        <time>2011-09-25T12:31:57Z</time>
      </trkpt>
      <trkpt lat="45.47038" lon="6.19746">
        <ele>1010.48</ele>
        <time>2011-09-25T12:32:13Z</time>
      </trkpt>
      <trkpt lat="45.47033" lon="6.19745">
        <ele>1011.93</ele>
        <time>2011-09-25T12:32:24Z</time>
      </trkpt>
      <trkpt lat="45.47019" lon="6.1974">
        <ele>1013.85</ele>
        <time>2011-09-25T12:32:32Z</time>
      </trkpt>
      <trkpt lat="45.46987" lon="6.19714">
        <ele>1017.21</ele>
        <time>2011-09-25T12:32:46Z</time>
      </trkpt>
      <trkpt lat="45.46959" lon="6.19699">
        <ele>1020.1</ele>
        <time>2011-09-25T12:32:59Z</time>
      </trkpt>
      <trkpt lat="45.46958" lon="6.19709">
        <ele>1021.06</ele>
        <time>2011-09-25T12:33:03Z</time>
      </trkpt>
      <trkpt lat="45.46971" lon="6.19728">
        <ele>1022.5</ele>
        <time>2011-09-25T12:33:09Z</time>
      </trkpt>
      <trkpt lat="45.46991" lon="6.19767">
        <ele>1025.38</ele>
        <time>2011-09-25T12:33:25Z</time>
      </trkpt>
      <trkpt lat="45.47" lon="6.19794">
        <ele>1028.75</ele>
        <time>2011-09-25T12:33:37Z</time>
      </trkpt>
      <trkpt lat="45.47007" lon="6.19815">
        <ele>1030.67</ele>
        <time>2011-09-25T12:33:46Z</time>
      </trkpt>
      <trkpt lat="45.47017" lon="6.19851">
        <ele>1033.55</ele>
        <time>2011-09-25T12:34:03Z</time>
      </trkpt>
      <trkpt lat="45.47028" lon="6.1989">
        <ele>1036.92</ele>
        <time>2011-09-25T12:34:20Z</time>
      </trkpt>
      <trkpt lat="45.47039" lon="6.1992">
        <ele>1039.8</ele>
        <time>2011-09-25T12:34:35Z</time>
      </trkpt>
      <trkpt lat="45.47046" lon="6.19962">
        <ele>1042.69</ele>
        <time>2011-09-25T12:34:53Z</time>
      </trkpt>
      <trkpt lat="45.47051" lon="6.20002">
        <ele>1046.05</ele>
        <time>2011-09-25T12:35:10Z</time>
      </trkpt>
      <trkpt lat="45.47049" lon="6.20039">
        <ele>1049.42</ele>
        <time>2011-09-25T12:35:27Z</time>
      </trkpt>
      <trkpt lat="45.47056" lon="6.20066">
        <ele>1052.78</ele>
        <time>2011-09-25T12:35:39Z</time>
      </trkpt>
      <trkpt lat="45.47065" lon="6.20099">
        <ele>1055.67</ele>
        <time>2011-09-25T12:35:54Z</time>
      </trkpt>
      <trkpt lat="45.47072" lon="6.20137">
        <ele>1058.55</ele>
        <time>2011-09-25T12:36:10Z</time>
      </trkpt>
      <trkpt lat="45.47081" lon="6.2018">
        <ele>1061.43</ele>
        <time>2011-09-25T12:36:26Z</time>
      </trkpt>
      <trkpt lat="45.47092" lon="6.20193">
        <ele>1062.87</ele>
        <time>2011-09-25T12:36:39Z</time>
      </trkpt>
      <trkpt lat="45.47113" lon="6.20189">
        <ele>1065.76</ele>
        <time>2011-09-25T12:36:55Z</time>
      </trkpt>
      <trkpt lat="45.4714" lon="6.20191">
        <ele>1066.24</ele>
        <time>2011-09-25T12:37:11Z</time>
      </trkpt>
      <trkpt lat="45.4714" lon="6.20191">
        <ele>1066.72</ele>
        <time>2011-09-25T12:37:36Z</time>
      </trkpt>
      <trkpt lat="45.4714" lon="6.2019">
        <ele>1067.2</ele>
        <time>2011-09-25T12:38:05Z</time>
      </trkpt>
      <trkpt lat="45.47141" lon="6.20192">
        <ele>1066.72</ele>
        <time>2011-09-25T12:38:30Z</time>
      </trkpt>
      <trkpt lat="45.47141" lon="6.20192">
        <ele>1065.76</ele>
        <time>2011-09-25T12:38:31Z</time>
      </trkpt>
      <trkpt lat="45.47141" lon="6.2019">
        <ele>1064.32</ele>
        <time>2011-09-25T12:38:33Z</time>
      </trkpt>
      <trkpt lat="45.47144" lon="6.20179">
        <ele>1060.47</ele>
        <time>2011-09-25T12:38:37Z</time>
      </trkpt>
      <trkpt lat="45.47146" lon="6.20163">
        <ele>1056.63</ele>
        <time>2011-09-25T12:38:41Z</time>
      </trkpt>
      <trkpt lat="45.47146" lon="6.20151">
        <ele>1053.74</ele>
        <time>2011-09-25T12:38:44Z</time>
      </trkpt>
      <trkpt lat="45.47145" lon="6.20145">
        <ele>1052.3</ele>
        <time>2011-09-25T12:38:45Z</time>
      </trkpt>
      <trkpt lat="45.47142" lon="6.20127">
        <ele>1049.42</ele>
        <time>2011-09-25T12:38:49Z</time>
      </trkpt>
      <trkpt lat="45.47142" lon="6.20115">
        <ele>1047.49</ele>
        <time>2011-09-25T12:38:52Z</time>
      </trkpt>
      <trkpt lat="45.47146" lon="6.20085">
        <ele>1044.13</ele>
        <time>2011-09-25T12:38:56Z</time>
      </trkpt>
      <trkpt lat="45.47147" lon="6.20081">
        <ele>1043.17</ele>
        <time>2011-09-25T12:38:57Z</time>
      </trkpt>
      <trkpt lat="45.47154" lon="6.20066">
        <ele>1040.28</ele>
        <time>2011-09-25T12:39:01Z</time>
      </trkpt>
      <trkpt lat="45.47155" lon="6.20063">
        <ele>1039.8</ele>
        <time>2011-09-25T12:39:02Z</time>
      </trkpt>
      <trkpt lat="45.47157" lon="6.20061">
        <ele>1038.36</ele>
        <time>2011-09-25T12:39:03Z</time>
      </trkpt>
      <trkpt lat="45.47166" lon="6.20043">
        <ele>1035</ele>
        <time>2011-09-25T12:39:09Z</time>
      </trkpt>
      <trkpt lat="45.4717" lon="6.20035">
        <ele>1031.63</ele>
        <time>2011-09-25T12:39:12Z</time>
      </trkpt>
      <trkpt lat="45.47173" lon="6.20032">
        <ele>1031.15</ele>
        <time>2011-09-25T12:39:13Z</time>
      </trkpt>
      <trkpt lat="45.47176" lon="6.20024">
        <ele>1028.75</ele>
        <time>2011-09-25T12:39:16Z</time>
      </trkpt>
      <trkpt lat="45.47186" lon="6.20012">
        <ele>1025.38</ele>
        <time>2011-09-25T12:39:20Z</time>
      </trkpt>
      <trkpt lat="45.47195" lon="6.2">
        <ele>1022.02</ele>
        <time>2011-09-25T12:39:23Z</time>
      </trkpt>
      <trkpt lat="45.47212" lon="6.19985">
        <ele>1018.17</ele>
        <time>2011-09-25T12:39:27Z</time>
      </trkpt>
      <trkpt lat="45.47218" lon="6.19977">
        <ele>1017.21</ele>
        <time>2011-09-25T12:39:29Z</time>
      </trkpt>
      <trkpt lat="45.47228" lon="6.19961">
        <ele>1013.85</ele>
        <time>2011-09-25T12:39:34Z</time>
      </trkpt>
      <trkpt lat="45.47231" lon="6.19952">
        <ele>1010</ele>
        <time>2011-09-25T12:39:37Z</time>
      </trkpt>
      <trkpt lat="45.47243" lon="6.1993">
        <ele>1006.16</ele>
        <time>2011-09-25T12:39:41Z</time>
      </trkpt>
      <trkpt lat="45.47247" lon="6.19912">
        <ele>1002.31</ele>
        <time>2011-09-25T12:39:45Z</time>
      </trkpt>
      <trkpt lat="45.47249" lon="6.19899">
        <ele>998.95</ele>
        <time>2011-09-25T12:39:48Z</time>
      </trkpt>
      <trkpt lat="45.47249" lon="6.19896">
        <ele>997.99</ele>
        <time>2011-09-25T12:39:49Z</time>
      </trkpt>
      <trkpt lat="45.4725" lon="6.19866">
        <ele>994.62</ele>
        <time>2011-09-25T12:39:54Z</time>
      </trkpt>
      <trkpt lat="45.47257" lon="6.19839">
        <ele>990.3</ele>
        <time>2011-09-25T12:39:58Z</time>
      </trkpt>
      <trkpt lat="45.4726" lon="6.19832">
        <ele>988.85</ele>
        <time>2011-09-25T12:39:59Z</time>
      </trkpt>
      <trkpt lat="45.47267" lon="6.19816">
        <ele>985.49</ele>
        <time>2011-09-25T12:40:02Z</time>
      </trkpt>
      <trkpt lat="45.47277" lon="6.19792">
        <ele>982.12</ele>
        <time>2011-09-25T12:40:06Z</time>
      </trkpt>
      <trkpt lat="45.47284" lon="6.19774">
        <ele>979.24</ele>
        <time>2011-09-25T12:40:09Z</time>
      </trkpt>
      <trkpt lat="45.47292" lon="6.19754">
        <ele>975.88</ele>
        <time>2011-09-25T12:40:13Z</time>
      </trkpt>
      <trkpt lat="45.47294" lon="6.19741">
        <ele>972.99</ele>
        <time>2011-09-25T12:40:15Z</time>
      </trkpt>
      <trkpt lat="45.47306" lon="6.1972">
        <ele>969.63</ele>
        <time>2011-09-25T12:40:19Z</time>
      </trkpt>
      <trkpt lat="45.47321" lon="6.19706">
        <ele>967.7</ele>
        <time>2011-09-25T12:40:22Z</time>
      </trkpt>
      <trkpt lat="45.47331" lon="6.19689">
        <ele>964.82</ele>
        <time>2011-09-25T12:40:25Z</time>
      </trkpt>
      <trkpt lat="45.47357" lon="6.19658">
        <ele>962.9</ele>
        <time>2011-09-25T12:40:38Z</time>
      </trkpt>
      <trkpt lat="45.47357" lon="6.19658">
        <ele>964.82</ele>
        <time>2011-09-25T12:41:09Z</time>
      </trkpt>
      <trkpt lat="45.47357" lon="6.19658">
        <ele>963.86</ele>
        <time>2011-09-25T12:41:11Z</time>
      </trkpt>
      <trkpt lat="45.47358" lon="6.19667">
        <ele>965.78</ele>
        <time>2011-09-25T12:41:17Z</time>
      </trkpt>
      <trkpt lat="45.47353" lon="6.19685">
        <ele>968.67</ele>
        <time>2011-09-25T12:41:29Z</time>
      </trkpt>
      <trkpt lat="45.47343" lon="6.19701">
        <ele>972.03</ele>
        <time>2011-09-25T12:41:40Z</time>
      </trkpt>
      <trkpt lat="45.47335" lon="6.1971">
        <ele>973.47</ele>
        <time>2011-09-25T12:41:47Z</time>
      </trkpt>
      <trkpt lat="45.47334" lon="6.19715">
        <ele>974.91</ele>
        <time>2011-09-25T12:41:52Z</time>
      </trkpt>
      <trkpt lat="45.47333" lon="6.19722">
        <ele>975.88</ele>
        <time>2011-09-25T12:41:56Z</time>
      </trkpt>
      <trkpt lat="45.47329" lon="6.19731">
        <ele>977.32</ele>
        <time>2011-09-25T12:42:01Z</time>
      </trkpt>
      <trkpt lat="45.47319" lon="6.1975">
        <ele>980.68</ele>
        <time>2011-09-25T12:42:13Z</time>
      </trkpt>
      <trkpt lat="45.47308" lon="6.19768">
        <ele>983.57</ele>
        <time>2011-09-25T12:42:28Z</time>
      </trkpt>
      <trkpt lat="45.473" lon="6.19784">
        <ele>986.45</ele>
        <time>2011-09-25T12:42:42Z</time>
      </trkpt>
      <trkpt lat="45.47289" lon="6.198">
        <ele>989.81</ele>
        <time>2011-09-25T12:42:57Z</time>
      </trkpt>
      <trkpt lat="45.47283" lon="6.19817">
        <ele>992.7</ele>
        <time>2011-09-25T12:43:11Z</time>
      </trkpt>
      <trkpt lat="45.47274" lon="6.19826">
        <ele>995.1</ele>
        <time>2011-09-25T12:43:21Z</time>
      </trkpt>
      <trkpt lat="45.47265" lon="6.19841">
        <ele>998.47</ele>
        <time>2011-09-25T12:43:36Z</time>
      </trkpt>
      <trkpt lat="45.47258" lon="6.19858">
        <ele>1000.39</ele>
        <time>2011-09-25T12:43:48Z</time>
      </trkpt>
      <trkpt lat="45.47257" lon="6.19878">
        <ele>1002.79</ele>
        <time>2011-09-25T12:44:05Z</time>
      </trkpt>
      <trkpt lat="45.47258" lon="6.19898">
        <ele>1006.16</ele>
        <time>2011-09-25T12:44:21Z</time>
      </trkpt>
      <trkpt lat="45.47258" lon="6.19917">
        <ele>1009.04</ele>
        <time>2011-09-25T12:44:40Z</time>
      </trkpt>
      <trkpt lat="45.47256" lon="6.19933">
        <ele>1012.41</ele>
        <time>2011-09-25T12:44:55Z</time>
      </trkpt>
      <trkpt lat="45.47252" lon="6.19953">
        <ele>1015.29</ele>
        <time>2011-09-25T12:45:13Z</time>
      </trkpt>
      <trkpt lat="45.47249" lon="6.19973">
        <ele>1018.17</ele>
        <time>2011-09-25T12:45:30Z</time>
      </trkpt>
      <trkpt lat="45.47247" lon="6.19982">
        <ele>1021.06</ele>
        <time>2011-09-25T12:45:46Z</time>
      </trkpt>
      <trkpt lat="45.47247" lon="6.19985">
        <ele>1021.54</ele>
        <time>2011-09-25T12:45:52Z</time>
      </trkpt>
      <trkpt lat="45.47245" lon="6.19991">
        <ele>1022.5</ele>
        <time>2011-09-25T12:45:55Z</time>
      </trkpt>
      <trkpt lat="45.47241" lon="6.20005">
        <ele>1025.38</ele>
        <time>2011-09-25T12:46:13Z</time>
      </trkpt>
      <trkpt lat="45.4724" lon="6.20006">
        <ele>1025.86</ele>
        <time>2011-09-25T12:46:14Z</time>
      </trkpt>
      <trkpt lat="45.47237" lon="6.20012">
        <ele>1026.34</ele>
        <time>2011-09-25T12:46:18Z</time>
      </trkpt>
      <trkpt lat="45.47236" lon="6.20015">
        <ele>1026.34</ele>
        <time>2011-09-25T12:46:20Z</time>
      </trkpt>
      <trkpt lat="45.4723" lon="6.20024">
        <ele>1028.75</ele>
        <time>2011-09-25T12:46:28Z</time>
      </trkpt>
      <trkpt lat="45.47216" lon="6.20039">
        <ele>1031.63</ele>
        <time>2011-09-25T12:46:44Z</time>
      </trkpt>
      <trkpt lat="45.47203" lon="6.20055">
        <ele>1034.52</ele>
        <time>2011-09-25T12:47:00Z</time>
      </trkpt>
      <trkpt lat="45.47193" lon="6.20065">
        <ele>1037.88</ele>
        <time>2011-09-25T12:47:17Z</time>
      </trkpt>
      <trkpt lat="45.47186" lon="6.20073">
        <ele>1040.28</ele>
        <time>2011-09-25T12:47:34Z</time>
      </trkpt>
      <trkpt lat="45.47182" lon="6.20075">
        <ele>1042.69</ele>
        <time>2011-09-25T12:47:49Z</time>
      </trkpt>
      <trkpt lat="45.47166" lon="6.20087">
        <ele>1045.57</ele>
        <time>2011-09-25T12:48:06Z</time>
      </trkpt>
      <trkpt lat="45.47162" lon="6.20091">
        <ele>1046.05</ele>
        <time>2011-09-25T12:48:10Z</time>
      </trkpt>
      <trkpt lat="45.47158" lon="6.20102">
        <ele>1047.49</ele>
        <time>2011-09-25T12:48:18Z</time>
      </trkpt>
      <trkpt lat="45.47157" lon="6.20127">
        <ele>1050.86</ele>
        <time>2011-09-25T12:48:38Z</time>
      </trkpt>
      <trkpt lat="45.47155" lon="6.20146">
        <ele>1053.26</ele>
        <time>2011-09-25T12:48:55Z</time>
      </trkpt>
      <trkpt lat="45.47153" lon="6.2016">
        <ele>1055.67</ele>
        <time>2011-09-25T12:49:12Z</time>
      </trkpt>
      <trkpt lat="45.47159" lon="6.20176">
        <ele>1059.03</ele>
        <time>2011-09-25T12:49:27Z</time>
      </trkpt>
      <trkpt lat="45.47152" lon="6.20196">
        <ele>1061.91</ele>
        <time>2011-09-25T12:49:43Z</time>
      </trkpt>
      <trkpt lat="45.47148" lon="6.20208">
        <ele>1063.36</ele>
        <time>2011-09-25T12:49:51Z</time>
      </trkpt>
      <trkpt lat="45.47144" lon="6.20215">
        <ele>1063.84</ele>
        <time>2011-09-25T12:49:56Z</time>
      </trkpt>
      <trkpt lat="45.47156" lon="6.20241">
        <ele>1064.8</ele>
        <time>2011-09-25T12:50:11Z</time>
      </trkpt>
      <trkpt lat="45.47173" lon="6.20263">
        <ele>1065.28</ele>
        <time>2011-09-25T12:50:25Z</time>
      </trkpt>
      <trkpt lat="45.47205" lon="6.20264">
        <ele>1066.24</ele>
        <time>2011-09-25T12:50:39Z</time>
      </trkpt>
      <trkpt lat="45.47245" lon="6.20289">
        <ele>1067.2</ele>
        <time>2011-09-25T12:50:53Z</time>
      </trkpt>
      <trkpt lat="45.47288" lon="6.20324">
        <ele>1068.64</ele>
        <time>2011-09-25T12:51:10Z</time>
      </trkpt>
      <trkpt lat="45.47329" lon="6.20365">
        <ele>1070.57</ele>
        <time>2011-09-25T12:51:26Z</time>
      </trkpt>
      <trkpt lat="45.47359" lon="6.20431">
        <ele>1073.45</ele>
        <time>2011-09-25T12:51:44Z</time>
      </trkpt>
      <trkpt lat="45.4736" lon="6.20516">
        <ele>1075.37</ele>
        <time>2011-09-25T12:51:59Z</time>
      </trkpt>
      <trkpt lat="45.47368" lon="6.20632">
        <ele>1078.74</ele>
        <time>2011-09-25T12:52:17Z</time>
      </trkpt>
      <trkpt lat="45.47382" lon="6.20718">
        <ele>1080.66</ele>
        <time>2011-09-25T12:52:31Z</time>
      </trkpt>
      <trkpt lat="45.4739" lon="6.20794">
        <ele>1082.58</ele>
        <time>2011-09-25T12:52:45Z</time>
      </trkpt>
      <trkpt lat="45.4739" lon="6.20861">
        <ele>1084.5</ele>
        <time>2011-09-25T12:52:59Z</time>
      </trkpt>
      <trkpt lat="45.47362" lon="6.20909">
        <ele>1086.43</ele>
        <time>2011-09-25T12:53:12Z</time>
      </trkpt>
      <trkpt lat="45.47354" lon="6.20936">
        <ele>1085.95</ele>
        <time>2011-09-25T12:53:24Z</time>
      </trkpt>
      <trkpt lat="45.47354" lon="6.20934">
        <ele>1086.43</ele>
        <time>2011-09-25T12:53:47Z</time>
      </trkpt>
      <trkpt lat="45.47353" lon="6.2094">
        <ele>1087.39</ele>
        <time>2011-09-25T12:54:02Z</time>
      </trkpt>
      <trkpt lat="45.47353" lon="6.2094">
        <ele>1087.39</ele>
        <time>2011-09-25T12:54:15Z</time>
      </trkpt>
      <trkpt lat="45.47354" lon="6.20936">
        <ele>1085.95</ele>
        <time>2011-09-25T12:54:18Z</time>
      </trkpt>
      <trkpt lat="45.47367" lon="6.20913">
        <ele>1082.58</ele>
        <time>2011-09-25T12:54:25Z</time>
      </trkpt>
      <trkpt lat="45.47371" lon="6.20908">
        <ele>1082.58</ele>
        <time>2011-09-25T12:54:26Z</time>
      </trkpt>
      <trkpt lat="45.47384" lon="6.20896">
        <ele>1080.18</ele>
        <time>2011-09-25T12:54:29Z</time>
      </trkpt>
      <trkpt lat="45.47398" lon="6.20888">
        <ele>1078.26</ele>
        <time>2011-09-25T12:54:32Z</time>
      </trkpt>
      <trkpt lat="45.47442" lon="6.20885">
        <ele>1074.41</ele>
        <time>2011-09-25T12:54:36Z</time>
      </trkpt>
      <trkpt lat="45.47456" lon="6.20884">
        <ele>1073.93</ele>
        <time>2011-09-25T12:54:38Z</time>
      </trkpt>
      <trkpt lat="45.47474" lon="6.20878">
        <ele>1072.49</ele>
        <time>2011-09-25T12:54:41Z</time>
      </trkpt>
      <trkpt lat="45.47479" lon="6.20876">
        <ele>1071.53</ele>
        <time>2011-09-25T12:54:42Z</time>
      </trkpt>
      <trkpt lat="45.47492" lon="6.20867">
        <ele>1068.16</ele>
        <time>2011-09-25T12:54:45Z</time>
      </trkpt>
      <trkpt lat="45.47494" lon="6.20866">
        <ele>1067.2</ele>
        <time>2011-09-25T12:54:46Z</time>
      </trkpt>
      <trkpt lat="45.47525" lon="6.20867">
        <ele>1064.32</ele>
        <time>2011-09-25T12:54:51Z</time>
      </trkpt>
      <trkpt lat="45.47547" lon="6.20878">
        <ele>1062.39</ele>
        <time>2011-09-25T12:55:00Z</time>
      </trkpt>
      <trkpt lat="45.47547" lon="6.20882">
        <ele>1062.39</ele>
        <time>2011-09-25T12:55:24Z</time>
      </trkpt>
      <trkpt lat="45.47547" lon="6.20886">
        <ele>1062.39</ele>
        <time>2011-09-25T12:55:25Z</time>
      </trkpt>
      <trkpt lat="45.47559" lon="6.20938">
        <ele>1064.32</ele>
        <time>2011-09-25T12:55:43Z</time>
      </trkpt>
      <trkpt lat="45.47561" lon="6.20941">
        <ele>1065.28</ele>
        <time>2011-09-25T12:55:46Z</time>
      </trkpt>
      <trkpt lat="45.47553" lon="6.20941">
        <ele>1068.16</ele>
        <time>2011-09-25T12:56:01Z</time>
      </trkpt>
      <trkpt lat="45.47549" lon="6.20941">
        <ele>1070.08</ele>
        <time>2011-09-25T12:56:10Z</time>
      </trkpt>
      <trkpt lat="45.47545" lon="6.20937">
        <ele>1072.01</ele>
        <time>2011-09-25T12:56:19Z</time>
      </trkpt>
      <trkpt lat="45.47532" lon="6.20931">
        <ele>1074.41</ele>
        <time>2011-09-25T12:56:29Z</time>
      </trkpt>
      <trkpt lat="45.47528" lon="6.2093">
        <ele>1075.85</ele>
        <time>2011-09-25T12:56:38Z</time>
      </trkpt>
      <trkpt lat="45.47523" lon="6.20939">
        <ele>1078.26</ele>
        <time>2011-09-25T12:56:52Z</time>
      </trkpt>
      <trkpt lat="45.47521" lon="6.20948">
        <ele>1082.1</ele>
        <time>2011-09-25T12:57:05Z</time>
      </trkpt>
      <trkpt lat="45.4752" lon="6.2096">
        <ele>1084.99</ele>
        <time>2011-09-25T12:57:22Z</time>
      </trkpt>
      <trkpt lat="45.47519" lon="6.20968">
        <ele>1085.95</ele>
        <time>2011-09-25T12:57:38Z</time>
      </trkpt>
      <trkpt lat="45.47517" lon="6.20969">
        <ele>1086.91</ele>
        <time>2011-09-25T12:57:46Z</time>
      </trkpt>
      <trkpt lat="45.47506" lon="6.20966">
        <ele>1090.27</ele>
        <time>2011-09-25T12:57:57Z</time>
      </trkpt>
      <trkpt lat="45.47496" lon="6.20961">
        <ele>1093.64</ele>
        <time>2011-09-25T12:58:15Z</time>
      </trkpt>
      <trkpt lat="45.47487" lon="6.20961">
        <ele>1096.52</ele>
        <time>2011-09-25T12:58:27Z</time>
      </trkpt>
      <trkpt lat="45.47486" lon="6.20961">
        <ele>1096.04</ele>
        <time>2011-09-25T12:58:28Z</time>
      </trkpt>
      <trkpt lat="45.47472" lon="6.20961">
        <ele>1098.92</ele>
        <time>2011-09-25T12:58:46Z</time>
      </trkpt>
      <trkpt lat="45.47476" lon="6.2097">
        <ele>1102.29</ele>
        <time>2011-09-25T12:59:01Z</time>
      </trkpt>
      <trkpt lat="45.47478" lon="6.20974">
        <ele>1102.29</ele>
        <time>2011-09-25T12:59:05Z</time>
      </trkpt>
      <trkpt lat="45.47487" lon="6.21002">
        <ele>1103.73</ele>
        <time>2011-09-25T12:59:24Z</time>
      </trkpt>
      <trkpt lat="45.47492" lon="6.21016">
        <ele>1104.69</ele>
        <time>2011-09-25T12:59:35Z</time>
      </trkpt>
      <trkpt lat="45.47493" lon="6.21025">
        <ele>1107.58</ele>
        <time>2011-09-25T12:59:52Z</time>
      </trkpt>
      <trkpt lat="45.47493" lon="6.21025">
        <ele>1108.54</ele>
        <time>2011-09-25T13:00:18Z</time>
      </trkpt>
      <trkpt lat="45.47492" lon="6.2103">
        <ele>1109.02</ele>
        <time>2011-09-25T13:00:24Z</time>
      </trkpt>
      <trkpt lat="45.47479" lon="6.21043">
        <ele>1112.86</ele>
        <time>2011-09-25T13:00:39Z</time>
      </trkpt>
      <trkpt lat="45.47473" lon="6.21037">
        <ele>1116.23</ele>
        <time>2011-09-25T13:00:52Z</time>
      </trkpt>
      <trkpt lat="45.4747" lon="6.21031">
        <ele>1119.59</ele>
        <time>2011-09-25T13:01:07Z</time>
      </trkpt>
      <trkpt lat="45.47466" lon="6.2103">
        <ele>1122.48</ele>
        <time>2011-09-25T13:01:25Z</time>
      </trkpt>
      <trkpt lat="45.47464" lon="6.2103">
        <ele>1122</ele>
        <time>2011-09-25T13:01:27Z</time>
      </trkpt>
      <trkpt lat="45.47456" lon="6.21025">
        <ele>1122.96</ele>
        <time>2011-09-25T13:01:32Z</time>
      </trkpt>
      <trkpt lat="45.47443" lon="6.21018">
        <ele>1125.84</ele>
        <time>2011-09-25T13:01:48Z</time>
      </trkpt>
      <trkpt lat="45.47441" lon="6.21017">
        <ele>1126.32</ele>
        <time>2011-09-25T13:01:50Z</time>
      </trkpt>
      <trkpt lat="45.47437" lon="6.21016">
        <ele>1126.8</ele>
        <time>2011-09-25T13:01:54Z</time>
      </trkpt>
      <trkpt lat="45.4743" lon="6.21013">
        <ele>1129.21</ele>
        <time>2011-09-25T13:02:08Z</time>
      </trkpt>
      <trkpt lat="45.47427" lon="6.21013">
        <ele>1129.21</ele>
        <time>2011-09-25T13:02:10Z</time>
      </trkpt>
      <trkpt lat="45.47419" lon="6.21013">
        <ele>1130.65</ele>
        <time>2011-09-25T13:02:18Z</time>
      </trkpt>
      <trkpt lat="45.47419" lon="6.21019">
        <ele>1134.01</ele>
        <time>2011-09-25T13:02:37Z</time>
      </trkpt>
      <trkpt lat="45.47418" lon="6.21031">
        <ele>1137.38</ele>
        <time>2011-09-25T13:02:51Z</time>
      </trkpt>
      <trkpt lat="45.47422" lon="6.21044">
        <ele>1138.34</ele>
        <time>2011-09-25T13:03:09Z</time>
      </trkpt>
      <trkpt lat="45.47423" lon="6.21045">
        <ele>1139.3</ele>
        <time>2011-09-25T13:03:27Z</time>
      </trkpt>
      <trkpt lat="45.47425" lon="6.21049">
        <ele>1139.78</ele>
        <time>2011-09-25T13:03:31Z</time>
      </trkpt>
      <trkpt lat="45.47436" lon="6.21074">
        <ele>1143.63</ele>
        <time>2011-09-25T13:03:48Z</time>
      </trkpt>
      <trkpt lat="45.4744" lon="6.2108">
        <ele>1145.55</ele>
        <time>2011-09-25T13:03:58Z</time>
      </trkpt>
      <trkpt lat="45.47444" lon="6.21103">
        <ele>1148.43</ele>
        <time>2011-09-25T13:04:15Z</time>
      </trkpt>
      <trkpt lat="45.47445" lon="6.21105">
        <ele>1148.91</ele>
        <time>2011-09-25T13:04:24Z</time>
      </trkpt>
      <trkpt lat="45.47447" lon="6.21109">
        <ele>1149.39</ele>
        <time>2011-09-25T13:04:28Z</time>
      </trkpt>
      <trkpt lat="45.47458" lon="6.21126">
        <ele>1152.76</ele>
        <time>2011-09-25T13:04:43Z</time>
      </trkpt>
      <trkpt lat="45.47458" lon="6.21127">
        <ele>1152.76</ele>
        <time>2011-09-25T13:04:44Z</time>
      </trkpt>
      <trkpt lat="45.47459" lon="6.21128">
        <ele>1152.76</ele>
        <time>2011-09-25T13:04:47Z</time>
      </trkpt>
      <trkpt lat="45.47461" lon="6.21138">
        <ele>1155.16</ele>
        <time>2011-09-25T13:05:06Z</time>
      </trkpt>
      <trkpt lat="45.47461" lon="6.21139">
        <ele>1155.64</ele>
        <time>2011-09-25T13:05:18Z</time>
      </trkpt>
      <trkpt lat="45.47466" lon="6.21152">
        <ele>1157.08</ele>
        <time>2011-09-25T13:05:24Z</time>
      </trkpt>
      <trkpt lat="45.47458" lon="6.21158">
        <ele>1159.97</ele>
        <time>2011-09-25T13:05:37Z</time>
      </trkpt>
      <trkpt lat="45.47455" lon="6.21156">
        <ele>1159.97</ele>
        <time>2011-09-25T13:05:40Z</time>
      </trkpt>
      <trkpt lat="45.47446" lon="6.21155">
        <ele>1161.41</ele>
        <time>2011-09-25T13:05:50Z</time>
      </trkpt>
      <trkpt lat="45.47434" lon="6.21144">
        <ele>1163.33</ele>
        <time>2011-09-25T13:06:00Z</time>
      </trkpt>
      <trkpt lat="45.47433" lon="6.21139">
        <ele>1163.33</ele>
        <time>2011-09-25T13:06:04Z</time>
      </trkpt>
      <trkpt lat="45.47429" lon="6.21138">
        <ele>1164.77</ele>
        <time>2011-09-25T13:06:09Z</time>
      </trkpt>
      <trkpt lat="45.47416" lon="6.21129">
        <ele>1167.66</ele>
        <time>2011-09-25T13:06:25Z</time>
      </trkpt>
      <trkpt lat="45.47409" lon="6.21124">
        <ele>1168.62</ele>
        <time>2011-09-25T13:06:34Z</time>
      </trkpt>
      <trkpt lat="45.47397" lon="6.21118">
        <ele>1170.06</ele>
        <time>2011-09-25T13:06:53Z</time>
      </trkpt>
      <trkpt lat="45.47394" lon="6.21118">
        <ele>1170.54</ele>
        <time>2011-09-25T13:06:56Z</time>
      </trkpt>
      <trkpt lat="45.47387" lon="6.21117">
        <ele>1171.5</ele>
        <time>2011-09-25T13:07:01Z</time>
      </trkpt>
      <trkpt lat="45.4738" lon="6.21117">
        <ele>1173.91</ele>
        <time>2011-09-25T13:07:22Z</time>
      </trkpt>
      <trkpt lat="45.4738" lon="6.21122">
        <ele>1176.79</ele>
        <time>2011-09-25T13:07:45Z</time>
      </trkpt>
      <trkpt lat="45.4738" lon="6.21134">
        <ele>1180.16</ele>
        <time>2011-09-25T13:07:56Z</time>
      </trkpt>
      <trkpt lat="45.47384" lon="6.21152">
        <ele>1184.48</ele>
        <time>2011-09-25T13:08:13Z</time>
      </trkpt>
      <trkpt lat="45.47389" lon="6.21162">
        <ele>1186.4</ele>
        <time>2011-09-25T13:08:30Z</time>
      </trkpt>
      <trkpt lat="45.47389" lon="6.21162">
        <ele>1186.4</ele>
        <time>2011-09-25T13:09:04Z</time>
      </trkpt>
      <trkpt lat="45.47389" lon="6.21162">
        <ele>1185.92</ele>
        <time>2011-09-25T13:09:35Z</time>
      </trkpt>
      <trkpt lat="45.47387" lon="6.21162">
        <ele>1186.88</ele>
        <time>2011-09-25T13:10:12Z</time>
      </trkpt>
      <trkpt lat="45.47384" lon="6.21162">
        <ele>1186.88</ele>
        <time>2011-09-25T13:10:15Z</time>
      </trkpt>
      <trkpt lat="45.47377" lon="6.21161">
        <ele>1187.85</ele>
        <time>2011-09-25T13:10:20Z</time>
      </trkpt>
      <trkpt lat="45.47366" lon="6.2116">
        <ele>1188.33</ele>
        <time>2011-09-25T13:10:34Z</time>
      </trkpt>
      <trkpt lat="45.47366" lon="6.2116">
        <ele>1188.33</ele>
        <time>2011-09-25T13:10:35Z</time>
      </trkpt>
      <trkpt lat="45.47363" lon="6.2116">
        <ele>1189.29</ele>
        <time>2011-09-25T13:10:37Z</time>
      </trkpt>
      <trkpt lat="45.47349" lon="6.21159">
        <ele>1190.73</ele>
        <time>2011-09-25T13:10:53Z</time>
      </trkpt>
      <trkpt lat="45.4735" lon="6.21163">
        <ele>1194.09</ele>
        <time>2011-09-25T13:11:03Z</time>
      </trkpt>
      <trkpt lat="45.47348" lon="6.21171">
        <ele>1196.98</ele>
        <time>2011-09-25T13:11:18Z</time>
      </trkpt>
      <trkpt lat="45.47347" lon="6.21177">
        <ele>1200.34</ele>
        <time>2011-09-25T13:11:29Z</time>
      </trkpt>
      <trkpt lat="45.47347" lon="6.21183">
        <ele>1205.63</ele>
        <time>2011-09-25T13:11:42Z</time>
      </trkpt>
      <trkpt lat="45.47347" lon="6.21183">
        <ele>1203.71</ele>
        <time>2011-09-25T13:11:43Z</time>
      </trkpt>
      <trkpt lat="45.47347" lon="6.21187">
        <ele>1206.11</ele>
        <time>2011-09-25T13:11:56Z</time>
      </trkpt>
      <trkpt lat="45.47348" lon="6.2119">
        <ele>1206.59</ele>
        <time>2011-09-25T13:11:59Z</time>
      </trkpt>
      <trkpt lat="45.47351" lon="6.21194">
        <ele>1208.51</ele>
        <time>2011-09-25T13:12:07Z</time>
      </trkpt>
      <trkpt lat="45.47352" lon="6.21195">
        <ele>1211.4</ele>
        <time>2011-09-25T13:12:17Z</time>
      </trkpt>
      <trkpt lat="45.47353" lon="6.21197">
        <ele>1210.44</ele>
        <time>2011-09-25T13:12:21Z</time>
      </trkpt>
      <trkpt lat="45.47355" lon="6.21207">
        <ele>1211.4</ele>
        <time>2011-09-25T13:12:26Z</time>
      </trkpt>
      <trkpt lat="45.47357" lon="6.2121">
        <ele>1212.36</ele>
        <time>2011-09-25T13:12:29Z</time>
      </trkpt>
      <trkpt lat="45.4736" lon="6.21218">
        <ele>1213.8</ele>
        <time>2011-09-25T13:12:34Z</time>
      </trkpt>
      <trkpt lat="45.47361" lon="6.21221">
        <ele>1215.24</ele>
        <time>2011-09-25T13:12:55Z</time>
      </trkpt>
      <trkpt lat="45.47361" lon="6.21221">
        <ele>1215.24</ele>
        <time>2011-09-25T13:12:56Z</time>
      </trkpt>
      <trkpt lat="45.47363" lon="6.21227">
        <ele>1217.17</ele>
        <time>2011-09-25T13:13:09Z</time>
      </trkpt>
      <trkpt lat="45.47364" lon="6.21233">
        <ele>1218.13</ele>
        <time>2011-09-25T13:13:14Z</time>
      </trkpt>
      <trkpt lat="45.47364" lon="6.21246">
        <ele>1221.97</ele>
        <time>2011-09-25T13:13:33Z</time>
      </trkpt>
      <trkpt lat="45.47364" lon="6.21246">
        <ele>1222.93</ele>
        <time>2011-09-25T13:13:35Z</time>
      </trkpt>
      <trkpt lat="45.47364" lon="6.21247">
        <ele>1223.9</ele>
        <time>2011-09-25T13:13:41Z</time>
      </trkpt>
      <trkpt lat="45.47364" lon="6.2125">
        <ele>1224.38</ele>
        <time>2011-09-25T13:13:43Z</time>
      </trkpt>
      <trkpt lat="45.47364" lon="6.21256">
        <ele>1225.34</ele>
        <time>2011-09-25T13:13:48Z</time>
      </trkpt>
      <trkpt lat="45.47353" lon="6.21277">
        <ele>1228.22</ele>
        <time>2011-09-25T13:14:08Z</time>
      </trkpt>
      <trkpt lat="45.4735" lon="6.21279">
        <ele>1229.66</ele>
        <time>2011-09-25T13:14:15Z</time>
      </trkpt>
      <trkpt lat="45.47343" lon="6.21282">
        <ele>1230.62</ele>
        <time>2011-09-25T13:14:21Z</time>
      </trkpt>
      <trkpt lat="45.4734" lon="6.21284">
        <ele>1233.03</ele>
        <time>2011-09-25T13:14:45Z</time>
      </trkpt>
      <trkpt lat="45.47337" lon="6.21289">
        <ele>1233.51</ele>
        <time>2011-09-25T13:14:49Z</time>
      </trkpt>
      <trkpt lat="45.47325" lon="6.21297">
        <ele>1235.43</ele>
        <time>2011-09-25T13:14:59Z</time>
      </trkpt>
      <trkpt lat="45.47312" lon="6.21298">
        <ele>1237.83</ele>
        <time>2011-09-25T13:15:18Z</time>
      </trkpt>
      <trkpt lat="45.47306" lon="6.21305">
        <ele>1241.2</ele>
        <time>2011-09-25T13:15:32Z</time>
      </trkpt>
      <trkpt lat="45.47304" lon="6.21307">
        <ele>1241.68</ele>
        <time>2011-09-25T13:15:53Z</time>
      </trkpt>
      <trkpt lat="45.473" lon="6.2131">
        <ele>1245.04</ele>
        <time>2011-09-25T13:16:11Z</time>
      </trkpt>
      <trkpt lat="45.47297" lon="6.2131">
        <ele>1246.97</ele>
        <time>2011-09-25T13:16:21Z</time>
      </trkpt>
      <trkpt lat="45.47281" lon="6.21313">
        <ele>1248.89</ele>
        <time>2011-09-25T13:16:38Z</time>
      </trkpt>
      <trkpt lat="45.47267" lon="6.2131">
        <ele>1250.33</ele>
        <time>2011-09-25T13:16:45Z</time>
      </trkpt>
      <trkpt lat="45.47251" lon="6.21306">
        <ele>1252.25</ele>
        <time>2011-09-25T13:17:06Z</time>
      </trkpt>
      <trkpt lat="45.47247" lon="6.21298">
        <ele>1253.22</ele>
        <time>2011-09-25T13:17:34Z</time>
      </trkpt>
      <trkpt lat="45.47244" lon="6.21296">
        <ele>1253.7</ele>
        <time>2011-09-25T13:17:39Z</time>
      </trkpt>
      <trkpt lat="45.4724" lon="6.21293">
        <ele>1256.58</ele>
        <time>2011-09-25T13:17:54Z</time>
      </trkpt>
      <trkpt lat="45.4724" lon="6.21293">
        <ele>1258.02</ele>
        <time>2011-09-25T13:18:13Z</time>
      </trkpt>
      <trkpt lat="45.47239" lon="6.21306">
        <ele>1260.43</ele>
        <time>2011-09-25T13:18:30Z</time>
      </trkpt>
      <trkpt lat="45.47239" lon="6.21308">
        <ele>1261.39</ele>
        <time>2011-09-25T13:18:34Z</time>
      </trkpt>
      <trkpt lat="45.47241" lon="6.21309">
        <ele>1264.27</ele>
        <time>2011-09-25T13:18:44Z</time>
      </trkpt>
      <trkpt lat="45.47239" lon="6.21317">
        <ele>1267.64</ele>
        <time>2011-09-25T13:19:00Z</time>
      </trkpt>
      <trkpt lat="45.47239" lon="6.21317">
        <ele>1268.12</ele>
        <time>2011-09-25T13:19:07Z</time>
      </trkpt>
      <trkpt lat="45.4724" lon="6.21329">
        <ele>1271</ele>
        <time>2011-09-25T13:19:26Z</time>
      </trkpt>
      <trkpt lat="45.47238" lon="6.21335">
        <ele>1271.48</ele>
        <time>2011-09-25T13:19:28Z</time>
      </trkpt>
      <trkpt lat="45.47238" lon="6.21341">
        <ele>1271.96</ele>
        <time>2011-09-25T13:19:31Z</time>
      </trkpt>
      <trkpt lat="45.47237" lon="6.21344">
        <ele>1272.92</ele>
        <time>2011-09-25T13:19:35Z</time>
      </trkpt>
      <trkpt lat="45.47239" lon="6.21344">
        <ele>1272.92</ele>
        <time>2011-09-25T13:20:04Z</time>
      </trkpt>
      <trkpt lat="45.47239" lon="6.21344">
        <ele>1276.29</ele>
        <time>2011-09-25T13:20:17Z</time>
      </trkpt>
      <trkpt lat="45.47239" lon="6.21344">
        <ele>1279.65</ele>
        <time>2011-09-25T13:20:31Z</time>
      </trkpt>
      <trkpt lat="45.47239" lon="6.21344">
        <ele>1280.61</ele>
        <time>2011-09-25T13:20:35Z</time>
      </trkpt>
      <trkpt lat="45.47239" lon="6.21344">
        <ele>1283.5</ele>
        <time>2011-09-25T13:20:56Z</time>
      </trkpt>
      <trkpt lat="45.47239" lon="6.21345">
        <ele>1284.46</ele>
        <time>2011-09-25T13:21:19Z</time>
      </trkpt>
      <trkpt lat="45.47239" lon="6.21345">
        <ele>1288.3</ele>
        <time>2011-09-25T13:21:36Z</time>
      </trkpt>
      <trkpt lat="45.47239" lon="6.21345">
        <ele>1287.82</ele>
        <time>2011-09-25T13:21:56Z</time>
      </trkpt>
      <trkpt lat="45.47234" lon="6.21342">
        <ele>1287.34</ele>
        <time>2011-09-25T13:22:13Z</time>
      </trkpt>
      <trkpt lat="45.47231" lon="6.2134">
        <ele>1287.82</ele>
        <time>2011-09-25T13:22:16Z</time>
      </trkpt>
      <trkpt lat="45.47227" lon="6.21342">
        <ele>1289.27</ele>
        <time>2011-09-25T13:22:21Z</time>
      </trkpt>
      <trkpt lat="45.4722" lon="6.21346">
        <ele>1290.23</ele>
        <time>2011-09-25T13:22:27Z</time>
      </trkpt>
      <trkpt lat="45.47207" lon="6.21354">
        <ele>1292.15</ele>
        <time>2011-09-25T13:22:37Z</time>
      </trkpt>
      <trkpt lat="45.47203" lon="6.21356">
        <ele>1293.11</ele>
        <time>2011-09-25T13:23:00Z</time>
      </trkpt>
      <trkpt lat="45.47202" lon="6.2136">
        <ele>1295.51</ele>
        <time>2011-09-25T13:23:09Z</time>
      </trkpt>
      <trkpt lat="45.472" lon="6.21371">
        <ele>1298.4</ele>
        <time>2011-09-25T13:23:21Z</time>
      </trkpt>
      <trkpt lat="45.47199" lon="6.21383">
        <ele>1300.8</ele>
        <time>2011-09-25T13:23:39Z</time>
      </trkpt>
      <trkpt lat="45.47201" lon="6.21395">
        <ele>1304.17</ele>
        <time>2011-09-25T13:23:58Z</time>
      </trkpt>
      <trkpt lat="45.47201" lon="6.214">
        <ele>1307.05</ele>
        <time>2011-09-25T13:24:18Z</time>
      </trkpt>
      <trkpt lat="45.47202" lon="6.2141">
        <ele>1308.97</ele>
        <time>2011-09-25T13:24:41Z</time>
      </trkpt>
      <trkpt lat="45.47205" lon="6.21416">
        <ele>1311.86</ele>
        <time>2011-09-25T13:24:52Z</time>
      </trkpt>
      <trkpt lat="45.47205" lon="6.21428">
        <ele>1313.78</ele>
        <time>2011-09-25T13:25:16Z</time>
      </trkpt>
      <trkpt lat="45.472" lon="6.21432">
        <ele>1316.18</ele>
        <time>2011-09-25T13:25:40Z</time>
      </trkpt>
      <trkpt lat="45.47195" lon="6.21439">
        <ele>1318.1</ele>
        <time>2011-09-25T13:26:01Z</time>
      </trkpt>
      <trkpt lat="45.47194" lon="6.21437">
        <ele>1320.99</ele>
        <time>2011-09-25T13:26:11Z</time>
      </trkpt>
      <trkpt lat="45.47187" lon="6.21433">
        <ele>1323.39</ele>
        <time>2011-09-25T13:26:29Z</time>
      </trkpt>
      <trkpt lat="45.47187" lon="6.21433">
        <ele>1325.8</ele>
        <time>2011-09-25T13:26:51Z</time>
      </trkpt>
      <trkpt lat="45.47175" lon="6.21436">
        <ele>1329.16</ele>
        <time>2011-09-25T13:27:05Z</time>
      </trkpt>
      <trkpt lat="45.47175" lon="6.21436">
        <ele>1328.68</ele>
        <time>2011-09-25T13:27:06Z</time>
      </trkpt>
      <trkpt lat="45.47166" lon="6.21436">
        <ele>1330.12</ele>
        <time>2011-09-25T13:27:12Z</time>
      </trkpt>
      <trkpt lat="45.47153" lon="6.21437">
        <ele>1333.97</ele>
        <time>2011-09-25T13:27:31Z</time>
      </trkpt>
      <trkpt lat="45.47149" lon="6.2144">
        <ele>1333.97</ele>
        <time>2011-09-25T13:27:33Z</time>
      </trkpt>
      <trkpt lat="45.47144" lon="6.21442">
        <ele>1334.45</ele>
        <time>2011-09-25T13:27:38Z</time>
      </trkpt>
      <trkpt lat="45.47142" lon="6.21441">
        <ele>1334.93</ele>
        <time>2011-09-25T13:27:41Z</time>
      </trkpt>
      <trkpt lat="45.47139" lon="6.2144">
        <ele>1334.93</ele>
        <time>2011-09-25T13:27:44Z</time>
      </trkpt>
      <trkpt lat="45.47133" lon="6.21439">
        <ele>1335.41</ele>
        <time>2011-09-25T13:27:51Z</time>
      </trkpt>
      <trkpt lat="45.47129" lon="6.21443">
        <ele>1336.85</ele>
        <time>2011-09-25T13:28:10Z</time>
      </trkpt>
      <trkpt lat="45.47123" lon="6.21448">
        <ele>1340.22</ele>
        <time>2011-09-25T13:28:27Z</time>
      </trkpt>
      <trkpt lat="45.47116" lon="6.21454">
        <ele>1343.58</ele>
        <time>2011-09-25T13:28:43Z</time>
      </trkpt>
      <trkpt lat="45.47114" lon="6.21456">
        <ele>1344.06</ele>
        <time>2011-09-25T13:28:48Z</time>
      </trkpt>
      <trkpt lat="45.47113" lon="6.2146">
        <ele>1344.54</ele>
        <time>2011-09-25T13:28:51Z</time>
      </trkpt>
      <trkpt lat="45.47109" lon="6.21466">
        <ele>1346.46</ele>
        <time>2011-09-25T13:29:00Z</time>
      </trkpt>
      <trkpt lat="45.47096" lon="6.21468">
        <ele>1347.43</ele>
        <time>2011-09-25T13:29:13Z</time>
      </trkpt>
      <trkpt lat="45.47086" lon="6.21473">
        <ele>1347.43</ele>
        <time>2011-09-25T13:29:22Z</time>
      </trkpt>
      <trkpt lat="45.47084" lon="6.21474">
        <ele>1347.91</ele>
        <time>2011-09-25T13:29:24Z</time>
      </trkpt>
      <trkpt lat="45.47074" lon="6.21472">
        <ele>1350.31</ele>
        <time>2011-09-25T13:29:39Z</time>
      </trkpt>
      <trkpt lat="45.47071" lon="6.21473">
        <ele>1351.27</ele>
        <time>2011-09-25T13:30:05Z</time>
      </trkpt>
      <trkpt lat="45.47067" lon="6.21478">
        <ele>1354.15</ele>
        <time>2011-09-25T13:30:28Z</time>
      </trkpt>
      <trkpt lat="45.47066" lon="6.21485">
        <ele>1356.08</ele>
        <time>2011-09-25T13:30:37Z</time>
      </trkpt>
      <trkpt lat="45.47063" lon="6.21495">
        <ele>1358</ele>
        <time>2011-09-25T13:30:55Z</time>
      </trkpt>
      <trkpt lat="45.47062" lon="6.21497">
        <ele>1358.96</ele>
        <time>2011-09-25T13:30:57Z</time>
      </trkpt>
      <trkpt lat="45.47058" lon="6.21505">
        <ele>1361.36</ele>
        <time>2011-09-25T13:31:12Z</time>
      </trkpt>
      <trkpt lat="45.47057" lon="6.21506">
        <ele>1361.84</ele>
        <time>2011-09-25T13:31:35Z</time>
      </trkpt>
      <trkpt lat="45.47054" lon="6.2151">
        <ele>1362.33</ele>
        <time>2011-09-25T13:31:39Z</time>
      </trkpt>
      <trkpt lat="45.47053" lon="6.21511">
        <ele>1362.81</ele>
        <time>2011-09-25T13:31:41Z</time>
      </trkpt>
      <trkpt lat="45.47047" lon="6.21514">
        <ele>1365.69</ele>
        <time>2011-09-25T13:31:58Z</time>
      </trkpt>
      <trkpt lat="45.47045" lon="6.21516">
        <ele>1368.09</ele>
        <time>2011-09-25T13:32:19Z</time>
      </trkpt>
      <trkpt lat="45.47039" lon="6.21518">
        <ele>1370.5</ele>
        <time>2011-09-25T13:32:37Z</time>
      </trkpt>
      <trkpt lat="45.47033" lon="6.21528">
        <ele>1373.38</ele>
        <time>2011-09-25T13:32:50Z</time>
      </trkpt>
      <trkpt lat="45.4703" lon="6.2153">
        <ele>1374.34</ele>
        <time>2011-09-25T13:33:11Z</time>
      </trkpt>
      <trkpt lat="45.47025" lon="6.21539">
        <ele>1374.82</ele>
        <time>2011-09-25T13:33:28Z</time>
      </trkpt>
      <trkpt lat="45.47024" lon="6.21544">
        <ele>1375.78</ele>
        <time>2011-09-25T13:33:46Z</time>
      </trkpt>
      <trkpt lat="45.47024" lon="6.21549">
        <ele>1377.71</ele>
        <time>2011-09-25T13:34:04Z</time>
      </trkpt>
      <trkpt lat="45.47024" lon="6.21549">
        <ele>1379.15</ele>
        <time>2011-09-25T13:34:24Z</time>
      </trkpt>
      <trkpt lat="45.47025" lon="6.21548">
        <ele>1379.63</ele>
        <time>2011-09-25T13:34:44Z</time>
      </trkpt>
      <trkpt lat="45.47026" lon="6.21548">
        <ele>1380.59</ele>
        <time>2011-09-25T13:35:02Z</time>
      </trkpt>
      <trkpt lat="45.47025" lon="6.21556">
        <ele>1382.03</ele>
        <time>2011-09-25T13:35:19Z</time>
      </trkpt>
      <trkpt lat="45.47027" lon="6.21558">
        <ele>1384.44</ele>
        <time>2011-09-25T13:35:36Z</time>
      </trkpt>
      <trkpt lat="45.47029" lon="6.2156">
        <ele>1385.88</ele>
        <time>2011-09-25T13:35:56Z</time>
      </trkpt>
      <trkpt lat="45.47029" lon="6.2156">
        <ele>1387.8</ele>
        <time>2011-09-25T13:36:00Z</time>
      </trkpt>
      <trkpt lat="45.4703" lon="6.21568">
        <ele>1388.28</ele>
        <time>2011-09-25T13:36:17Z</time>
      </trkpt>
      <trkpt lat="45.4703" lon="6.21572">
        <ele>1389.24</ele>
        <time>2011-09-25T13:36:37Z</time>
      </trkpt>
      <trkpt lat="45.47033" lon="6.21578">
        <ele>1392.61</ele>
        <time>2011-09-25T13:36:57Z</time>
      </trkpt>
      <trkpt lat="45.47033" lon="6.2158">
        <ele>1393.09</ele>
        <time>2011-09-25T13:37:12Z</time>
      </trkpt>
      <trkpt lat="45.47035" lon="6.21584">
        <ele>1394.05</ele>
        <time>2011-09-25T13:37:17Z</time>
      </trkpt>
      <trkpt lat="45.47036" lon="6.21589">
        <ele>1395.49</ele>
        <time>2011-09-25T13:37:31Z</time>
      </trkpt>
      <trkpt lat="45.4704" lon="6.21606">
        <ele>1396.93</ele>
        <time>2011-09-25T13:37:47Z</time>
      </trkpt>
      <trkpt lat="45.4704" lon="6.2161">
        <ele>1397.89</ele>
        <time>2011-09-25T13:38:02Z</time>
      </trkpt>
      <trkpt lat="45.4704" lon="6.21617">
        <ele>1397.89</ele>
        <time>2011-09-25T13:38:26Z</time>
      </trkpt>
      <trkpt lat="45.4704" lon="6.21618">
        <ele>1397.89</ele>
        <time>2011-09-25T13:39:01Z</time>
      </trkpt>
      <trkpt lat="45.4704" lon="6.21618">
        <ele>1398.37</ele>
        <time>2011-09-25T13:39:27Z</time>
      </trkpt>
      <trkpt lat="45.47039" lon="6.21619">
        <ele>1397.89</ele>
        <time>2011-09-25T13:39:58Z</time>
      </trkpt>
      <trkpt lat="45.47039" lon="6.21625">
        <ele>1399.82</ele>
        <time>2011-09-25T13:40:16Z</time>
      </trkpt>
      <trkpt lat="45.47039" lon="6.21629">
        <ele>1401.74</ele>
        <time>2011-09-25T13:40:22Z</time>
      </trkpt>
      <trkpt lat="45.47039" lon="6.2163">
        <ele>1402.22</ele>
        <time>2011-09-25T13:40:26Z</time>
      </trkpt>
      <trkpt lat="45.47041" lon="6.21637">
        <ele>1404.62</ele>
        <time>2011-09-25T13:40:48Z</time>
      </trkpt>
      <trkpt lat="45.47043" lon="6.2164">
        <ele>1406.07</ele>
        <time>2011-09-25T13:40:57Z</time>
      </trkpt>
      <trkpt lat="45.4705" lon="6.21647">
        <ele>1407.51</ele>
        <time>2011-09-25T13:41:05Z</time>
      </trkpt>
      <trkpt lat="45.47058" lon="6.21653">
        <ele>1410.39</ele>
        <time>2011-09-25T13:41:21Z</time>
      </trkpt>
      <trkpt lat="45.47068" lon="6.21654">
        <ele>1412.31</ele>
        <time>2011-09-25T13:41:37Z</time>
      </trkpt>
      <trkpt lat="45.47073" lon="6.2165">
        <ele>1412.79</ele>
        <time>2011-09-25T13:41:52Z</time>
      </trkpt>
      <trkpt lat="45.47073" lon="6.21649">
        <ele>1413.28</ele>
        <time>2011-09-25T13:42:13Z</time>
      </trkpt>
      <trkpt lat="45.47073" lon="6.21649">
        <ele>1413.28</ele>
        <time>2011-09-25T13:42:43Z</time>
      </trkpt>
      <trkpt lat="45.47073" lon="6.21645">
        <ele>1413.76</ele>
        <time>2011-09-25T13:43:05Z</time>
      </trkpt>
      <trkpt lat="45.47076" lon="6.21643">
        <ele>1414.24</ele>
        <time>2011-09-25T13:43:08Z</time>
      </trkpt>
      <trkpt lat="45.47101" lon="6.21639">
        <ele>1415.68</ele>
        <time>2011-09-25T13:43:24Z</time>
      </trkpt>
      <trkpt lat="45.47109" lon="6.21637">
        <ele>1416.64</ele>
        <time>2011-09-25T13:43:31Z</time>
      </trkpt>
      <trkpt lat="45.47123" lon="6.21638">
        <ele>1419.04</ele>
        <time>2011-09-25T13:43:42Z</time>
      </trkpt>
      <trkpt lat="45.47142" lon="6.21656">
        <ele>1420.97</ele>
        <time>2011-09-25T13:43:57Z</time>
      </trkpt>
      <trkpt lat="45.47148" lon="6.2167">
        <ele>1422.89</ele>
        <time>2011-09-25T13:44:07Z</time>
      </trkpt>
      <trkpt lat="45.47151" lon="6.21675">
        <ele>1423.37</ele>
        <time>2011-09-25T13:44:12Z</time>
      </trkpt>
      <trkpt lat="45.47171" lon="6.21696">
        <ele>1425.77</ele>
        <time>2011-09-25T13:44:28Z</time>
      </trkpt>
      <trkpt lat="45.47194" lon="6.21721">
        <ele>1428.18</ele>
        <time>2011-09-25T13:44:47Z</time>
      </trkpt>
      <trkpt lat="45.47213" lon="6.21738">
        <ele>1429.62</ele>
        <time>2011-09-25T13:45:03Z</time>
      </trkpt>
      <trkpt lat="45.4722" lon="6.21741">
        <ele>1429.62</ele>
        <time>2011-09-25T13:45:16Z</time>
      </trkpt>
      <trkpt lat="45.4722" lon="6.21741">
        <ele>1429.14</ele>
        <time>2011-09-25T13:45:22Z</time>
      </trkpt>
      <trkpt lat="45.47243" lon="6.21789">
        <ele>1427.7</ele>
        <time>2011-09-25T13:45:37Z</time>
      </trkpt>
      <trkpt lat="45.47271" lon="6.21849">
        <ele>1427.7</ele>
        <time>2011-09-25T13:45:50Z</time>
      </trkpt>
      <trkpt lat="45.47282" lon="6.21887">
        <ele>1427.21</ele>
        <time>2011-09-25T13:45:56Z</time>
      </trkpt>
      <trkpt lat="45.47297" lon="6.21961">
        <ele>1428.18</ele>
        <time>2011-09-25T13:46:06Z</time>
      </trkpt>
      <trkpt lat="45.47297" lon="6.21968">
        <ele>1428.18</ele>
        <time>2011-09-25T13:46:07Z</time>
      </trkpt>
      <trkpt lat="45.47296" lon="6.21977">
        <ele>1427.7</ele>
        <time>2011-09-25T13:46:08Z</time>
      </trkpt>
      <trkpt lat="45.47284" lon="6.2201">
        <ele>1428.18</ele>
        <time>2011-09-25T13:46:13Z</time>
      </trkpt>
      <trkpt lat="45.47283" lon="6.22016">
        <ele>1427.7</ele>
        <time>2011-09-25T13:46:14Z</time>
      </trkpt>
      <trkpt lat="45.4728" lon="6.22046">
        <ele>1427.7</ele>
        <time>2011-09-25T13:46:18Z</time>
      </trkpt>
      <trkpt lat="45.47279" lon="6.22116">
        <ele>1428.66</ele>
        <time>2011-09-25T13:46:28Z</time>
      </trkpt>
      <trkpt lat="45.47291" lon="6.22174">
        <ele>1428.18</ele>
        <time>2011-09-25T13:46:39Z</time>
      </trkpt>
      <trkpt lat="45.47332" lon="6.22231">
        <ele>1428.18</ele>
        <time>2011-09-25T13:46:52Z</time>
      </trkpt>
      <trkpt lat="45.47363" lon="6.22261">
        <ele>1428.66</ele>
        <time>2011-09-25T13:46:59Z</time>
      </trkpt>
      <trkpt lat="45.47366" lon="6.22266">
        <ele>1428.66</ele>
        <time>2011-09-25T13:47:00Z</time>
      </trkpt>
      <trkpt lat="45.47369" lon="6.22272">
        <ele>1428.18</ele>
        <time>2011-09-25T13:47:01Z</time>
      </trkpt>
      <trkpt lat="45.47384" lon="6.22312">
        <ele>1428.66</ele>
        <time>2011-09-25T13:47:08Z</time>
      </trkpt>
      <trkpt lat="45.47404" lon="6.22387">
        <ele>1428.66</ele>
        <time>2011-09-25T13:47:22Z</time>
      </trkpt>
      <trkpt lat="45.4742" lon="6.22468">
        <ele>1430.58</ele>
        <time>2011-09-25T13:47:36Z</time>
      </trkpt>
      <trkpt lat="45.47424" lon="6.2253">
        <ele>1431.54</ele>
        <time>2011-09-25T13:47:51Z</time>
      </trkpt>
      <trkpt lat="45.47429" lon="6.22584">
        <ele>1432.02</ele>
        <time>2011-09-25T13:48:07Z</time>
      </trkpt>
      <trkpt lat="45.47451" lon="6.22646">
        <ele>1432.5</ele>
        <time>2011-09-25T13:48:19Z</time>
      </trkpt>
      <trkpt lat="45.47479" lon="6.22717">
        <ele>1432.98</ele>
        <time>2011-09-25T13:48:34Z</time>
      </trkpt>
      <trkpt lat="45.47519" lon="6.22749">
        <ele>1433.46</ele>
        <time>2011-09-25T13:48:48Z</time>
      </trkpt>
      <trkpt lat="45.47566" lon="6.22754">
        <ele>1433.46</ele>
        <time>2011-09-25T13:49:01Z</time>
      </trkpt>
      <trkpt lat="45.47607" lon="6.22777">
        <ele>1432.98</ele>
        <time>2011-09-25T13:49:14Z</time>
      </trkpt>
      <trkpt lat="45.47664" lon="6.22815">
        <ele>1434.42</ele>
        <time>2011-09-25T13:49:29Z</time>
      </trkpt>
      <trkpt lat="45.4771" lon="6.22868">
        <ele>1435.39</ele>
        <time>2011-09-25T13:49:44Z</time>
      </trkpt>
      <trkpt lat="45.47748" lon="6.22897">
        <ele>1437.79</ele>
        <time>2011-09-25T13:49:57Z</time>
      </trkpt>
      <trkpt lat="45.47773" lon="6.22912">
        <ele>1439.23</ele>
        <time>2011-09-25T13:50:10Z</time>
      </trkpt>
      <trkpt lat="45.47783" lon="6.22914">
        <ele>1439.23</ele>
        <time>2011-09-25T13:50:32Z</time>
      </trkpt>
      <trkpt lat="45.47785" lon="6.22918">
        <ele>1439.23</ele>
        <time>2011-09-25T13:50:42Z</time>
      </trkpt>
      <trkpt lat="45.47786" lon="6.22919">
        <ele>1439.23</ele>
        <time>2011-09-25T13:50:43Z</time>
      </trkpt>
      <trkpt lat="45.47786" lon="6.2292">
        <ele>1438.75</ele>
        <time>2011-09-25T13:50:44Z</time>
      </trkpt>
      <trkpt lat="45.47797" lon="6.2295">
        <ele>1439.71</ele>
        <time>2011-09-25T13:51:01Z</time>
      </trkpt>
      <trkpt lat="45.47813" lon="6.22981">
        <ele>1440.19</ele>
        <time>2011-09-25T13:51:17Z</time>
      </trkpt>
      <trkpt lat="45.47833" lon="6.23029">
        <ele>1440.19</ele>
        <time>2011-09-25T13:51:34Z</time>
      </trkpt>
      <trkpt lat="45.47845" lon="6.23083">
        <ele>1442.11</ele>
        <time>2011-09-25T13:51:52Z</time>
      </trkpt>
      <trkpt lat="45.47861" lon="6.23141">
        <ele>1445</ele>
        <time>2011-09-25T13:52:10Z</time>
      </trkpt>
      <trkpt lat="45.47874" lon="6.23208">
        <ele>1445.96</ele>
        <time>2011-09-25T13:52:26Z</time>
      </trkpt>
      <trkpt lat="45.4788" lon="6.23266">
        <ele>1447.4</ele>
        <time>2011-09-25T13:52:43Z</time>
      </trkpt>
      <trkpt lat="45.47884" lon="6.2335">
        <ele>1446.44</ele>
        <time>2011-09-25T13:53:02Z</time>
      </trkpt>
      <trkpt lat="45.47906" lon="6.23406">
        <ele>1443.56</ele>
        <time>2011-09-25T13:53:14Z</time>
      </trkpt>
      <trkpt lat="45.47919" lon="6.23423">
        <ele>1441.63</ele>
        <time>2011-09-25T13:53:18Z</time>
      </trkpt>
      <trkpt lat="45.47926" lon="6.23429">
        <ele>1440.19</ele>
        <time>2011-09-25T13:53:27Z</time>
      </trkpt>
      <trkpt lat="45.47926" lon="6.23429">
        <ele>1439.71</ele>
        <time>2011-09-25T13:53:55Z</time>
      </trkpt>
      <trkpt lat="45.47926" lon="6.2343">
        <ele>1440.19</ele>
        <time>2011-09-25T13:54:31Z</time>
      </trkpt>
      <trkpt lat="45.47926" lon="6.23431">
        <ele>1440.67</ele>
        <time>2011-09-25T13:54:34Z</time>
      </trkpt>
      <trkpt lat="45.47926" lon="6.23432">
        <ele>1439.71</ele>
        <time>2011-09-25T13:54:35Z</time>
      </trkpt>
      <trkpt lat="45.47926" lon="6.23434">
        <ele>1439.71</ele>
        <time>2011-09-25T13:54:36Z</time>
      </trkpt>
      <trkpt lat="45.47927" lon="6.23435">
        <ele>1440.19</ele>
        <time>2011-09-25T13:54:37Z</time>
      </trkpt>
      <trkpt lat="45.47928" lon="6.23437">
        <ele>1439.71</ele>
        <time>2011-09-25T13:54:38Z</time>
      </trkpt>
      <trkpt lat="45.47936" lon="6.23462">
        <ele>1436.83</ele>
        <time>2011-09-25T13:54:49Z</time>
      </trkpt>
      <trkpt lat="45.47953" lon="6.23457">
        <ele>1433.94</ele>
        <time>2011-09-25T13:55:02Z</time>
      </trkpt>
      <trkpt lat="45.47956" lon="6.23455">
        <ele>1433.46</ele>
        <time>2011-09-25T13:55:09Z</time>
      </trkpt>
      <trkpt lat="45.47957" lon="6.23452">
        <ele>1432.02</ele>
        <time>2011-09-25T13:55:11Z</time>
      </trkpt>
      <trkpt lat="45.47957" lon="6.2345">
        <ele>1431.06</ele>
        <time>2011-09-25T13:55:12Z</time>
      </trkpt>
      <trkpt lat="45.47959" lon="6.23442">
        <ele>1429.14</ele>
        <time>2011-09-25T13:55:16Z</time>
      </trkpt>
      <trkpt lat="45.47959" lon="6.23436">
        <ele>1426.73</ele>
        <time>2011-09-25T13:55:19Z</time>
      </trkpt>
      <trkpt lat="45.47959" lon="6.23433">
        <ele>1425.77</ele>
        <time>2011-09-25T13:55:21Z</time>
      </trkpt>
      <trkpt lat="45.4796" lon="6.23423">
        <ele>1422.41</ele>
        <time>2011-09-25T13:55:25Z</time>
      </trkpt>
      <trkpt lat="45.47958" lon="6.23406">
        <ele>1419.04</ele>
        <time>2011-09-25T13:55:32Z</time>
      </trkpt>
      <trkpt lat="45.47948" lon="6.23392">
        <ele>1415.68</ele>
        <time>2011-09-25T13:55:38Z</time>
      </trkpt>
      <trkpt lat="45.47942" lon="6.23381">
        <ele>1411.83</ele>
        <time>2011-09-25T13:55:42Z</time>
      </trkpt>
      <trkpt lat="45.47937" lon="6.23364">
        <ele>1408.95</ele>
        <time>2011-09-25T13:55:47Z</time>
      </trkpt>
      <trkpt lat="45.47934" lon="6.23352">
        <ele>1404.62</ele>
        <time>2011-09-25T13:55:53Z</time>
      </trkpt>
      <trkpt lat="45.47935" lon="6.23331">
        <ele>1401.74</ele>
        <time>2011-09-25T13:56:00Z</time>
      </trkpt>
      <trkpt lat="45.47935" lon="6.23326">
        <ele>1400.78</ele>
        <time>2011-09-25T13:56:02Z</time>
      </trkpt>
      <trkpt lat="45.47953" lon="6.23307">
        <ele>1399.34</ele>
        <time>2011-09-25T13:56:05Z</time>
      </trkpt>
      <trkpt lat="45.47948" lon="6.23276">
        <ele>1395.49</ele>
        <time>2011-09-25T13:56:09Z</time>
      </trkpt>
      <trkpt lat="45.47944" lon="6.23226">
        <ele>1392.61</ele>
        <time>2011-09-25T13:56:19Z</time>
      </trkpt>
      <trkpt lat="45.47955" lon="6.23167">
        <ele>1388.76</ele>
        <time>2011-09-25T13:56:30Z</time>
      </trkpt>
      <trkpt lat="45.47951" lon="6.23149">
        <ele>1386.84</ele>
        <time>2011-09-25T13:56:34Z</time>
      </trkpt>
      <trkpt lat="45.47954" lon="6.23119">
        <ele>1383.96</ele>
        <time>2011-09-25T13:56:39Z</time>
      </trkpt>
      <trkpt lat="45.47947" lon="6.23093">
        <ele>1380.11</ele>
        <time>2011-09-25T13:56:44Z</time>
      </trkpt>
      <trkpt lat="45.47941" lon="6.23084">
        <ele>1379.15</ele>
        <time>2011-09-25T13:56:46Z</time>
      </trkpt>
      <trkpt lat="45.47938" lon="6.23054">
        <ele>1375.78</ele>
        <time>2011-09-25T13:56:54Z</time>
      </trkpt>
      <trkpt lat="45.47927" lon="6.23036">
        <ele>1374.82</ele>
        <time>2011-09-25T13:57:05Z</time>
      </trkpt>
      <trkpt lat="45.47931" lon="6.23035">
        <ele>1375.3</ele>
        <time>2011-09-25T13:57:20Z</time>
      </trkpt>
      <trkpt lat="45.47923" lon="6.23002">
        <ele>1370.98</ele>
        <time>2011-09-25T13:57:31Z</time>
      </trkpt>
      <trkpt lat="45.47919" lon="6.22992">
        <ele>1367.61</ele>
        <time>2011-09-25T13:57:34Z</time>
      </trkpt>
      <trkpt lat="45.47917" lon="6.22989">
        <ele>1368.09</ele>
        <time>2011-09-25T13:57:35Z</time>
      </trkpt>
      <trkpt lat="45.47921" lon="6.22975">
        <ele>1364.25</ele>
        <time>2011-09-25T13:57:39Z</time>
      </trkpt>
      <trkpt lat="45.47921" lon="6.22964">
        <ele>1360.4</ele>
        <time>2011-09-25T13:57:43Z</time>
      </trkpt>
      <trkpt lat="45.47921" lon="6.22961">
        <ele>1360.88</ele>
        <time>2011-09-25T13:57:44Z</time>
      </trkpt>
      <trkpt lat="45.47922" lon="6.22953">
        <ele>1357.52</ele>
        <time>2011-09-25T13:57:47Z</time>
      </trkpt>
      <trkpt lat="45.47923" lon="6.22939">
        <ele>1354.15</ele>
        <time>2011-09-25T13:57:51Z</time>
      </trkpt>
      <trkpt lat="45.47921" lon="6.22933">
        <ele>1352.71</ele>
        <time>2011-09-25T13:57:53Z</time>
      </trkpt>
      <trkpt lat="45.47922" lon="6.22929">
        <ele>1351.27</ele>
        <time>2011-09-25T13:57:54Z</time>
      </trkpt>
      <trkpt lat="45.4792" lon="6.2292">
        <ele>1347.91</ele>
        <time>2011-09-25T13:58:03Z</time>
      </trkpt>
      <trkpt lat="45.47921" lon="6.22918">
        <ele>1346.46</ele>
        <time>2011-09-25T13:58:08Z</time>
      </trkpt>
      <trkpt lat="45.47924" lon="6.22918">
        <ele>1343.58</ele>
        <time>2011-09-25T13:58:13Z</time>
      </trkpt>
      <trkpt lat="45.47924" lon="6.22918">
        <ele>1342.62</ele>
        <time>2011-09-25T13:58:16Z</time>
      </trkpt>
      <trkpt lat="45.47928" lon="6.22918">
        <ele>1341.18</ele>
        <time>2011-09-25T13:58:23Z</time>
      </trkpt>
      <trkpt lat="45.47954" lon="6.22928">
        <ele>1338.29</ele>
        <time>2011-09-25T13:58:42Z</time>
      </trkpt>
      <trkpt lat="45.47966" lon="6.22932">
        <ele>1335.41</ele>
        <time>2011-09-25T13:58:47Z</time>
      </trkpt>
      <trkpt lat="45.47972" lon="6.2293">
        <ele>1334.45</ele>
        <time>2011-09-25T13:58:49Z</time>
      </trkpt>
      <trkpt lat="45.48047" lon="6.22947">
        <ele>1333.01</ele>
        <time>2011-09-25T13:58:53Z</time>
      </trkpt>
      <trkpt lat="45.4806" lon="6.22944">
        <ele>1329.16</ele>
        <time>2011-09-25T13:58:59Z</time>
      </trkpt>
      <trkpt lat="45.4806" lon="6.22947">
        <ele>1328.2</ele>
        <time>2011-09-25T13:59:14Z</time>
      </trkpt>
      <trkpt lat="45.4806" lon="6.22948">
        <ele>1328.68</ele>
        <time>2011-09-25T13:59:40Z</time>
      </trkpt>
      <trkpt lat="45.4806" lon="6.22949">
        <ele>1329.16</ele>
        <time>2011-09-25T13:59:50Z</time>
      </trkpt>
      <trkpt lat="45.48062" lon="6.22963">
        <ele>1331.56</ele>
        <time>2011-09-25T14:00:08Z</time>
      </trkpt>
      <trkpt lat="45.4806" lon="6.22971">
        <ele>1331.56</ele>
        <time>2011-09-25T14:00:13Z</time>
      </trkpt>
      <trkpt lat="45.48063" lon="6.23023">
        <ele>1332.04</ele>
        <time>2011-09-25T14:00:28Z</time>
      </trkpt>
      <trkpt lat="45.48079" lon="6.23075">
        <ele>1331.56</ele>
        <time>2011-09-25T14:00:46Z</time>
      </trkpt>
      <trkpt lat="45.48087" lon="6.23095">
        <ele>1330.12</ele>
        <time>2011-09-25T14:01:01Z</time>
      </trkpt>
      <trkpt lat="45.48085" lon="6.23098">
        <ele>1330.6</ele>
        <time>2011-09-25T14:01:05Z</time>
      </trkpt>
      <trkpt lat="45.48085" lon="6.23108">
        <ele>1331.08</ele>
        <time>2011-09-25T14:01:18Z</time>
      </trkpt>
      <trkpt lat="45.48087" lon="6.23117">
        <ele>1330.12</ele>
        <time>2011-09-25T14:01:21Z</time>
      </trkpt>
      <trkpt lat="45.48102" lon="6.23158">
        <ele>1329.64</ele>
        <time>2011-09-25T14:01:39Z</time>
      </trkpt>
      <trkpt lat="45.48109" lon="6.23174">
        <ele>1330.12</ele>
        <time>2011-09-25T14:01:54Z</time>
      </trkpt>
      <trkpt lat="45.48119" lon="6.2319">
        <ele>1332.04</ele>
        <time>2011-09-25T14:02:09Z</time>
      </trkpt>
      <trkpt lat="45.48125" lon="6.23205">
        <ele>1332.04</ele>
        <time>2011-09-25T14:02:21Z</time>
      </trkpt>
      <trkpt lat="45.48125" lon="6.23208">
        <ele>1332.04</ele>
        <time>2011-09-25T14:02:23Z</time>
      </trkpt>
      <trkpt lat="45.48126" lon="6.23214">
        <ele>1333.01</ele>
        <time>2011-09-25T14:02:39Z</time>
      </trkpt>
      <trkpt lat="45.48127" lon="6.23216">
        <ele>1333.01</ele>
        <time>2011-09-25T14:02:46Z</time>
      </trkpt>
      <trkpt lat="45.48127" lon="6.23235">
        <ele>1336.37</ele>
        <time>2011-09-25T14:02:59Z</time>
      </trkpt>
      <trkpt lat="45.48132" lon="6.23246">
        <ele>1337.33</ele>
        <time>2011-09-25T14:03:09Z</time>
      </trkpt>
      <trkpt lat="45.48134" lon="6.23249">
        <ele>1337.81</ele>
        <time>2011-09-25T14:03:12Z</time>
      </trkpt>
      <trkpt lat="45.48145" lon="6.23264">
        <ele>1340.22</ele>
        <time>2011-09-25T14:03:29Z</time>
      </trkpt>
      <trkpt lat="45.48151" lon="6.23275">
        <ele>1342.14</ele>
        <time>2011-09-25T14:03:47Z</time>
      </trkpt>
      <trkpt lat="45.48157" lon="6.23292">
        <ele>1344.06</ele>
        <time>2011-09-25T14:04:05Z</time>
      </trkpt>
      <trkpt lat="45.48164" lon="6.23315">
        <ele>1346.94</ele>
        <time>2011-09-25T14:04:23Z</time>
      </trkpt>
      <trkpt lat="45.48165" lon="6.23316">
        <ele>1347.91</ele>
        <time>2011-09-25T14:04:30Z</time>
      </trkpt>
      <trkpt lat="45.48167" lon="6.23324">
        <ele>1348.87</ele>
        <time>2011-09-25T14:04:35Z</time>
      </trkpt>
      <trkpt lat="45.48168" lon="6.23329">
        <ele>1349.83</ele>
        <time>2011-09-25T14:04:39Z</time>
      </trkpt>
      <trkpt lat="45.48171" lon="6.2334">
        <ele>1351.27</ele>
        <time>2011-09-25T14:04:48Z</time>
      </trkpt>
      <trkpt lat="45.48175" lon="6.23344">
        <ele>1351.75</ele>
        <time>2011-09-25T14:04:54Z</time>
      </trkpt>
      <trkpt lat="45.48177" lon="6.23345">
        <ele>1352.23</ele>
        <time>2011-09-25T14:04:56Z</time>
      </trkpt>
      <trkpt lat="45.48181" lon="6.23346">
        <ele>1352.23</ele>
        <time>2011-09-25T14:04:59Z</time>
      </trkpt>
      <trkpt lat="45.48184" lon="6.23352">
        <ele>1353.67</ele>
        <time>2011-09-25T14:05:06Z</time>
      </trkpt>
      <trkpt lat="45.48194" lon="6.23357">
        <ele>1355.12</ele>
        <time>2011-09-25T14:05:17Z</time>
      </trkpt>
      <trkpt lat="45.48196" lon="6.23371">
        <ele>1354.63</ele>
        <time>2011-09-25T14:05:23Z</time>
      </trkpt>
      <trkpt lat="45.48199" lon="6.23397">
        <ele>1351.75</ele>
        <time>2011-09-25T14:05:30Z</time>
      </trkpt>
      <trkpt lat="45.48201" lon="6.23405">
        <ele>1350.79</ele>
        <time>2011-09-25T14:05:32Z</time>
      </trkpt>
      <trkpt lat="45.48207" lon="6.2342">
        <ele>1347.91</ele>
        <time>2011-09-25T14:05:36Z</time>
      </trkpt>
      <trkpt lat="45.4821" lon="6.23426">
        <ele>1346.46</ele>
        <time>2011-09-25T14:05:38Z</time>
      </trkpt>
      <trkpt lat="45.48219" lon="6.23451">
        <ele>1343.58</ele>
        <time>2011-09-25T14:05:46Z</time>
      </trkpt>
      <trkpt lat="45.48226" lon="6.23449">
        <ele>1342.62</ele>
        <time>2011-09-25T14:05:58Z</time>
      </trkpt>
      <trkpt lat="45.48235" lon="6.23443">
        <ele>1339.25</ele>
        <time>2011-09-25T14:06:06Z</time>
      </trkpt>
      <trkpt lat="45.48236" lon="6.23442">
        <ele>1338.77</ele>
        <time>2011-09-25T14:06:07Z</time>
      </trkpt>
      <trkpt lat="45.48247" lon="6.23434">
        <ele>1335.41</ele>
        <time>2011-09-25T14:06:17Z</time>
      </trkpt>
      <trkpt lat="45.48252" lon="6.23435">
        <ele>1333.01</ele>
        <time>2011-09-25T14:06:20Z</time>
      </trkpt>
      <trkpt lat="45.48261" lon="6.23432">
        <ele>1329.64</ele>
        <time>2011-09-25T14:06:25Z</time>
      </trkpt>
      <trkpt lat="45.48262" lon="6.23431">
        <ele>1329.16</ele>
        <time>2011-09-25T14:06:26Z</time>
      </trkpt>
      <trkpt lat="45.4828" lon="6.23433">
        <ele>1326.76</ele>
        <time>2011-09-25T14:06:34Z</time>
      </trkpt>
      <trkpt lat="45.48306" lon="6.23456">
        <ele>1322.91</ele>
        <time>2011-09-25T14:06:47Z</time>
      </trkpt>
      <trkpt lat="45.48308" lon="6.23458">
        <ele>1322.43</ele>
        <time>2011-09-25T14:06:48Z</time>
      </trkpt>
      <trkpt lat="45.48312" lon="6.23463">
        <ele>1320.51</ele>
        <time>2011-09-25T14:06:51Z</time>
      </trkpt>
      <trkpt lat="45.48319" lon="6.23478">
        <ele>1316.66</ele>
        <time>2011-09-25T14:06:56Z</time>
      </trkpt>
      <trkpt lat="45.48326" lon="6.2349">
        <ele>1313.3</ele>
        <time>2011-09-25T14:07:00Z</time>
      </trkpt>
      <trkpt lat="45.48332" lon="6.23498">
        <ele>1309.93</ele>
        <time>2011-09-25T14:07:03Z</time>
      </trkpt>
      <trkpt lat="45.48334" lon="6.235">
        <ele>1310.41</ele>
        <time>2011-09-25T14:07:04Z</time>
      </trkpt>
      <trkpt lat="45.48336" lon="6.23499">
        <ele>1308.49</ele>
        <time>2011-09-25T14:07:07Z</time>
      </trkpt>
      <trkpt lat="45.4834" lon="6.23492">
        <ele>1304.65</ele>
        <time>2011-09-25T14:07:12Z</time>
      </trkpt>
      <trkpt lat="45.48352" lon="6.23485">
        <ele>1304.17</ele>
        <time>2011-09-25T14:07:26Z</time>
      </trkpt>
      <trkpt lat="45.48361" lon="6.23468">
        <ele>1300.8</ele>
        <time>2011-09-25T14:07:33Z</time>
      </trkpt>
      <trkpt lat="45.48361" lon="6.23466">
        <ele>1301.76</ele>
        <time>2011-09-25T14:07:36Z</time>
      </trkpt>
      <trkpt lat="45.4836" lon="6.23463">
        <ele>1299.36</ele>
        <time>2011-09-25T14:07:38Z</time>
      </trkpt>
      <trkpt lat="45.48361" lon="6.23462">
        <ele>1298.4</ele>
        <time>2011-09-25T14:07:39Z</time>
      </trkpt>
      <trkpt lat="45.4836" lon="6.23451">
        <ele>1295.51</ele>
        <time>2011-09-25T14:07:43Z</time>
      </trkpt>
      <trkpt lat="45.48357" lon="6.23418">
        <ele>1295.99</ele>
        <time>2011-09-25T14:07:58Z</time>
      </trkpt>
      <trkpt lat="45.48352" lon="6.23407">
        <ele>1293.11</ele>
        <time>2011-09-25T14:08:02Z</time>
      </trkpt>
      <trkpt lat="45.48345" lon="6.23397">
        <ele>1289.75</ele>
        <time>2011-09-25T14:08:06Z</time>
      </trkpt>
      <trkpt lat="45.4834" lon="6.23379">
        <ele>1285.42</ele>
        <time>2011-09-25T14:08:10Z</time>
      </trkpt>
      <trkpt lat="45.4834" lon="6.23375">
        <ele>1285.9</ele>
        <time>2011-09-25T14:08:11Z</time>
      </trkpt>
      <trkpt lat="45.48337" lon="6.23359">
        <ele>1282.06</ele>
        <time>2011-09-25T14:08:14Z</time>
      </trkpt>
      <trkpt lat="45.48332" lon="6.23342">
        <ele>1278.69</ele>
        <time>2011-09-25T14:08:18Z</time>
      </trkpt>
      <trkpt lat="45.48328" lon="6.23333">
        <ele>1276.77</ele>
        <time>2011-09-25T14:08:20Z</time>
      </trkpt>
      <trkpt lat="45.48327" lon="6.23312">
        <ele>1274.36</ele>
        <time>2011-09-25T14:08:27Z</time>
      </trkpt>
      <trkpt lat="45.48325" lon="6.23287">
        <ele>1271</ele>
        <time>2011-09-25T14:08:36Z</time>
      </trkpt>
      <trkpt lat="45.48321" lon="6.23281">
        <ele>1271.96</ele>
        <time>2011-09-25T14:08:39Z</time>
      </trkpt>
      <trkpt lat="45.48299" lon="6.23278">
        <ele>1271</ele>
        <time>2011-09-25T14:09:06Z</time>
      </trkpt>
      <trkpt lat="45.48299" lon="6.23277">
        <ele>1270.04</ele>
        <time>2011-09-25T14:09:07Z</time>
      </trkpt>
      <trkpt lat="45.483" lon="6.23274">
        <ele>1268.6</ele>
        <time>2011-09-25T14:09:10Z</time>
      </trkpt>
      <trkpt lat="45.48304" lon="6.23267">
        <ele>1266.67</ele>
        <time>2011-09-25T14:09:12Z</time>
      </trkpt>
      <trkpt lat="45.48311" lon="6.23263">
        <ele>1265.23</ele>
        <time>2011-09-25T14:09:13Z</time>
      </trkpt>
      <trkpt lat="45.48313" lon="6.23259">
        <ele>1263.31</ele>
        <time>2011-09-25T14:09:14Z</time>
      </trkpt>
      <trkpt lat="45.48325" lon="6.23254">
        <ele>1261.39</ele>
        <time>2011-09-25T14:09:16Z</time>
      </trkpt>
      <trkpt lat="45.4834" lon="6.23242">
        <ele>1258.02</ele>
        <time>2011-09-25T14:09:19Z</time>
      </trkpt>
      <trkpt lat="45.48353" lon="6.23223">
        <ele>1255.62</ele>
        <time>2011-09-25T14:09:23Z</time>
      </trkpt>
      <trkpt lat="45.48364" lon="6.23218">
        <ele>1253.7</ele>
        <time>2011-09-25T14:09:30Z</time>
      </trkpt>
      <trkpt lat="45.48364" lon="6.2322">
        <ele>1250.33</ele>
        <time>2011-09-25T14:09:35Z</time>
      </trkpt>
      <trkpt lat="45.48364" lon="6.23219">
        <ele>1249.85</ele>
        <time>2011-09-25T14:09:36Z</time>
      </trkpt>
      <trkpt lat="45.48363" lon="6.23203">
        <ele>1246.97</ele>
        <time>2011-09-25T14:09:41Z</time>
      </trkpt>
      <trkpt lat="45.48364" lon="6.23183">
        <ele>1243.12</ele>
        <time>2011-09-25T14:09:47Z</time>
      </trkpt>
      <trkpt lat="45.48362" lon="6.23176">
        <ele>1242.16</ele>
        <time>2011-09-25T14:09:49Z</time>
      </trkpt>
      <trkpt lat="45.48361" lon="6.23168">
        <ele>1242.64</ele>
        <time>2011-09-25T14:09:54Z</time>
      </trkpt>
      <trkpt lat="45.4836" lon="6.23166">
        <ele>1243.12</ele>
        <time>2011-09-25T14:09:55Z</time>
      </trkpt>
      <trkpt lat="45.4836" lon="6.23164">
        <ele>1243.12</ele>
        <time>2011-09-25T14:09:56Z</time>
      </trkpt>
      <trkpt lat="45.48367" lon="6.23161">
        <ele>1242.64</ele>
        <time>2011-09-25T14:10:00Z</time>
      </trkpt>
      <trkpt lat="45.4837" lon="6.23162">
        <ele>1242.64</ele>
        <time>2011-09-25T14:10:01Z</time>
      </trkpt>
      <trkpt lat="45.48434" lon="6.23204">
        <ele>1239.28</ele>
        <time>2011-09-25T14:10:11Z</time>
      </trkpt>
      <trkpt lat="45.4844" lon="6.23219">
        <ele>1238.32</ele>
        <time>2011-09-25T14:10:13Z</time>
      </trkpt>
      <trkpt lat="45.48451" lon="6.23252">
        <ele>1234.95</ele>
        <time>2011-09-25T14:10:17Z</time>
      </trkpt>
      <trkpt lat="45.48454" lon="6.23259">
        <ele>1233.99</ele>
        <time>2011-09-25T14:10:18Z</time>
      </trkpt>
      <trkpt lat="45.48455" lon="6.23269">
        <ele>1233.51</ele>
        <time>2011-09-25T14:10:19Z</time>
      </trkpt>
      <trkpt lat="45.48463" lon="6.23305">
        <ele>1229.18</ele>
        <time>2011-09-25T14:10:23Z</time>
      </trkpt>
      <trkpt lat="45.48465" lon="6.23315">
        <ele>1227.74</ele>
        <time>2011-09-25T14:10:24Z</time>
      </trkpt>
      <trkpt lat="45.48474" lon="6.23339">
        <ele>1227.26</ele>
        <time>2011-09-25T14:10:26Z</time>
      </trkpt>
      <trkpt lat="45.48478" lon="6.23345">
        <ele>1226.78</ele>
        <time>2011-09-25T14:10:27Z</time>
      </trkpt>
      <trkpt lat="45.48483" lon="6.23351">
        <ele>1225.82</ele>
        <time>2011-09-25T14:10:28Z</time>
      </trkpt>
      <trkpt lat="45.48492" lon="6.23365">
        <ele>1225.34</ele>
        <time>2011-09-25T14:10:29Z</time>
      </trkpt>
      <trkpt lat="45.48499" lon="6.23374">
        <ele>1224.86</ele>
        <time>2011-09-25T14:10:30Z</time>
      </trkpt>
      <trkpt lat="45.48533" lon="6.23407">
        <ele>1222.45</ele>
        <time>2011-09-25T14:10:36Z</time>
      </trkpt>
      <trkpt lat="45.4854" lon="6.2341">
        <ele>1221.49</ele>
        <time>2011-09-25T14:10:37Z</time>
      </trkpt>
      <trkpt lat="45.48562" lon="6.23419">
        <ele>1218.13</ele>
        <time>2011-09-25T14:10:41Z</time>
      </trkpt>
      <trkpt lat="45.48585" lon="6.23429">
        <ele>1214.76</ele>
        <time>2011-09-25T14:10:46Z</time>
      </trkpt>
      <trkpt lat="45.48591" lon="6.23434">
        <ele>1213.8</ele>
        <time>2011-09-25T14:10:47Z</time>
      </trkpt>
      <trkpt lat="45.48596" lon="6.23438">
        <ele>1213.8</ele>
        <time>2011-09-25T14:10:48Z</time>
      </trkpt>
      <trkpt lat="45.48602" lon="6.23442">
        <ele>1212.36</ele>
        <time>2011-09-25T14:10:49Z</time>
      </trkpt>
      <trkpt lat="45.48629" lon="6.23457">
        <ele>1209.48</ele>
        <time>2011-09-25T14:10:53Z</time>
      </trkpt>
      <trkpt lat="45.48636" lon="6.23463">
        <ele>1208.51</ele>
        <time>2011-09-25T14:10:54Z</time>
      </trkpt>
      <trkpt lat="45.48643" lon="6.23471">
        <ele>1208.03</ele>
        <time>2011-09-25T14:10:55Z</time>
      </trkpt>
      <trkpt lat="45.48663" lon="6.23501">
        <ele>1204.67</ele>
        <time>2011-09-25T14:10:58Z</time>
      </trkpt>
      <trkpt lat="45.48677" lon="6.23521">
        <ele>1202.75</ele>
        <time>2011-09-25T14:11:00Z</time>
      </trkpt>
      <trkpt lat="45.48686" lon="6.2353">
        <ele>1202.27</ele>
        <time>2011-09-25T14:11:01Z</time>
      </trkpt>
      <trkpt lat="45.48707" lon="6.23548">
        <ele>1198.42</ele>
        <time>2011-09-25T14:11:04Z</time>
      </trkpt>
      <trkpt lat="45.4872" lon="6.23559">
        <ele>1197.46</ele>
        <time>2011-09-25T14:11:06Z</time>
      </trkpt>
      <trkpt lat="45.48734" lon="6.23567">
        <ele>1195.06</ele>
        <time>2011-09-25T14:11:08Z</time>
      </trkpt>
      <trkpt lat="45.48747" lon="6.2357">
        <ele>1192.17</ele>
        <time>2011-09-25T14:11:10Z</time>
      </trkpt>
      <trkpt lat="45.48753" lon="6.23572">
        <ele>1190.25</ele>
        <time>2011-09-25T14:11:11Z</time>
      </trkpt>
      <trkpt lat="45.4876" lon="6.23577">
        <ele>1190.25</ele>
        <time>2011-09-25T14:11:12Z</time>
      </trkpt>
      <trkpt lat="45.48768" lon="6.23584">
        <ele>1189.29</ele>
        <time>2011-09-25T14:11:13Z</time>
      </trkpt>
      <trkpt lat="45.48773" lon="6.2359">
        <ele>1188.33</ele>
        <time>2011-09-25T14:11:14Z</time>
      </trkpt>
      <trkpt lat="45.48786" lon="6.23599">
        <ele>1186.4</ele>
        <time>2011-09-25T14:11:15Z</time>
      </trkpt>
      <trkpt lat="45.48821" lon="6.23629">
        <ele>1183.52</ele>
        <time>2011-09-25T14:11:21Z</time>
      </trkpt>
      <trkpt lat="45.48837" lon="6.23645">
        <ele>1181.12</ele>
        <time>2011-09-25T14:11:25Z</time>
      </trkpt>
      <trkpt lat="45.48841" lon="6.2365">
        <ele>1180.16</ele>
        <time>2011-09-25T14:11:26Z</time>
      </trkpt>
      <trkpt lat="45.48846" lon="6.23655">
        <ele>1179.67</ele>
        <time>2011-09-25T14:11:27Z</time>
      </trkpt>
      <trkpt lat="45.48852" lon="6.23661">
        <ele>1178.23</ele>
        <time>2011-09-25T14:11:28Z</time>
      </trkpt>
      <trkpt lat="45.48902" lon="6.23665">
        <ele>1176.79</ele>
        <time>2011-09-25T14:11:30Z</time>
      </trkpt>
      <trkpt lat="45.48921" lon="6.23663">
        <ele>1178.23</ele>
        <time>2011-09-25T14:11:47Z</time>
      </trkpt>
      <trkpt lat="45.48939" lon="6.23668">
        <ele>1178.23</ele>
        <time>2011-09-25T14:11:49Z</time>
      </trkpt>
      <trkpt lat="45.48969" lon="6.23747">
        <ele>1174.87</ele>
        <time>2011-09-25T14:12:03Z</time>
      </trkpt>
      <trkpt lat="45.48971" lon="6.23753">
        <ele>1174.39</ele>
        <time>2011-09-25T14:12:04Z</time>
      </trkpt>
      <trkpt lat="45.48974" lon="6.23758">
        <ele>1174.39</ele>
        <time>2011-09-25T14:12:05Z</time>
      </trkpt>
      <trkpt lat="45.48976" lon="6.23761">
        <ele>1174.39</ele>
        <time>2011-09-25T14:12:06Z</time>
      </trkpt>
      <trkpt lat="45.48979" lon="6.23763">
        <ele>1174.39</ele>
        <time>2011-09-25T14:12:07Z</time>
      </trkpt>
      <trkpt lat="45.49007" lon="6.23782">
        <ele>1171.02</ele>
        <time>2011-09-25T14:12:15Z</time>
      </trkpt>
      <trkpt lat="45.4902" lon="6.23785">
        <ele>1168.14</ele>
        <time>2011-09-25T14:12:20Z</time>
      </trkpt>
      <trkpt lat="45.49031" lon="6.2379">
        <ele>1164.77</ele>
        <time>2011-09-25T14:12:25Z</time>
      </trkpt>
      <trkpt lat="45.49033" lon="6.23789">
        <ele>1164.77</ele>
        <time>2011-09-25T14:12:26Z</time>
      </trkpt>
      <trkpt lat="45.49051" lon="6.2379">
        <ele>1165.26</ele>
        <time>2011-09-25T14:12:42Z</time>
      </trkpt>
      <trkpt lat="45.49053" lon="6.2379">
        <ele>1165.26</ele>
        <time>2011-09-25T14:12:49Z</time>
      </trkpt>
      <trkpt lat="45.49054" lon="6.23792">
        <ele>1165.26</ele>
        <time>2011-09-25T14:12:51Z</time>
      </trkpt>
      <trkpt lat="45.49079" lon="6.23805">
        <ele>1164.29</ele>
        <time>2011-09-25T14:13:04Z</time>
      </trkpt>
      <trkpt lat="45.49098" lon="6.23807">
        <ele>1163.81</ele>
        <time>2011-09-25T14:13:13Z</time>
      </trkpt>
      <trkpt lat="45.49101" lon="6.23801">
        <ele>1165.26</ele>
        <time>2011-09-25T14:13:19Z</time>
      </trkpt>
      <trkpt lat="45.49077" lon="6.23783">
        <ele>1167.18</ele>
        <time>2011-09-25T14:13:35Z</time>
      </trkpt>
      <trkpt lat="45.49052" lon="6.23776">
        <ele>1170.06</ele>
        <time>2011-09-25T14:13:48Z</time>
      </trkpt>
      <trkpt lat="45.49024" lon="6.23784">
        <ele>1172.47</ele>
        <time>2011-09-25T14:14:05Z</time>
      </trkpt>
      <trkpt lat="45.49022" lon="6.23785">
        <ele>1173.43</ele>
        <time>2011-09-25T14:14:08Z</time>
      </trkpt>
      <trkpt lat="45.49016" lon="6.2382">
        <ele>1176.31</ele>
        <time>2011-09-25T14:14:22Z</time>
      </trkpt>
      <trkpt lat="45.49016" lon="6.23821">
        <ele>1176.31</ele>
        <time>2011-09-25T14:14:23Z</time>
      </trkpt>
      <trkpt lat="45.49033" lon="6.23865">
        <ele>1178.71</ele>
        <time>2011-09-25T14:14:42Z</time>
      </trkpt>
      <trkpt lat="45.49046" lon="6.239">
        <ele>1178.23</ele>
        <time>2011-09-25T14:14:57Z</time>
      </trkpt>
      <trkpt lat="45.49014" lon="6.23904">
        <ele>1178.23</ele>
        <time>2011-09-25T14:15:13Z</time>
      </trkpt>
      <trkpt lat="45.49005" lon="6.23897">
        <ele>1178.23</ele>
        <time>2011-09-25T14:15:24Z</time>
      </trkpt>
      <trkpt lat="45.49011" lon="6.23899">
        <ele>1178.23</ele>
        <time>2011-09-25T14:15:41Z</time>
      </trkpt>
      <trkpt lat="45.49011" lon="6.23935">
        <ele>1176.31</ele>
        <time>2011-09-25T14:15:50Z</time>
      </trkpt>
      <trkpt lat="45.49014" lon="6.23944">
        <ele>1174.87</ele>
        <time>2011-09-25T14:15:52Z</time>
      </trkpt>
      <trkpt lat="45.49021" lon="6.23952">
        <ele>1172.95</ele>
        <time>2011-09-25T14:15:56Z</time>
      </trkpt>
      <trkpt lat="45.49035" lon="6.23962">
        <ele>1169.1</ele>
        <time>2011-09-25T14:16:00Z</time>
      </trkpt>
      <trkpt lat="45.49053" lon="6.23972">
        <ele>1165.74</ele>
        <time>2011-09-25T14:16:04Z</time>
      </trkpt>
      <trkpt lat="45.49072" lon="6.23978">
        <ele>1161.89</ele>
        <time>2011-09-25T14:16:08Z</time>
      </trkpt>
      <trkpt lat="45.49083" lon="6.23979">
        <ele>1158.05</ele>
        <time>2011-09-25T14:16:12Z</time>
      </trkpt>
      <trkpt lat="45.49097" lon="6.23984">
        <ele>1154.68</ele>
        <time>2011-09-25T14:16:17Z</time>
      </trkpt>
      <trkpt lat="45.49112" lon="6.23982">
        <ele>1151.32</ele>
        <time>2011-09-25T14:16:20Z</time>
      </trkpt>
      <trkpt lat="45.49121" lon="6.23982">
        <ele>1150.35</ele>
        <time>2011-09-25T14:16:22Z</time>
      </trkpt>
      <trkpt lat="45.49143" lon="6.2398">
        <ele>1146.51</ele>
        <time>2011-09-25T14:16:27Z</time>
      </trkpt>
      <trkpt lat="45.49144" lon="6.2398">
        <ele>1146.99</ele>
        <time>2011-09-25T14:16:28Z</time>
      </trkpt>
      <trkpt lat="45.49149" lon="6.23984">
        <ele>1146.03</ele>
        <time>2011-09-25T14:16:34Z</time>
      </trkpt>
      <trkpt lat="45.49143" lon="6.23984">
        <ele>1146.51</ele>
        <time>2011-09-25T14:16:40Z</time>
      </trkpt>
      <trkpt lat="45.49141" lon="6.23988">
        <ele>1146.51</ele>
        <time>2011-09-25T14:16:43Z</time>
      </trkpt>
      <trkpt lat="45.49139" lon="6.23995">
        <ele>1146.51</ele>
        <time>2011-09-25T14:16:46Z</time>
      </trkpt>
      <trkpt lat="45.49121" lon="6.24037">
        <ele>1148.91</ele>
        <time>2011-09-25T14:17:00Z</time>
      </trkpt>
      <trkpt lat="45.49123" lon="6.24092">
        <ele>1151.32</ele>
        <time>2011-09-25T14:17:15Z</time>
      </trkpt>
      <trkpt lat="45.49152" lon="6.24144">
        <ele>1153.24</ele>
        <time>2011-09-25T14:17:31Z</time>
      </trkpt>
      <trkpt lat="45.49165" lon="6.24192">
        <ele>1154.68</ele>
        <time>2011-09-25T14:17:44Z</time>
      </trkpt>
      <trkpt lat="45.49165" lon="6.24233">
        <ele>1157.08</ele>
        <time>2011-09-25T14:17:59Z</time>
      </trkpt>
      <trkpt lat="45.49167" lon="6.24245">
        <ele>1157.08</ele>
        <time>2011-09-25T14:18:14Z</time>
      </trkpt>
      <trkpt lat="45.49165" lon="6.24225">
        <ele>1155.16</ele>
        <time>2011-09-25T14:18:20Z</time>
      </trkpt>
      <trkpt lat="45.49158" lon="6.24199">
        <ele>1154.68</ele>
        <time>2011-09-25T14:18:22Z</time>
      </trkpt>
      <trkpt lat="45.49145" lon="6.24159">
        <ele>1152.76</ele>
        <time>2011-09-25T14:18:25Z</time>
      </trkpt>
      <trkpt lat="45.49128" lon="6.24111">
        <ele>1151.8</ele>
        <time>2011-09-25T14:18:29Z</time>
      </trkpt>
      <trkpt lat="45.49122" lon="6.24085">
        <ele>1151.8</ele>
        <time>2011-09-25T14:18:30Z</time>
      </trkpt>
      <trkpt lat="45.49117" lon="6.24065">
        <ele>1151.8</ele>
        <time>2011-09-25T14:18:31Z</time>
      </trkpt>
      <trkpt lat="45.49114" lon="6.24048">
        <ele>1150.35</ele>
        <time>2011-09-25T14:18:32Z</time>
      </trkpt>
      <trkpt lat="45.49114" lon="6.24036">
        <ele>1149.39</ele>
        <time>2011-09-25T14:18:33Z</time>
      </trkpt>
      <trkpt lat="45.49115" lon="6.24027">
        <ele>1147.95</ele>
        <time>2011-09-25T14:18:34Z</time>
      </trkpt>
      <trkpt lat="45.49117" lon="6.24023">
        <ele>1146.99</ele>
        <time>2011-09-25T14:18:35Z</time>
      </trkpt>
      <trkpt lat="45.49123" lon="6.24029">
        <ele>1145.07</ele>
        <time>2011-09-25T14:18:37Z</time>
      </trkpt>
      <trkpt lat="45.49123" lon="6.24036">
        <ele>1144.11</ele>
        <time>2011-09-25T14:18:38Z</time>
      </trkpt>
      <trkpt lat="45.49124" lon="6.24053">
        <ele>1142.66</ele>
        <time>2011-09-25T14:18:40Z</time>
      </trkpt>
      <trkpt lat="45.49126" lon="6.24062">
        <ele>1141.7</ele>
        <time>2011-09-25T14:18:41Z</time>
      </trkpt>
      <trkpt lat="45.4913" lon="6.24072">
        <ele>1141.22</ele>
        <time>2011-09-25T14:18:42Z</time>
      </trkpt>
      <trkpt lat="45.49136" lon="6.24083">
        <ele>1140.26</ele>
        <time>2011-09-25T14:18:43Z</time>
      </trkpt>
      <trkpt lat="45.49144" lon="6.24093">
        <ele>1140.26</ele>
        <time>2011-09-25T14:18:44Z</time>
      </trkpt>
      <trkpt lat="45.4917" lon="6.24125">
        <ele>1136.9</ele>
        <time>2011-09-25T14:18:47Z</time>
      </trkpt>
      <trkpt lat="45.49174" lon="6.2413">
        <ele>1136.9</ele>
        <time>2011-09-25T14:18:48Z</time>
      </trkpt>
      <trkpt lat="45.49202" lon="6.2417">
        <ele>1134.49</ele>
        <time>2011-09-25T14:18:51Z</time>
      </trkpt>
      <trkpt lat="45.49208" lon="6.24184">
        <ele>1133.05</ele>
        <time>2011-09-25T14:18:52Z</time>
      </trkpt>
      <trkpt lat="45.49213" lon="6.24198">
        <ele>1131.61</ele>
        <time>2011-09-25T14:18:53Z</time>
      </trkpt>
      <trkpt lat="45.49219" lon="6.24231">
        <ele>1129.69</ele>
        <time>2011-09-25T14:18:55Z</time>
      </trkpt>
      <trkpt lat="45.4922" lon="6.24248">
        <ele>1128.73</ele>
        <time>2011-09-25T14:18:56Z</time>
      </trkpt>
      <trkpt lat="45.4922" lon="6.24264">
        <ele>1127.28</ele>
        <time>2011-09-25T14:18:57Z</time>
      </trkpt>
      <trkpt lat="45.49216" lon="6.2428">
        <ele>1126.8</ele>
        <time>2011-09-25T14:18:58Z</time>
      </trkpt>
      <trkpt lat="45.492" lon="6.24336">
        <ele>1123.44</ele>
        <time>2011-09-25T14:19:01Z</time>
      </trkpt>
      <trkpt lat="45.49198" lon="6.24343">
        <ele>1122.96</ele>
        <time>2011-09-25T14:19:02Z</time>
      </trkpt>
      <trkpt lat="45.4919" lon="6.24372">
        <ele>1119.11</ele>
        <time>2011-09-25T14:19:04Z</time>
      </trkpt>
      <trkpt lat="45.49188" lon="6.24384">
        <ele>1117.67</ele>
        <time>2011-09-25T14:19:05Z</time>
      </trkpt>
      <trkpt lat="45.49189" lon="6.24395">
        <ele>1117.19</ele>
        <time>2011-09-25T14:19:06Z</time>
      </trkpt>
      <trkpt lat="45.49191" lon="6.24402">
        <ele>1116.23</ele>
        <time>2011-09-25T14:19:07Z</time>
      </trkpt>
      <trkpt lat="45.49204" lon="6.24412">
        <ele>1115.27</ele>
        <time>2011-09-25T14:19:14Z</time>
      </trkpt>
      <trkpt lat="45.49203" lon="6.24408">
        <ele>1115.27</ele>
        <time>2011-09-25T14:19:35Z</time>
      </trkpt>
      <trkpt lat="45.49202" lon="6.24406">
        <ele>1115.27</ele>
        <time>2011-09-25T14:19:36Z</time>
      </trkpt>
      <trkpt lat="45.49197" lon="6.24364">
        <ele>1117.19</ele>
        <time>2011-09-25T14:19:48Z</time>
      </trkpt>
      <trkpt lat="45.49208" lon="6.24326">
        <ele>1121.03</ele>
        <time>2011-09-25T14:19:59Z</time>
      </trkpt>
      <trkpt lat="45.49222" lon="6.24291">
        <ele>1122.96</ele>
        <time>2011-09-25T14:20:09Z</time>
      </trkpt>
      <trkpt lat="45.4922" lon="6.24255">
        <ele>1123.92</ele>
        <time>2011-09-25T14:20:21Z</time>
      </trkpt>
      <trkpt lat="45.49219" lon="6.24248">
        <ele>1124.4</ele>
        <time>2011-09-25T14:20:29Z</time>
      </trkpt>
      <trkpt lat="45.49218" lon="6.24241">
        <ele>1122.48</ele>
        <time>2011-09-25T14:20:33Z</time>
      </trkpt>
      <trkpt lat="45.49222" lon="6.24227">
        <ele>1120.55</ele>
        <time>2011-09-25T14:20:37Z</time>
      </trkpt>
      <trkpt lat="45.49221" lon="6.24216">
        <ele>1119.59</ele>
        <time>2011-09-25T14:20:44Z</time>
      </trkpt>
      <trkpt lat="45.49221" lon="6.24214">
        <ele>1119.11</ele>
        <time>2011-09-25T14:20:45Z</time>
      </trkpt>
      <trkpt lat="45.49226" lon="6.24196">
        <ele>1115.27</ele>
        <time>2011-09-25T14:20:50Z</time>
      </trkpt>
      <trkpt lat="45.49225" lon="6.2417">
        <ele>1111.42</ele>
        <time>2011-09-25T14:20:53Z</time>
      </trkpt>
      <trkpt lat="45.49231" lon="6.24156">
        <ele>1108.54</ele>
        <time>2011-09-25T14:20:56Z</time>
      </trkpt>
      <trkpt lat="45.49232" lon="6.24148">
        <ele>1106.13</ele>
        <time>2011-09-25T14:21:00Z</time>
      </trkpt>
      <trkpt lat="45.49247" lon="6.24143">
        <ele>1102.29</ele>
        <time>2011-09-25T14:21:05Z</time>
      </trkpt>
      <trkpt lat="45.49255" lon="6.24158">
        <ele>1101.81</ele>
        <time>2011-09-25T14:21:09Z</time>
      </trkpt>
      <trkpt lat="45.49271" lon="6.24178">
        <ele>1099.4</ele>
        <time>2011-09-25T14:21:13Z</time>
      </trkpt>
      <trkpt lat="45.49294" lon="6.24212">
        <ele>1095.56</ele>
        <time>2011-09-25T14:21:22Z</time>
      </trkpt>
      <trkpt lat="45.49295" lon="6.24216">
        <ele>1093.64</ele>
        <time>2011-09-25T14:21:23Z</time>
      </trkpt>
      <trkpt lat="45.49298" lon="6.24219">
        <ele>1092.2</ele>
        <time>2011-09-25T14:21:24Z</time>
      </trkpt>
      <trkpt lat="45.49329" lon="6.2425">
        <ele>1088.83</ele>
        <time>2011-09-25T14:21:27Z</time>
      </trkpt>
      <trkpt lat="45.49337" lon="6.24262">
        <ele>1085.47</ele>
        <time>2011-09-25T14:21:30Z</time>
      </trkpt>
      <trkpt lat="45.49342" lon="6.24267">
        <ele>1083.54</ele>
        <time>2011-09-25T14:21:32Z</time>
      </trkpt>
      <trkpt lat="45.49349" lon="6.24276">
        <ele>1079.7</ele>
        <time>2011-09-25T14:21:36Z</time>
      </trkpt>
      <trkpt lat="45.49357" lon="6.24277">
        <ele>1075.85</ele>
        <time>2011-09-25T14:21:40Z</time>
      </trkpt>
      <trkpt lat="45.49364" lon="6.24272">
        <ele>1072.49</ele>
        <time>2011-09-25T14:21:43Z</time>
      </trkpt>
      <trkpt lat="45.4937" lon="6.2427">
        <ele>1069.12</ele>
        <time>2011-09-25T14:21:46Z</time>
      </trkpt>
      <trkpt lat="45.49384" lon="6.24267">
        <ele>1064.8</ele>
        <time>2011-09-25T14:21:52Z</time>
      </trkpt>
      <trkpt lat="45.49395" lon="6.24266">
        <ele>1060.47</ele>
        <time>2011-09-25T14:21:57Z</time>
      </trkpt>
      <trkpt lat="45.494" lon="6.24264">
        <ele>1059.03</ele>
        <time>2011-09-25T14:21:59Z</time>
      </trkpt>
      <trkpt lat="45.49401" lon="6.2427">
        <ele>1058.07</ele>
        <time>2011-09-25T14:22:06Z</time>
      </trkpt>
      <trkpt lat="45.49403" lon="6.2427">
        <ele>1056.15</ele>
        <time>2011-09-25T14:22:23Z</time>
      </trkpt>
      <trkpt lat="45.49405" lon="6.24269">
        <ele>1053.74</ele>
        <time>2011-09-25T14:22:28Z</time>
      </trkpt>
      <trkpt lat="45.49405" lon="6.2427">
        <ele>1053.26</ele>
        <time>2011-09-25T14:22:29Z</time>
      </trkpt>
      <trkpt lat="45.49411" lon="6.24271">
        <ele>1048.94</ele>
        <time>2011-09-25T14:22:38Z</time>
      </trkpt>
      <trkpt lat="45.49421" lon="6.24275">
        <ele>1047.01</ele>
        <time>2011-09-25T14:22:43Z</time>
      </trkpt>
      <trkpt lat="45.49431" lon="6.2428">
        <ele>1044.13</ele>
        <time>2011-09-25T14:22:50Z</time>
      </trkpt>
      <trkpt lat="45.49438" lon="6.24283">
        <ele>1041.73</ele>
        <time>2011-09-25T14:22:56Z</time>
      </trkpt>
      <trkpt lat="45.49447" lon="6.24289">
        <ele>1038.36</ele>
        <time>2011-09-25T14:23:04Z</time>
      </trkpt>
      <trkpt lat="45.49447" lon="6.24295">
        <ele>1037.4</ele>
        <time>2011-09-25T14:23:12Z</time>
      </trkpt>
      <trkpt lat="45.49451" lon="6.24297">
        <ele>1035.96</ele>
        <time>2011-09-25T14:23:15Z</time>
      </trkpt>
      <trkpt lat="45.49471" lon="6.24309">
        <ele>1031.63</ele>
        <time>2011-09-25T14:23:20Z</time>
      </trkpt>
      <trkpt lat="45.49504" lon="6.24326">
        <ele>1033.55</ele>
        <time>2011-09-25T14:23:34Z</time>
      </trkpt>
      <trkpt lat="45.49532" lon="6.24338">
        <ele>1036.44</ele>
        <time>2011-09-25T14:23:49Z</time>
      </trkpt>
      <trkpt lat="45.49563" lon="6.2434">
        <ele>1037.4</ele>
        <time>2011-09-25T14:24:06Z</time>
      </trkpt>
      <trkpt lat="45.49566" lon="6.24339">
        <ele>1037.88</ele>
        <time>2011-09-25T14:24:09Z</time>
      </trkpt>
      <trkpt lat="45.4958" lon="6.24329">
        <ele>1042.21</ele>
        <time>2011-09-25T14:24:24Z</time>
      </trkpt>
      <trkpt lat="45.49596" lon="6.24298">
        <ele>1045.09</ele>
        <time>2011-09-25T14:24:39Z</time>
      </trkpt>
      <trkpt lat="45.49607" lon="6.24272">
        <ele>1046.53</ele>
        <time>2011-09-25T14:24:51Z</time>
      </trkpt>
      <trkpt lat="45.49607" lon="6.24271">
        <ele>1046.05</ele>
        <time>2011-09-25T14:25:11Z</time>
      </trkpt>
      <trkpt lat="45.49608" lon="6.2427">
        <ele>1046.53</ele>
        <time>2011-09-25T14:25:37Z</time>
      </trkpt>
      <trkpt lat="45.49608" lon="6.24268">
        <ele>1047.01</ele>
        <time>2011-09-25T14:26:01Z</time>
      </trkpt>
      <trkpt lat="45.49606" lon="6.24259">
        <ele>1047.01</ele>
        <time>2011-09-25T14:26:06Z</time>
      </trkpt>
      <trkpt lat="45.49593" lon="6.24261">
        <ele>1049.9</ele>
        <time>2011-09-25T14:26:15Z</time>
      </trkpt>
      <trkpt lat="45.49584" lon="6.24262">
        <ele>1050.86</ele>
        <time>2011-09-25T14:26:20Z</time>
      </trkpt>
      <trkpt lat="45.49556" lon="6.2426">
        <ele>1052.78</ele>
        <time>2011-09-25T14:26:37Z</time>
      </trkpt>
      <trkpt lat="45.49535" lon="6.24253">
        <ele>1055.67</ele>
        <time>2011-09-25T14:26:53Z</time>
      </trkpt>
      <trkpt lat="45.49533" lon="6.24251">
        <ele>1056.15</ele>
        <time>2011-09-25T14:27:08Z</time>
      </trkpt>
      <trkpt lat="45.49532" lon="6.2425">
        <ele>1056.63</ele>
        <time>2011-09-25T14:27:11Z</time>
      </trkpt>
      <trkpt lat="45.4953" lon="6.24249">
        <ele>1057.59</ele>
        <time>2011-09-25T14:27:13Z</time>
      </trkpt>
      <trkpt lat="45.49524" lon="6.24245">
        <ele>1057.11</ele>
        <time>2011-09-25T14:27:18Z</time>
      </trkpt>
      <trkpt lat="45.49497" lon="6.24235">
        <ele>1056.15</ele>
        <time>2011-09-25T14:27:34Z</time>
      </trkpt>
      <trkpt lat="45.49471" lon="6.24125">
        <ele>1054.22</ele>
        <time>2011-09-25T14:27:47Z</time>
      </trkpt>
      <trkpt lat="45.49451" lon="6.24082">
        <ele>1051.34</ele>
        <time>2011-09-25T14:27:53Z</time>
      </trkpt>
      <trkpt lat="45.49445" lon="6.24069">
        <ele>1049.42</ele>
        <time>2011-09-25T14:27:55Z</time>
      </trkpt>
      <trkpt lat="45.49443" lon="6.24062">
        <ele>1048.94</ele>
        <time>2011-09-25T14:27:56Z</time>
      </trkpt>
      <trkpt lat="45.4944" lon="6.24049">
        <ele>1047.97</ele>
        <time>2011-09-25T14:27:58Z</time>
      </trkpt>
      <trkpt lat="45.49433" lon="6.24031">
        <ele>1046.05</ele>
        <time>2011-09-25T14:28:01Z</time>
      </trkpt>
      <trkpt lat="45.49432" lon="6.24025">
        <ele>1044.13</ele>
        <time>2011-09-25T14:28:02Z</time>
      </trkpt>
      <trkpt lat="45.49431" lon="6.2402">
        <ele>1043.65</ele>
        <time>2011-09-25T14:28:03Z</time>
      </trkpt>
      <trkpt lat="45.49432" lon="6.24011">
        <ele>1042.21</ele>
        <time>2011-09-25T14:28:05Z</time>
      </trkpt>
      <trkpt lat="45.49437" lon="6.24009">
        <ele>1040.76</ele>
        <time>2011-09-25T14:28:09Z</time>
      </trkpt>
      <trkpt lat="45.49446" lon="6.24007">
        <ele>1037.88</ele>
        <time>2011-09-25T14:28:18Z</time>
      </trkpt>
      <trkpt lat="45.49447" lon="6.24007">
        <ele>1036.92</ele>
        <time>2011-09-25T14:28:19Z</time>
      </trkpt>
      <trkpt lat="45.49456" lon="6.24011">
        <ele>1035.96</ele>
        <time>2011-09-25T14:28:32Z</time>
      </trkpt>
      <trkpt lat="45.49473" lon="6.24015">
        <ele>1034.04</ele>
        <time>2011-09-25T14:28:38Z</time>
      </trkpt>
      <trkpt lat="45.49478" lon="6.24019">
        <ele>1032.59</ele>
        <time>2011-09-25T14:28:40Z</time>
      </trkpt>
      <trkpt lat="45.49483" lon="6.24023">
        <ele>1031.63</ele>
        <time>2011-09-25T14:28:42Z</time>
      </trkpt>
      <trkpt lat="45.49489" lon="6.24027">
        <ele>1030.67</ele>
        <time>2011-09-25T14:28:44Z</time>
      </trkpt>
      <trkpt lat="45.49507" lon="6.24046">
        <ele>1027.31</ele>
        <time>2011-09-25T14:28:49Z</time>
      </trkpt>
      <trkpt lat="45.49517" lon="6.24056">
        <ele>1025.38</ele>
        <time>2011-09-25T14:28:51Z</time>
      </trkpt>
      <trkpt lat="45.49522" lon="6.24059">
        <ele>1024.42</ele>
        <time>2011-09-25T14:28:52Z</time>
      </trkpt>
      <trkpt lat="45.49527" lon="6.24062">
        <ele>1023.94</ele>
        <time>2011-09-25T14:28:53Z</time>
      </trkpt>
      <trkpt lat="45.49533" lon="6.24065">
        <ele>1023.94</ele>
        <time>2011-09-25T14:28:54Z</time>
      </trkpt>
      <trkpt lat="45.49538" lon="6.24067">
        <ele>1023.46</ele>
        <time>2011-09-25T14:28:55Z</time>
      </trkpt>
      <trkpt lat="45.49571" lon="6.24076">
        <ele>1019.13</ele>
        <time>2011-09-25T14:29:01Z</time>
      </trkpt>
      <trkpt lat="45.49592" lon="6.24081">
        <ele>1016.25</ele>
        <time>2011-09-25T14:29:05Z</time>
      </trkpt>
      <trkpt lat="45.49594" lon="6.2408">
        <ele>1015.77</ele>
        <time>2011-09-25T14:29:06Z</time>
      </trkpt>
      <trkpt lat="45.49595" lon="6.24079">
        <ele>1014.81</ele>
        <time>2011-09-25T14:29:07Z</time>
      </trkpt>
      <trkpt lat="45.49594" lon="6.24076">
        <ele>1014.33</ele>
        <time>2011-09-25T14:29:08Z</time>
      </trkpt>
      <trkpt lat="45.49593" lon="6.24073">
        <ele>1012.89</ele>
        <time>2011-09-25T14:29:09Z</time>
      </trkpt>
      <trkpt lat="45.49592" lon="6.2407">
        <ele>1011.93</ele>
        <time>2011-09-25T14:29:10Z</time>
      </trkpt>
      <trkpt lat="45.4959" lon="6.24067">
        <ele>1010.96</ele>
        <time>2011-09-25T14:29:11Z</time>
      </trkpt>
      <trkpt lat="45.49588" lon="6.24063">
        <ele>1010.48</ele>
        <time>2011-09-25T14:29:12Z</time>
      </trkpt>
      <trkpt lat="45.49587" lon="6.24061">
        <ele>1010</ele>
        <time>2011-09-25T14:29:13Z</time>
      </trkpt>
      <trkpt lat="45.49585" lon="6.24059">
        <ele>1010</ele>
        <time>2011-09-25T14:29:14Z</time>
      </trkpt>
      <trkpt lat="45.49582" lon="6.24057">
        <ele>1009.04</ele>
        <time>2011-09-25T14:29:15Z</time>
      </trkpt>
      <trkpt lat="45.49574" lon="6.24047">
        <ele>1007.6</ele>
        <time>2011-09-25T14:29:18Z</time>
      </trkpt>
      <trkpt lat="45.49571" lon="6.24041">
        <ele>1007.6</ele>
        <time>2011-09-25T14:29:19Z</time>
      </trkpt>
      <trkpt lat="45.49567" lon="6.24036">
        <ele>1007.6</ele>
        <time>2011-09-25T14:29:20Z</time>
      </trkpt>
      <trkpt lat="45.49564" lon="6.24031">
        <ele>1007.12</ele>
        <time>2011-09-25T14:29:21Z</time>
      </trkpt>
      <trkpt lat="45.49561" lon="6.24028">
        <ele>1007.12</ele>
        <time>2011-09-25T14:29:22Z</time>
      </trkpt>
      <trkpt lat="45.49558" lon="6.24024">
        <ele>1007.12</ele>
        <time>2011-09-25T14:29:23Z</time>
      </trkpt>
      <trkpt lat="45.49526" lon="6.23976">
        <ele>1004.72</ele>
        <time>2011-09-25T14:29:32Z</time>
      </trkpt>
      <trkpt lat="45.49519" lon="6.23968">
        <ele>1002.31</ele>
        <time>2011-09-25T14:29:34Z</time>
      </trkpt>
      <trkpt lat="45.49517" lon="6.23961">
        <ele>1001.83</ele>
        <time>2011-09-25T14:29:35Z</time>
      </trkpt>
      <trkpt lat="45.49515" lon="6.23955">
        <ele>1001.35</ele>
        <time>2011-09-25T14:29:36Z</time>
      </trkpt>
      <trkpt lat="45.49511" lon="6.23942">
        <ele>999.43</ele>
        <time>2011-09-25T14:29:38Z</time>
      </trkpt>
      <trkpt lat="45.49511" lon="6.23937">
        <ele>998.95</ele>
        <time>2011-09-25T14:29:39Z</time>
      </trkpt>
      <trkpt lat="45.49509" lon="6.23934">
        <ele>999.43</ele>
        <time>2011-09-25T14:29:40Z</time>
      </trkpt>
      <trkpt lat="45.49508" lon="6.2393">
        <ele>998.47</ele>
        <time>2011-09-25T14:29:41Z</time>
      </trkpt>
      <trkpt lat="45.49506" lon="6.23926">
        <ele>998.95</ele>
        <time>2011-09-25T14:29:42Z</time>
      </trkpt>
      <trkpt lat="45.495" lon="6.23902">
        <ele>995.58</ele>
        <time>2011-09-25T14:29:47Z</time>
      </trkpt>
      <trkpt lat="45.495" lon="6.23888">
        <ele>993.18</ele>
        <time>2011-09-25T14:29:54Z</time>
      </trkpt>
      <trkpt lat="45.49501" lon="6.23886">
        <ele>992.22</ele>
        <time>2011-09-25T14:29:56Z</time>
      </trkpt>
      <trkpt lat="45.49505" lon="6.23883">
        <ele>992.22</ele>
        <time>2011-09-25T14:30:02Z</time>
      </trkpt>
      <trkpt lat="45.49502" lon="6.23874">
        <ele>991.26</ele>
        <time>2011-09-25T14:30:17Z</time>
      </trkpt>
      <trkpt lat="45.495" lon="6.23861">
        <ele>989.81</ele>
        <time>2011-09-25T14:30:20Z</time>
      </trkpt>
      <trkpt lat="45.49497" lon="6.23846">
        <ele>988.85</ele>
        <time>2011-09-25T14:30:24Z</time>
      </trkpt>
      <trkpt lat="45.49495" lon="6.23836">
        <ele>987.41</ele>
        <time>2011-09-25T14:30:26Z</time>
      </trkpt>
      <trkpt lat="45.4949" lon="6.2382">
        <ele>984.05</ele>
        <time>2011-09-25T14:30:29Z</time>
      </trkpt>
      <trkpt lat="45.49487" lon="6.23808">
        <ele>983.09</ele>
        <time>2011-09-25T14:30:31Z</time>
      </trkpt>
      <trkpt lat="45.49482" lon="6.23787">
        <ele>981.16</ele>
        <time>2011-09-25T14:30:34Z</time>
      </trkpt>
      <trkpt lat="45.49477" lon="6.23775">
        <ele>979.24</ele>
        <time>2011-09-25T14:30:36Z</time>
      </trkpt>
      <trkpt lat="45.49476" lon="6.23769">
        <ele>978.76</ele>
        <time>2011-09-25T14:30:37Z</time>
      </trkpt>
      <trkpt lat="45.49474" lon="6.23764">
        <ele>977.32</ele>
        <time>2011-09-25T14:30:38Z</time>
      </trkpt>
      <trkpt lat="45.49472" lon="6.2376">
        <ele>976.84</ele>
        <time>2011-09-25T14:30:39Z</time>
      </trkpt>
      <trkpt lat="45.49472" lon="6.23755">
        <ele>975.39</ele>
        <time>2011-09-25T14:30:40Z</time>
      </trkpt>
      <trkpt lat="45.49472" lon="6.23751">
        <ele>975.39</ele>
        <time>2011-09-25T14:30:41Z</time>
      </trkpt>
      <trkpt lat="45.49465" lon="6.2374">
        <ele>971.07</ele>
        <time>2011-09-25T14:30:46Z</time>
      </trkpt>
      <trkpt lat="45.49455" lon="6.23723">
        <ele>967.7</ele>
        <time>2011-09-25T14:30:49Z</time>
      </trkpt>
      <trkpt lat="45.4945" lon="6.23719">
        <ele>966.26</ele>
        <time>2011-09-25T14:30:50Z</time>
      </trkpt>
      <trkpt lat="45.4944" lon="6.23709">
        <ele>964.34</ele>
        <time>2011-09-25T14:30:53Z</time>
      </trkpt>
      <trkpt lat="45.49417" lon="6.23697">
        <ele>964.34</ele>
        <time>2011-09-25T14:31:08Z</time>
      </trkpt>
      <trkpt lat="45.49419" lon="6.23698">
        <ele>964.82</ele>
        <time>2011-09-25T14:31:12Z</time>
      </trkpt>
      <trkpt lat="45.4943" lon="6.2369">
        <ele>961.46</ele>
        <time>2011-09-25T14:31:16Z</time>
      </trkpt>
      <trkpt lat="45.49432" lon="6.23686">
        <ele>960.01</ele>
        <time>2011-09-25T14:31:17Z</time>
      </trkpt>
      <trkpt lat="45.49434" lon="6.23682">
        <ele>959.53</ele>
        <time>2011-09-25T14:31:18Z</time>
      </trkpt>
      <trkpt lat="45.49434" lon="6.23674">
        <ele>957.61</ele>
        <time>2011-09-25T14:31:20Z</time>
      </trkpt>
      <trkpt lat="45.4943" lon="6.23662">
        <ele>953.77</ele>
        <time>2011-09-25T14:31:24Z</time>
      </trkpt>
      <trkpt lat="45.49427" lon="6.23656">
        <ele>950.4</ele>
        <time>2011-09-25T14:31:26Z</time>
      </trkpt>
      <trkpt lat="45.49424" lon="6.23649">
        <ele>947.52</ele>
        <time>2011-09-25T14:31:28Z</time>
      </trkpt>
      <trkpt lat="45.49423" lon="6.23644">
        <ele>946.56</ele>
        <time>2011-09-25T14:31:29Z</time>
      </trkpt>
      <trkpt lat="45.49418" lon="6.23612">
        <ele>942.23</ele>
        <time>2011-09-25T14:31:32Z</time>
      </trkpt>
      <trkpt lat="45.49415" lon="6.236">
        <ele>938.86</ele>
        <time>2011-09-25T14:31:34Z</time>
      </trkpt>
      <trkpt lat="45.49417" lon="6.23589">
        <ele>937.42</ele>
        <time>2011-09-25T14:31:35Z</time>
      </trkpt>
      <trkpt lat="45.49419" lon="6.23551">
        <ele>933.58</ele>
        <time>2011-09-25T14:31:39Z</time>
      </trkpt>
      <trkpt lat="45.49418" lon="6.23543">
        <ele>932.62</ele>
        <time>2011-09-25T14:31:40Z</time>
      </trkpt>
      <trkpt lat="45.49416" lon="6.23535">
        <ele>929.73</ele>
        <time>2011-09-25T14:31:41Z</time>
      </trkpt>
      <trkpt lat="45.49413" lon="6.23527">
        <ele>928.77</ele>
        <time>2011-09-25T14:31:42Z</time>
      </trkpt>
      <trkpt lat="45.4941" lon="6.23519">
        <ele>927.33</ele>
        <time>2011-09-25T14:31:43Z</time>
      </trkpt>
      <trkpt lat="45.49406" lon="6.23511">
        <ele>926.37</ele>
        <time>2011-09-25T14:31:44Z</time>
      </trkpt>
      <trkpt lat="45.494" lon="6.23496">
        <ele>923</ele>
        <time>2011-09-25T14:31:46Z</time>
      </trkpt>
      <trkpt lat="45.49395" lon="6.23482">
        <ele>920.6</ele>
        <time>2011-09-25T14:31:48Z</time>
      </trkpt>
      <trkpt lat="45.49392" lon="6.23476">
        <ele>919.16</ele>
        <time>2011-09-25T14:31:49Z</time>
      </trkpt>
      <trkpt lat="45.49387" lon="6.23471">
        <ele>917.72</ele>
        <time>2011-09-25T14:31:50Z</time>
      </trkpt>
      <trkpt lat="45.49379" lon="6.23462">
        <ele>914.83</ele>
        <time>2011-09-25T14:31:52Z</time>
      </trkpt>
      <trkpt lat="45.49369" lon="6.23452">
        <ele>911.47</ele>
        <time>2011-09-25T14:31:53Z</time>
      </trkpt>
      <trkpt lat="45.49367" lon="6.2345">
        <ele>911.47</ele>
        <time>2011-09-25T14:31:54Z</time>
      </trkpt>
      <trkpt lat="45.49357" lon="6.23442">
        <ele>909.06</ele>
        <time>2011-09-25T14:31:56Z</time>
      </trkpt>
      <trkpt lat="45.49353" lon="6.23437">
        <ele>907.62</ele>
        <time>2011-09-25T14:31:57Z</time>
      </trkpt>
      <trkpt lat="45.4935" lon="6.23431">
        <ele>906.18</ele>
        <time>2011-09-25T14:31:58Z</time>
      </trkpt>
      <trkpt lat="45.49348" lon="6.23424">
        <ele>906.18</ele>
        <time>2011-09-25T14:31:59Z</time>
      </trkpt>
      <trkpt lat="45.49351" lon="6.23392">
        <ele>902.82</ele>
        <time>2011-09-25T14:32:04Z</time>
      </trkpt>
      <trkpt lat="45.49355" lon="6.23375">
        <ele>899.45</ele>
        <time>2011-09-25T14:32:07Z</time>
      </trkpt>
      <trkpt lat="45.49355" lon="6.2337">
        <ele>898.49</ele>
        <time>2011-09-25T14:32:08Z</time>
      </trkpt>
      <trkpt lat="45.49355" lon="6.23356">
        <ele>897.53</ele>
        <time>2011-09-25T14:32:10Z</time>
      </trkpt>
      <trkpt lat="45.49352" lon="6.23339">
        <ele>896.09</ele>
        <time>2011-09-25T14:32:12Z</time>
      </trkpt>
      <trkpt lat="45.49345" lon="6.23318">
        <ele>895.61</ele>
        <time>2011-09-25T14:32:15Z</time>
      </trkpt>
      <trkpt lat="45.49333" lon="6.2329">
        <ele>893.2</ele>
        <time>2011-09-25T14:32:23Z</time>
      </trkpt>
      <trkpt lat="45.49331" lon="6.23283">
        <ele>893.2</ele>
        <time>2011-09-25T14:32:33Z</time>
      </trkpt>
      <trkpt lat="45.4933" lon="6.23281">
        <ele>894.16</ele>
        <time>2011-09-25T14:32:34Z</time>
      </trkpt>
      <trkpt lat="45.49325" lon="6.23269">
        <ele>893.68</ele>
        <time>2011-09-25T14:32:37Z</time>
      </trkpt>
      <trkpt lat="45.49316" lon="6.23242">
        <ele>893.68</ele>
        <time>2011-09-25T14:32:41Z</time>
      </trkpt>
      <trkpt lat="45.49315" lon="6.23233">
        <ele>893.2</ele>
        <time>2011-09-25T14:32:42Z</time>
      </trkpt>
      <trkpt lat="45.49312" lon="6.23214">
        <ele>892.72</ele>
        <time>2011-09-25T14:32:44Z</time>
      </trkpt>
      <trkpt lat="45.4931" lon="6.23185">
        <ele>891.76</ele>
        <time>2011-09-25T14:32:47Z</time>
      </trkpt>
      <trkpt lat="45.49311" lon="6.23143">
        <ele>891.28</ele>
        <time>2011-09-25T14:32:51Z</time>
      </trkpt>
      <trkpt lat="45.49306" lon="6.2304">
        <ele>890.32</ele>
        <time>2011-09-25T14:33:01Z</time>
      </trkpt>
      <trkpt lat="45.49304" lon="6.23029">
        <ele>889.84</ele>
        <time>2011-09-25T14:33:02Z</time>
      </trkpt>
      <trkpt lat="45.49298" lon="6.22998">
        <ele>889.84</ele>
        <time>2011-09-25T14:33:05Z</time>
      </trkpt>
      <trkpt lat="45.49297" lon="6.22988">
        <ele>890.32</ele>
        <time>2011-09-25T14:33:06Z</time>
      </trkpt>
      <trkpt lat="45.49285" lon="6.22929">
        <ele>892.24</ele>
        <time>2011-09-25T14:33:16Z</time>
      </trkpt>
      <trkpt lat="45.49278" lon="6.22895">
        <ele>894.64</ele>
        <time>2011-09-25T14:33:29Z</time>
      </trkpt>
      <trkpt lat="45.49278" lon="6.22868">
        <ele>897.05</ele>
        <time>2011-09-25T14:33:42Z</time>
      </trkpt>
      <trkpt lat="45.49279" lon="6.22833">
        <ele>899.45</ele>
        <time>2011-09-25T14:33:55Z</time>
      </trkpt>
      <trkpt lat="45.49278" lon="6.22817">
        <ele>899.93</ele>
        <time>2011-09-25T14:34:03Z</time>
      </trkpt>
      <trkpt lat="45.49277" lon="6.22815">
        <ele>900.41</ele>
        <time>2011-09-25T14:34:04Z</time>
      </trkpt>
      <trkpt lat="45.49276" lon="6.22813">
        <ele>899.93</ele>
        <time>2011-09-25T14:34:05Z</time>
      </trkpt>
      <trkpt lat="45.49274" lon="6.2281">
        <ele>900.41</ele>
        <time>2011-09-25T14:34:06Z</time>
      </trkpt>
      <trkpt lat="45.49273" lon="6.22808">
        <ele>899.93</ele>
        <time>2011-09-25T14:34:07Z</time>
      </trkpt>
      <trkpt lat="45.49271" lon="6.22806">
        <ele>899.93</ele>
        <time>2011-09-25T14:34:08Z</time>
      </trkpt>
      <trkpt lat="45.49269" lon="6.22804">
        <ele>899.93</ele>
        <time>2011-09-25T14:34:09Z</time>
      </trkpt>
      <trkpt lat="45.49268" lon="6.22802">
        <ele>899.93</ele>
        <time>2011-09-25T14:34:10Z</time>
      </trkpt>
      <trkpt lat="45.49267" lon="6.228">
        <ele>899.93</ele>
        <time>2011-09-25T14:34:11Z</time>
      </trkpt>
      <trkpt lat="45.49266" lon="6.22797">
        <ele>899.93</ele>
        <time>2011-09-25T14:34:12Z</time>
      </trkpt>
      <trkpt lat="45.49264" lon="6.22795">
        <ele>899.93</ele>
        <time>2011-09-25T14:34:13Z</time>
      </trkpt>
      <trkpt lat="45.49263" lon="6.22793">
        <ele>899.93</ele>
        <time>2011-09-25T14:34:14Z</time>
      </trkpt>
      <trkpt lat="45.49261" lon="6.22791">
        <ele>899.93</ele>
        <time>2011-09-25T14:34:15Z</time>
      </trkpt>
      <trkpt lat="45.49259" lon="6.22789">
        <ele>899.93</ele>
        <time>2011-09-25T14:34:16Z</time>
      </trkpt>
      <trkpt lat="45.49229" lon="6.22756">
        <ele>900.41</ele>
        <time>2011-09-25T14:34:29Z</time>
      </trkpt>
      <trkpt lat="45.492" lon="6.22708">
        <ele>899.45</ele>
        <time>2011-09-25T14:34:37Z</time>
      </trkpt>
      <trkpt lat="45.49187" lon="6.22678">
        <ele>897.53</ele>
        <time>2011-09-25T14:34:41Z</time>
      </trkpt>
      <trkpt lat="45.49185" lon="6.22669">
        <ele>897.53</ele>
        <time>2011-09-25T14:34:42Z</time>
      </trkpt>
      <trkpt lat="45.49183" lon="6.22636">
        <ele>896.09</ele>
        <time>2011-09-25T14:34:45Z</time>
      </trkpt>
      <trkpt lat="45.49179" lon="6.22625">
        <ele>895.61</ele>
        <time>2011-09-25T14:34:46Z</time>
      </trkpt>
      <trkpt lat="45.49161" lon="6.22588">
        <ele>893.68</ele>
        <time>2011-09-25T14:34:49Z</time>
      </trkpt>
      <trkpt lat="45.49154" lon="6.22569">
        <ele>892.72</ele>
        <time>2011-09-25T14:34:50Z</time>
      </trkpt>
      <trkpt lat="45.49135" lon="6.22518">
        <ele>890.8</ele>
        <time>2011-09-25T14:34:54Z</time>
      </trkpt>
      <trkpt lat="45.49079" lon="6.22365">
        <ele>887.43</ele>
        <time>2011-09-25T14:35:05Z</time>
      </trkpt>
      <trkpt lat="45.49073" lon="6.22336">
        <ele>886.47</ele>
        <time>2011-09-25T14:35:07Z</time>
      </trkpt>
      <trkpt lat="45.49072" lon="6.22321">
        <ele>885.99</ele>
        <time>2011-09-25T14:35:08Z</time>
      </trkpt>
      <trkpt lat="45.49052" lon="6.22249">
        <ele>884.07</ele>
        <time>2011-09-25T14:35:13Z</time>
      </trkpt>
      <trkpt lat="45.49019" lon="6.22114">
        <ele>884.55</ele>
        <time>2011-09-25T14:35:23Z</time>
      </trkpt>
      <trkpt lat="45.49017" lon="6.221">
        <ele>884.55</ele>
        <time>2011-09-25T14:35:24Z</time>
      </trkpt>
      <trkpt lat="45.49013" lon="6.22035">
        <ele>884.55</ele>
        <time>2011-09-25T14:35:29Z</time>
      </trkpt>
      <trkpt lat="45.49011" lon="6.22024">
        <ele>884.55</ele>
        <time>2011-09-25T14:35:30Z</time>
      </trkpt>
      <trkpt lat="45.49007" lon="6.22013">
        <ele>884.07</ele>
        <time>2011-09-25T14:35:31Z</time>
      </trkpt>
      <trkpt lat="45.49001" lon="6.22002">
        <ele>885.03</ele>
        <time>2011-09-25T14:35:32Z</time>
      </trkpt>
      <trkpt lat="45.48996" lon="6.21992">
        <ele>885.03</ele>
        <time>2011-09-25T14:35:33Z</time>
      </trkpt>
      <trkpt lat="45.48989" lon="6.21983">
        <ele>885.03</ele>
        <time>2011-09-25T14:35:34Z</time>
      </trkpt>
      <trkpt lat="45.48912" lon="6.21858">
        <ele>881.67</ele>
        <time>2011-09-25T14:35:47Z</time>
      </trkpt>
      <trkpt lat="45.48908" lon="6.21847">
        <ele>881.19</ele>
        <time>2011-09-25T14:35:48Z</time>
      </trkpt>
      <trkpt lat="45.48905" lon="6.21833">
        <ele>881.19</ele>
        <time>2011-09-25T14:35:49Z</time>
      </trkpt>
      <trkpt lat="45.48905" lon="6.21818">
        <ele>880.22</ele>
        <time>2011-09-25T14:35:50Z</time>
      </trkpt>
      <trkpt lat="45.48908" lon="6.21804">
        <ele>879.26</ele>
        <time>2011-09-25T14:35:51Z</time>
      </trkpt>
      <trkpt lat="45.48914" lon="6.21792">
        <ele>879.26</ele>
        <time>2011-09-25T14:35:52Z</time>
      </trkpt>
      <trkpt lat="45.48919" lon="6.21778">
        <ele>878.3</ele>
        <time>2011-09-25T14:35:53Z</time>
      </trkpt>
      <trkpt lat="45.48922" lon="6.21763">
        <ele>877.82</ele>
        <time>2011-09-25T14:35:54Z</time>
      </trkpt>
      <trkpt lat="45.48923" lon="6.21747">
        <ele>877.34</ele>
        <time>2011-09-25T14:35:55Z</time>
      </trkpt>
      <trkpt lat="45.48921" lon="6.2173">
        <ele>877.34</ele>
        <time>2011-09-25T14:35:56Z</time>
      </trkpt>
      <trkpt lat="45.48917" lon="6.21713">
        <ele>875.9</ele>
        <time>2011-09-25T14:35:57Z</time>
      </trkpt>
      <trkpt lat="45.48912" lon="6.21697">
        <ele>874.94</ele>
        <time>2011-09-25T14:35:58Z</time>
      </trkpt>
      <trkpt lat="45.48895" lon="6.21629">
        <ele>871.57</ele>
        <time>2011-09-25T14:36:02Z</time>
      </trkpt>
      <trkpt lat="45.48884" lon="6.21596">
        <ele>870.13</ele>
        <time>2011-09-25T14:36:04Z</time>
      </trkpt>
      <trkpt lat="45.48868" lon="6.21544">
        <ele>868.21</ele>
        <time>2011-09-25T14:36:07Z</time>
      </trkpt>
      <trkpt lat="45.48866" lon="6.21527">
        <ele>866.77</ele>
        <time>2011-09-25T14:36:08Z</time>
      </trkpt>
      <trkpt lat="45.48864" lon="6.21509">
        <ele>865.8</ele>
        <time>2011-09-25T14:36:09Z</time>
      </trkpt>
      <trkpt lat="45.48863" lon="6.21492">
        <ele>865.8</ele>
        <time>2011-09-25T14:36:10Z</time>
      </trkpt>
      <trkpt lat="45.48861" lon="6.2143">
        <ele>863.4</ele>
        <time>2011-09-25T14:36:14Z</time>
      </trkpt>
      <trkpt lat="45.48852" lon="6.21282">
        <ele>862.92</ele>
        <time>2011-09-25T14:36:25Z</time>
      </trkpt>
      <trkpt lat="45.4883" lon="6.2122">
        <ele>862.92</ele>
        <time>2011-09-25T14:36:31Z</time>
      </trkpt>
      <trkpt lat="45.48785" lon="6.21097">
        <ele>864.36</ele>
        <time>2011-09-25T14:36:45Z</time>
      </trkpt>
      <trkpt lat="45.48735" lon="6.20946">
        <ele>862.92</ele>
        <time>2011-09-25T14:37:01Z</time>
      </trkpt>
      <trkpt lat="45.4869" lon="6.20824">
        <ele>859.56</ele>
        <time>2011-09-25T14:37:16Z</time>
      </trkpt>
      <trkpt lat="45.48688" lon="6.20822">
        <ele>858.11</ele>
        <time>2011-09-25T14:37:17Z</time>
      </trkpt>
      <trkpt lat="45.48686" lon="6.20822">
        <ele>857.63</ele>
        <time>2011-09-25T14:37:18Z</time>
      </trkpt>
      <trkpt lat="45.48686" lon="6.20825">
        <ele>857.15</ele>
        <time>2011-09-25T14:37:19Z</time>
      </trkpt>
      <trkpt lat="45.48687" lon="6.20827">
        <ele>856.67</ele>
        <time>2011-09-25T14:37:20Z</time>
      </trkpt>
      <trkpt lat="45.48689" lon="6.2083">
        <ele>857.63</ele>
        <time>2011-09-25T14:37:21Z</time>
      </trkpt>
      <trkpt lat="45.48691" lon="6.20833">
        <ele>857.15</ele>
        <time>2011-09-25T14:37:22Z</time>
      </trkpt>
      <trkpt lat="45.48693" lon="6.20836">
        <ele>857.15</ele>
        <time>2011-09-25T14:37:23Z</time>
      </trkpt>
      <trkpt lat="45.48695" lon="6.2084">
        <ele>857.63</ele>
        <time>2011-09-25T14:37:24Z</time>
      </trkpt>
      <trkpt lat="45.48698" lon="6.20845">
        <ele>858.59</ele>
        <time>2011-09-25T14:37:25Z</time>
      </trkpt>
      <trkpt lat="45.48701" lon="6.2085">
        <ele>858.11</ele>
        <time>2011-09-25T14:37:26Z</time>
      </trkpt>
      <trkpt lat="45.48704" lon="6.20856">
        <ele>858.11</ele>
        <time>2011-09-25T14:37:27Z</time>
      </trkpt>
      <trkpt lat="45.48708" lon="6.20862">
        <ele>858.59</ele>
        <time>2011-09-25T14:37:28Z</time>
      </trkpt>
      <trkpt lat="45.48714" lon="6.20865">
        <ele>858.59</ele>
        <time>2011-09-25T14:37:29Z</time>
      </trkpt>
      <trkpt lat="45.48721" lon="6.20866">
        <ele>859.08</ele>
        <time>2011-09-25T14:37:30Z</time>
      </trkpt>
      <trkpt lat="45.48727" lon="6.20865">
        <ele>859.56</ele>
        <time>2011-09-25T14:37:31Z</time>
      </trkpt>
      <trkpt lat="45.48732" lon="6.20862">
        <ele>860.04</ele>
        <time>2011-09-25T14:37:32Z</time>
      </trkpt>
      <trkpt lat="45.48737" lon="6.20859">
        <ele>860.52</ele>
        <time>2011-09-25T14:37:33Z</time>
      </trkpt>
      <trkpt lat="45.4874" lon="6.20855">
        <ele>860.52</ele>
        <time>2011-09-25T14:37:34Z</time>
      </trkpt>
      <trkpt lat="45.48743" lon="6.20851">
        <ele>861</ele>
        <time>2011-09-25T14:37:35Z</time>
      </trkpt>
      <trkpt lat="45.48746" lon="6.20847">
        <ele>860.52</ele>
        <time>2011-09-25T14:37:36Z</time>
      </trkpt>
      <trkpt lat="45.48748" lon="6.20843">
        <ele>860.52</ele>
        <time>2011-09-25T14:37:37Z</time>
      </trkpt>
      <trkpt lat="45.48749" lon="6.20839">
        <ele>861</ele>
        <time>2011-09-25T14:37:38Z</time>
      </trkpt>
      <trkpt lat="45.4875" lon="6.20834">
        <ele>860.52</ele>
        <time>2011-09-25T14:37:39Z</time>
      </trkpt>
      <trkpt lat="45.4875" lon="6.20829">
        <ele>861</ele>
        <time>2011-09-25T14:37:40Z</time>
      </trkpt>
      <trkpt lat="45.4875" lon="6.20824">
        <ele>861</ele>
        <time>2011-09-25T14:37:41Z</time>
      </trkpt>
      <trkpt lat="45.48749" lon="6.2082">
        <ele>861.48</ele>
        <time>2011-09-25T14:37:42Z</time>
      </trkpt>
      <trkpt lat="45.48732" lon="6.20768">
        <ele>863.4</ele>
        <time>2011-09-25T14:37:56Z</time>
      </trkpt>
      <trkpt lat="45.48722" lon="6.20727">
        <ele>865.8</ele>
        <time>2011-09-25T14:38:09Z</time>
      </trkpt>
      <trkpt lat="45.4871" lon="6.20682">
        <ele>867.73</ele>
        <time>2011-09-25T14:38:24Z</time>
      </trkpt>
      <trkpt lat="45.487" lon="6.20647">
        <ele>869.65</ele>
        <time>2011-09-25T14:38:38Z</time>
      </trkpt>
      <trkpt lat="45.48699" lon="6.20646">
        <ele>869.65</ele>
        <time>2011-09-25T14:38:39Z</time>
      </trkpt>
      <trkpt lat="45.48698" lon="6.20645">
        <ele>869.17</ele>
        <time>2011-09-25T14:38:40Z</time>
      </trkpt>
      <trkpt lat="45.48698" lon="6.20643">
        <ele>869.65</ele>
        <time>2011-09-25T14:38:41Z</time>
      </trkpt>
      <trkpt lat="45.48698" lon="6.20641">
        <ele>869.65</ele>
        <time>2011-09-25T14:38:42Z</time>
      </trkpt>
      <trkpt lat="45.48698" lon="6.20638">
        <ele>869.65</ele>
        <time>2011-09-25T14:38:43Z</time>
      </trkpt>
      <trkpt lat="45.48698" lon="6.20636">
        <ele>869.65</ele>
        <time>2011-09-25T14:38:44Z</time>
      </trkpt>
      <trkpt lat="45.48695" lon="6.20597">
        <ele>871.09</ele>
        <time>2011-09-25T14:38:59Z</time>
      </trkpt>
      <trkpt lat="45.4869" lon="6.20538">
        <ele>873.98</ele>
        <time>2011-09-25T14:39:16Z</time>
      </trkpt>
      <trkpt lat="45.48682" lon="6.2049">
        <ele>876.38</ele>
        <time>2011-09-25T14:39:30Z</time>
      </trkpt>
      <trkpt lat="45.48673" lon="6.2043">
        <ele>879.26</ele>
        <time>2011-09-25T14:39:47Z</time>
      </trkpt>
      <trkpt lat="45.48665" lon="6.20374">
        <ele>881.67</ele>
        <time>2011-09-25T14:40:03Z</time>
      </trkpt>
      <trkpt lat="45.48655" lon="6.20308">
        <ele>884.07</ele>
        <time>2011-09-25T14:40:22Z</time>
      </trkpt>
      <trkpt lat="45.48657" lon="6.20246">
        <ele>886.95</ele>
        <time>2011-09-25T14:40:39Z</time>
      </trkpt>
      <trkpt lat="45.4866" lon="6.20181">
        <ele>888.88</ele>
        <time>2011-09-25T14:40:56Z</time>
      </trkpt>
      <trkpt lat="45.48656" lon="6.20111">
        <ele>890.8</ele>
        <time>2011-09-25T14:41:14Z</time>
      </trkpt>
      <trkpt lat="45.4866" lon="6.20034">
        <ele>893.2</ele>
        <time>2011-09-25T14:41:33Z</time>
      </trkpt>
      <trkpt lat="45.48654" lon="6.19969">
        <ele>893.68</ele>
        <time>2011-09-25T14:41:47Z</time>
      </trkpt>
      <trkpt lat="45.48648" lon="6.1991">
        <ele>892.72</ele>
        <time>2011-09-25T14:41:56Z</time>
      </trkpt>
      <trkpt lat="45.48647" lon="6.19903">
        <ele>893.2</ele>
        <time>2011-09-25T14:41:57Z</time>
      </trkpt>
      <trkpt lat="45.48645" lon="6.19897">
        <ele>893.68</ele>
        <time>2011-09-25T14:41:58Z</time>
      </trkpt>
      <trkpt lat="45.48642" lon="6.19891">
        <ele>893.2</ele>
        <time>2011-09-25T14:41:59Z</time>
      </trkpt>
      <trkpt lat="45.48639" lon="6.19886">
        <ele>893.68</ele>
        <time>2011-09-25T14:42:00Z</time>
      </trkpt>
      <trkpt lat="45.48636" lon="6.19881">
        <ele>893.2</ele>
        <time>2011-09-25T14:42:01Z</time>
      </trkpt>
      <trkpt lat="45.48633" lon="6.19876">
        <ele>893.68</ele>
        <time>2011-09-25T14:42:02Z</time>
      </trkpt>
      <trkpt lat="45.48629" lon="6.19873">
        <ele>893.68</ele>
        <time>2011-09-25T14:42:03Z</time>
      </trkpt>
      <trkpt lat="45.48601" lon="6.1984">
        <ele>896.57</ele>
        <time>2011-09-25T14:42:13Z</time>
      </trkpt>
      <trkpt lat="45.48574" lon="6.19791">
        <ele>897.05</ele>
        <time>2011-09-25T14:42:28Z</time>
      </trkpt>
      <trkpt lat="45.4856" lon="6.19752">
        <ele>896.57</ele>
        <time>2011-09-25T14:42:37Z</time>
      </trkpt>
      <trkpt lat="45.48544" lon="6.197">
        <ele>895.61</ele>
        <time>2011-09-25T14:42:46Z</time>
      </trkpt>
      <trkpt lat="45.48519" lon="6.19631">
        <ele>895.61</ele>
        <time>2011-09-25T14:43:00Z</time>
      </trkpt>
      <trkpt lat="45.4851" lon="6.19596">
        <ele>898.01</ele>
        <time>2011-09-25T14:43:14Z</time>
      </trkpt>
      <trkpt lat="45.48479" lon="6.19547">
        <ele>899.93</ele>
        <time>2011-09-25T14:43:28Z</time>
      </trkpt>
      <trkpt lat="45.48451" lon="6.19478">
        <ele>902.33</ele>
        <time>2011-09-25T14:43:44Z</time>
      </trkpt>
      <trkpt lat="45.48422" lon="6.19407">
        <ele>904.26</ele>
        <time>2011-09-25T14:44:02Z</time>
      </trkpt>
      <trkpt lat="45.48417" lon="6.19368">
        <ele>905.22</ele>
        <time>2011-09-25T14:44:18Z</time>
      </trkpt>
      <trkpt lat="45.48424" lon="6.19335">
        <ele>906.66</ele>
        <time>2011-09-25T14:44:33Z</time>
      </trkpt>
      <trkpt lat="45.48429" lon="6.19321">
        <ele>907.14</ele>
        <time>2011-09-25T14:44:46Z</time>
      </trkpt>
      <trkpt lat="45.48428" lon="6.19324">
        <ele>907.14</ele>
        <time>2011-09-25T14:44:47Z</time>
      </trkpt>
      <trkpt lat="45.48427" lon="6.19327">
        <ele>906.66</ele>
        <time>2011-09-25T14:44:48Z</time>
      </trkpt>
      <trkpt lat="45.4842" lon="6.19355">
        <ele>905.7</ele>
        <time>2011-09-25T14:44:54Z</time>
      </trkpt>
      <trkpt lat="45.48419" lon="6.19362">
        <ele>905.7</ele>
        <time>2011-09-25T14:44:55Z</time>
      </trkpt>
      <trkpt lat="45.48418" lon="6.1937">
        <ele>905.22</ele>
        <time>2011-09-25T14:44:56Z</time>
      </trkpt>
      <trkpt lat="45.4842" lon="6.19378">
        <ele>905.22</ele>
        <time>2011-09-25T14:44:57Z</time>
      </trkpt>
      <trkpt lat="45.48459" lon="6.19487">
        <ele>902.33</ele>
        <time>2011-09-25T14:45:09Z</time>
      </trkpt>
      <trkpt lat="45.48476" lon="6.19529">
        <ele>899.93</ele>
        <time>2011-09-25T14:45:13Z</time>
      </trkpt>
      <trkpt lat="45.48509" lon="6.19589">
        <ele>898.49</ele>
        <time>2011-09-25T14:45:19Z</time>
      </trkpt>
      <trkpt lat="45.48513" lon="6.196">
        <ele>897.53</ele>
        <time>2011-09-25T14:45:20Z</time>
      </trkpt>
      <trkpt lat="45.48517" lon="6.19611">
        <ele>897.53</ele>
        <time>2011-09-25T14:45:21Z</time>
      </trkpt>
      <trkpt lat="45.48519" lon="6.19623">
        <ele>896.57</ele>
        <time>2011-09-25T14:45:22Z</time>
      </trkpt>
      <trkpt lat="45.4852" lon="6.19634">
        <ele>894.64</ele>
        <time>2011-09-25T14:45:23Z</time>
      </trkpt>
      <trkpt lat="45.48518" lon="6.19642">
        <ele>894.64</ele>
        <time>2011-09-25T14:45:24Z</time>
      </trkpt>
      <trkpt lat="45.48515" lon="6.19649">
        <ele>894.16</ele>
        <time>2011-09-25T14:45:25Z</time>
      </trkpt>
      <trkpt lat="45.4851" lon="6.19653">
        <ele>894.16</ele>
        <time>2011-09-25T14:45:26Z</time>
      </trkpt>
      <trkpt lat="45.48505" lon="6.19657">
        <ele>893.68</ele>
        <time>2011-09-25T14:45:27Z</time>
      </trkpt>
      <trkpt lat="45.485" lon="6.19659">
        <ele>893.68</ele>
        <time>2011-09-25T14:45:28Z</time>
      </trkpt>
      <trkpt lat="45.48482" lon="6.19665">
        <ele>893.68</ele>
        <time>2011-09-25T14:45:37Z</time>
      </trkpt>
      <trkpt lat="45.48482" lon="6.19665">
        <ele>893.2</ele>
        <time>2011-09-25T14:46:04Z</time>
      </trkpt>
      <trkpt lat="45.48481" lon="6.19665">
        <ele>893.68</ele>
        <time>2011-09-25T14:46:10Z</time>
      </trkpt>
      <trkpt lat="45.48481" lon="6.19665">
        <ele>893.2</ele>
        <time>2011-09-25T14:46:27Z</time>
      </trkpt>
      <trkpt lat="45.48478" lon="6.19666">
        <ele>893.2</ele>
        <time>2011-09-25T14:46:49Z</time>
      </trkpt>
      <trkpt lat="45.48476" lon="6.19666">
        <ele>893.68</ele>
        <time>2011-09-25T14:46:50Z</time>
      </trkpt>
      <trkpt lat="45.48474" lon="6.19665">
        <ele>893.68</ele>
        <time>2011-09-25T14:46:51Z</time>
      </trkpt>
      <trkpt lat="45.48463" lon="6.1966">
        <ele>893.2</ele>
        <time>2011-09-25T14:46:54Z</time>
      </trkpt>
      <trkpt lat="45.48458" lon="6.19658">
        <ele>892.72</ele>
        <time>2011-09-25T14:46:55Z</time>
      </trkpt>
      <trkpt lat="45.48452" lon="6.19654">
        <ele>892.24</ele>
        <time>2011-09-25T14:46:56Z</time>
      </trkpt>
      <trkpt lat="45.48441" lon="6.19647">
        <ele>891.28</ele>
        <time>2011-09-25T14:46:58Z</time>
      </trkpt>
      <trkpt lat="45.48429" lon="6.19642">
        <ele>889.84</ele>
        <time>2011-09-25T14:47:00Z</time>
      </trkpt>
      <trkpt lat="45.4841" lon="6.19635">
        <ele>887.43</ele>
        <time>2011-09-25T14:47:05Z</time>
      </trkpt>
      <trkpt lat="45.4841" lon="6.19633">
        <ele>887.43</ele>
        <time>2011-09-25T14:47:07Z</time>
      </trkpt>
      <trkpt lat="45.48412" lon="6.19633">
        <ele>887.91</ele>
        <time>2011-09-25T14:47:08Z</time>
      </trkpt>
      <trkpt lat="45.48414" lon="6.19633">
        <ele>887.91</ele>
        <time>2011-09-25T14:47:09Z</time>
      </trkpt>
      <trkpt lat="45.48416" lon="6.19633">
        <ele>888.4</ele>
        <time>2011-09-25T14:47:10Z</time>
      </trkpt>
      <trkpt lat="45.48418" lon="6.19634">
        <ele>888.4</ele>
        <time>2011-09-25T14:47:11Z</time>
      </trkpt>
      <trkpt lat="45.4842" lon="6.19635">
        <ele>889.36</ele>
        <time>2011-09-25T14:47:12Z</time>
      </trkpt>
      <trkpt lat="45.48422" lon="6.19635">
        <ele>888.88</ele>
        <time>2011-09-25T14:47:13Z</time>
      </trkpt>
      <trkpt lat="45.48449" lon="6.19653">
        <ele>892.24</ele>
        <time>2011-09-25T14:47:27Z</time>
      </trkpt>
      <trkpt lat="45.48487" lon="6.19661">
        <ele>892.72</ele>
        <time>2011-09-25T14:47:40Z</time>
      </trkpt>
      <trkpt lat="45.485" lon="6.19656">
        <ele>892.72</ele>
        <time>2011-09-25T14:47:43Z</time>
      </trkpt>
      <trkpt lat="45.48515" lon="6.19629">
        <ele>894.16</ele>
        <time>2011-09-25T14:47:51Z</time>
      </trkpt>
      <trkpt lat="45.48499" lon="6.19585">
        <ele>896.57</ele>
        <time>2011-09-25T14:48:05Z</time>
      </trkpt>
      <trkpt lat="45.48467" lon="6.19528">
        <ele>898.49</ele>
        <time>2011-09-25T14:48:22Z</time>
      </trkpt>
      <trkpt lat="45.48446" lon="6.19473">
        <ele>901.37</ele>
        <time>2011-09-25T14:48:37Z</time>
      </trkpt>
      <trkpt lat="45.48418" lon="6.19396">
        <ele>903.78</ele>
        <time>2011-09-25T14:48:58Z</time>
      </trkpt>
      <trkpt lat="45.48391" lon="6.1936">
        <ele>905.7</ele>
        <time>2011-09-25T14:49:12Z</time>
      </trkpt>
      <trkpt lat="45.48371" lon="6.19342">
        <ele>909.06</ele>
        <time>2011-09-25T14:49:23Z</time>
      </trkpt>
      <trkpt lat="45.48344" lon="6.1931">
        <ele>911.47</ele>
        <time>2011-09-25T14:49:37Z</time>
      </trkpt>
      <trkpt lat="45.48326" lon="6.19265">
        <ele>914.83</ele>
        <time>2011-09-25T14:49:52Z</time>
      </trkpt>
      <trkpt lat="45.48305" lon="6.1921">
        <ele>916.75</ele>
        <time>2011-09-25T14:50:10Z</time>
      </trkpt>
      <trkpt lat="45.48278" lon="6.19145">
        <ele>916.75</ele>
        <time>2011-09-25T14:50:26Z</time>
      </trkpt>
      <trkpt lat="45.48249" lon="6.19088">
        <ele>913.39</ele>
        <time>2011-09-25T14:50:35Z</time>
      </trkpt>
      <trkpt lat="45.48246" lon="6.19078">
        <ele>911.47</ele>
        <time>2011-09-25T14:50:41Z</time>
      </trkpt>
      <trkpt lat="45.48246" lon="6.19078">
        <ele>910.99</ele>
        <time>2011-09-25T14:51:07Z</time>
      </trkpt>
      <trkpt lat="45.48246" lon="6.19078">
        <ele>910.51</ele>
        <time>2011-09-25T14:51:25Z</time>
      </trkpt>
      <trkpt lat="45.48246" lon="6.19078">
        <ele>910.51</ele>
        <time>2011-09-25T14:51:31Z</time>
      </trkpt>
      <trkpt lat="45.48245" lon="6.19076">
        <ele>910.03</ele>
        <time>2011-09-25T14:51:32Z</time>
      </trkpt>
      <trkpt lat="45.48243" lon="6.19072">
        <ele>910.51</ele>
        <time>2011-09-25T14:51:33Z</time>
      </trkpt>
      <trkpt lat="45.48238" lon="6.19061">
        <ele>910.03</ele>
        <time>2011-09-25T14:51:35Z</time>
      </trkpt>
      <trkpt lat="45.48235" lon="6.19054">
        <ele>910.51</ele>
        <time>2011-09-25T14:51:36Z</time>
      </trkpt>
      <trkpt lat="45.48203" lon="6.18994">
        <ele>907.62</ele>
        <time>2011-09-25T14:51:43Z</time>
      </trkpt>
      <trkpt lat="45.4816" lon="6.18934">
        <ele>904.26</ele>
        <time>2011-09-25T14:51:50Z</time>
      </trkpt>
      <trkpt lat="45.48137" lon="6.18894">
        <ele>901.85</ele>
        <time>2011-09-25T14:51:54Z</time>
      </trkpt>
      <trkpt lat="45.48132" lon="6.18884">
        <ele>900.89</ele>
        <time>2011-09-25T14:51:55Z</time>
      </trkpt>
      <trkpt lat="45.48127" lon="6.18872">
        <ele>900.89</ele>
        <time>2011-09-25T14:51:56Z</time>
      </trkpt>
      <trkpt lat="45.481" lon="6.18816">
        <ele>897.05</ele>
        <time>2011-09-25T14:52:01Z</time>
      </trkpt>
      <trkpt lat="45.48069" lon="6.18764">
        <ele>893.2</ele>
        <time>2011-09-25T14:52:06Z</time>
      </trkpt>
      <trkpt lat="45.48058" lon="6.1874">
        <ele>892.24</ele>
        <time>2011-09-25T14:52:08Z</time>
      </trkpt>
      <trkpt lat="45.48037" lon="6.1869">
        <ele>888.88</ele>
        <time>2011-09-25T14:52:12Z</time>
      </trkpt>
      <trkpt lat="45.48017" lon="6.18636">
        <ele>885.03</ele>
        <time>2011-09-25T14:52:16Z</time>
      </trkpt>
      <trkpt lat="45.47995" lon="6.18584">
        <ele>883.11</ele>
        <time>2011-09-25T14:52:20Z</time>
      </trkpt>
      <trkpt lat="45.47983" lon="6.1856">
        <ele>880.71</ele>
        <time>2011-09-25T14:52:22Z</time>
      </trkpt>
      <trkpt lat="45.47976" lon="6.18549">
        <ele>879.74</ele>
        <time>2011-09-25T14:52:23Z</time>
      </trkpt>
      <trkpt lat="45.47956" lon="6.1852">
        <ele>875.42</ele>
        <time>2011-09-25T14:52:26Z</time>
      </trkpt>
      <trkpt lat="45.4795" lon="6.18511">
        <ele>875.9</ele>
        <time>2011-09-25T14:52:27Z</time>
      </trkpt>
      <trkpt lat="45.47943" lon="6.18504">
        <ele>875.42</ele>
        <time>2011-09-25T14:52:28Z</time>
      </trkpt>
      <trkpt lat="45.47936" lon="6.18498">
        <ele>873.98</ele>
        <time>2011-09-25T14:52:29Z</time>
      </trkpt>
      <trkpt lat="45.47928" lon="6.18493">
        <ele>873.5</ele>
        <time>2011-09-25T14:52:30Z</time>
      </trkpt>
      <trkpt lat="45.47919" lon="6.18488">
        <ele>873.01</ele>
        <time>2011-09-25T14:52:31Z</time>
      </trkpt>
      <trkpt lat="45.47903" lon="6.18478">
        <ele>871.57</ele>
        <time>2011-09-25T14:52:33Z</time>
      </trkpt>
      <trkpt lat="45.47879" lon="6.18458">
        <ele>868.69</ele>
        <time>2011-09-25T14:52:37Z</time>
      </trkpt>
      <trkpt lat="45.47876" lon="6.18455">
        <ele>868.21</ele>
        <time>2011-09-25T14:52:38Z</time>
      </trkpt>
      <trkpt lat="45.47846" lon="6.18429">
        <ele>865.32</ele>
        <time>2011-09-25T14:52:48Z</time>
      </trkpt>
      <trkpt lat="45.47837" lon="6.18425">
        <ele>864.84</ele>
        <time>2011-09-25T14:52:50Z</time>
      </trkpt>
      <trkpt lat="45.47833" lon="6.18422">
        <ele>864.84</ele>
        <time>2011-09-25T14:52:51Z</time>
      </trkpt>
      <trkpt lat="45.47822" lon="6.18409">
        <ele>861.48</ele>
        <time>2011-09-25T14:52:54Z</time>
      </trkpt>
      <trkpt lat="45.47822" lon="6.18403">
        <ele>861</ele>
        <time>2011-09-25T14:52:55Z</time>
      </trkpt>
      <trkpt lat="45.47825" lon="6.18397">
        <ele>860.52</ele>
        <time>2011-09-25T14:52:56Z</time>
      </trkpt>
      <trkpt lat="45.47829" lon="6.18391">
        <ele>860.04</ele>
        <time>2011-09-25T14:52:57Z</time>
      </trkpt>
      <trkpt lat="45.47834" lon="6.18385">
        <ele>859.56</ele>
        <time>2011-09-25T14:52:58Z</time>
      </trkpt>
      <trkpt lat="45.4784" lon="6.1838">
        <ele>859.08</ele>
        <time>2011-09-25T14:52:59Z</time>
      </trkpt>
      <trkpt lat="45.47853" lon="6.18368">
        <ele>858.11</ele>
        <time>2011-09-25T14:53:01Z</time>
      </trkpt>
      <trkpt lat="45.4786" lon="6.18363">
        <ele>856.67</ele>
        <time>2011-09-25T14:53:02Z</time>
      </trkpt>
      <trkpt lat="45.47868" lon="6.1836">
        <ele>856.19</ele>
        <time>2011-09-25T14:53:03Z</time>
      </trkpt>
      <trkpt lat="45.47873" lon="6.18358">
        <ele>856.19</ele>
        <time>2011-09-25T14:53:04Z</time>
      </trkpt>
      <trkpt lat="45.47878" lon="6.18356">
        <ele>855.23</ele>
        <time>2011-09-25T14:53:05Z</time>
      </trkpt>
      <trkpt lat="45.47881" lon="6.18353">
        <ele>855.23</ele>
        <time>2011-09-25T14:53:06Z</time>
      </trkpt>
      <trkpt lat="45.47884" lon="6.1835">
        <ele>855.23</ele>
        <time>2011-09-25T14:53:07Z</time>
      </trkpt>
      <trkpt lat="45.47887" lon="6.18347">
        <ele>855.23</ele>
        <time>2011-09-25T14:53:08Z</time>
      </trkpt>
      <trkpt lat="45.47889" lon="6.18342">
        <ele>855.71</ele>
        <time>2011-09-25T14:53:09Z</time>
      </trkpt>
      <trkpt lat="45.47892" lon="6.18338">
        <ele>855.71</ele>
        <time>2011-09-25T14:53:10Z</time>
      </trkpt>
      <trkpt lat="45.47901" lon="6.18308">
        <ele>853.79</ele>
        <time>2011-09-25T14:53:19Z</time>
      </trkpt>
      <trkpt lat="45.47902" lon="6.18307">
        <ele>854.27</ele>
        <time>2011-09-25T14:53:24Z</time>
      </trkpt>
      <trkpt lat="45.47902" lon="6.18305">
        <ele>854.27</ele>
        <time>2011-09-25T14:53:25Z</time>
      </trkpt>
      <trkpt lat="45.47903" lon="6.183">
        <ele>854.27</ele>
        <time>2011-09-25T14:53:27Z</time>
      </trkpt>
      <trkpt lat="45.47902" lon="6.1828">
        <ele>854.27</ele>
        <time>2011-09-25T14:53:31Z</time>
      </trkpt>
      <trkpt lat="45.47898" lon="6.18224">
        <ele>856.19</ele>
        <time>2011-09-25T14:53:41Z</time>
      </trkpt>
      <trkpt lat="45.47902" lon="6.18198">
        <ele>859.08</ele>
        <time>2011-09-25T14:53:53Z</time>
      </trkpt>
      <trkpt lat="45.47905" lon="6.18176">
        <ele>861</ele>
        <time>2011-09-25T14:54:01Z</time>
      </trkpt>
      <trkpt lat="45.47906" lon="6.18159">
        <ele>862.44</ele>
        <time>2011-09-25T14:54:14Z</time>
      </trkpt>
      <trkpt lat="45.47904" lon="6.18153">
        <ele>863.88</ele>
        <time>2011-09-25T14:54:23Z</time>
      </trkpt>
      <trkpt lat="45.47904" lon="6.1815">
        <ele>863.88</ele>
        <time>2011-09-25T14:54:25Z</time>
      </trkpt>
      <trkpt lat="45.47903" lon="6.18148">
        <ele>863.88</ele>
        <time>2011-09-25T14:54:26Z</time>
      </trkpt>
      <trkpt lat="45.47902" lon="6.18128">
        <ele>866.29</ele>
        <time>2011-09-25T14:54:41Z</time>
      </trkpt>
      <trkpt lat="45.479" lon="6.1812">
        <ele>867.25</ele>
        <time>2011-09-25T14:54:54Z</time>
      </trkpt>
      <trkpt lat="45.47899" lon="6.1811">
        <ele>868.21</ele>
        <time>2011-09-25T14:55:10Z</time>
      </trkpt>
      <trkpt lat="45.47897" lon="6.18096">
        <ele>868.69</ele>
        <time>2011-09-25T14:55:18Z</time>
      </trkpt>
      <trkpt lat="45.47897" lon="6.18088">
        <ele>870.13</ele>
        <time>2011-09-25T14:55:22Z</time>
      </trkpt>
      <trkpt lat="45.47897" lon="6.18066">
        <ele>872.53</ele>
        <time>2011-09-25T14:55:35Z</time>
      </trkpt>
      <trkpt lat="45.47892" lon="6.18054">
        <ele>874.46</ele>
        <time>2011-09-25T14:55:48Z</time>
      </trkpt>
      <trkpt lat="45.4789" lon="6.18048">
        <ele>875.9</ele>
        <time>2011-09-25T14:55:53Z</time>
      </trkpt>
      <trkpt lat="45.4789" lon="6.18046">
        <ele>875.9</ele>
        <time>2011-09-25T14:55:54Z</time>
      </trkpt>
      <trkpt lat="45.47889" lon="6.18039">
        <ele>876.86</ele>
        <time>2011-09-25T14:55:59Z</time>
      </trkpt>
      <trkpt lat="45.47889" lon="6.18038">
        <ele>876.86</ele>
        <time>2011-09-25T14:56:00Z</time>
      </trkpt>
      <trkpt lat="45.47889" lon="6.18033">
        <ele>877.34</ele>
        <time>2011-09-25T14:56:06Z</time>
      </trkpt>
      <trkpt lat="45.47885" lon="6.18021">
        <ele>879.26</ele>
        <time>2011-09-25T14:56:13Z</time>
      </trkpt>
      <trkpt lat="45.47884" lon="6.18014">
        <ele>880.22</ele>
        <time>2011-09-25T14:56:18Z</time>
      </trkpt>
      <trkpt lat="45.47883" lon="6.18">
        <ele>883.11</ele>
        <time>2011-09-25T14:56:36Z</time>
      </trkpt>
      <trkpt lat="45.47882" lon="6.17994">
        <ele>884.07</ele>
        <time>2011-09-25T14:56:41Z</time>
      </trkpt>
      <trkpt lat="45.47873" lon="6.17976">
        <ele>886.47</ele>
        <time>2011-09-25T14:56:55Z</time>
      </trkpt>
      <trkpt lat="45.47862" lon="6.17944">
        <ele>887.91</ele>
        <time>2011-09-25T14:57:09Z</time>
      </trkpt>
      <trkpt lat="45.47857" lon="6.17934">
        <ele>887.91</ele>
        <time>2011-09-25T14:57:20Z</time>
      </trkpt>
      <trkpt lat="45.47857" lon="6.17934">
        <ele>888.4</ele>
        <time>2011-09-25T14:57:43Z</time>
      </trkpt>
      <trkpt lat="45.47857" lon="6.17933">
        <ele>887.91</ele>
        <time>2011-09-25T14:57:46Z</time>
      </trkpt>
      <trkpt lat="45.47852" lon="6.17923">
        <ele>889.36</ele>
        <time>2011-09-25T14:57:50Z</time>
      </trkpt>
      <trkpt lat="45.47835" lon="6.17868">
        <ele>886.95</ele>
        <time>2011-09-25T14:58:04Z</time>
      </trkpt>
      <trkpt lat="45.4783" lon="6.17848">
        <ele>885.03</ele>
        <time>2011-09-25T14:58:07Z</time>
      </trkpt>
      <trkpt lat="45.47833" lon="6.1782">
        <ele>884.55</ele>
        <time>2011-09-25T14:58:10Z</time>
      </trkpt>
      <trkpt lat="45.47844" lon="6.17804">
        <ele>884.07</ele>
        <time>2011-09-25T14:58:11Z</time>
      </trkpt>
      <trkpt lat="45.47854" lon="6.17749">
        <ele>885.03</ele>
        <time>2011-09-25T14:58:22Z</time>
      </trkpt>
      <trkpt lat="45.47852" lon="6.17699">
        <ele>887.91</ele>
        <time>2011-09-25T14:58:35Z</time>
      </trkpt>
      <trkpt lat="45.47842" lon="6.17633">
        <ele>890.8</ele>
        <time>2011-09-25T14:58:52Z</time>
      </trkpt>
      <trkpt lat="45.47853" lon="6.17592">
        <ele>891.76</ele>
        <time>2011-09-25T14:59:04Z</time>
      </trkpt>
      <trkpt lat="45.47884" lon="6.17559">
        <ele>889.36</ele>
        <time>2011-09-25T14:59:16Z</time>
      </trkpt>
      <trkpt lat="45.47889" lon="6.17554">
        <ele>888.88</ele>
        <time>2011-09-25T14:59:25Z</time>
      </trkpt>
      <trkpt lat="45.47892" lon="6.17548">
        <ele>888.4</ele>
        <time>2011-09-25T14:59:28Z</time>
      </trkpt>
      <trkpt lat="45.47918" lon="6.17485">
        <ele>884.55</ele>
        <time>2011-09-25T14:59:38Z</time>
      </trkpt>
      <trkpt lat="45.47942" lon="6.17415">
        <ele>881.19</ele>
        <time>2011-09-25T14:59:43Z</time>
      </trkpt>
      <trkpt lat="45.47945" lon="6.17401">
        <ele>881.19</ele>
        <time>2011-09-25T14:59:44Z</time>
      </trkpt>
      <trkpt lat="45.47951" lon="6.17372">
        <ele>880.22</ele>
        <time>2011-09-25T14:59:46Z</time>
      </trkpt>
      <trkpt lat="45.47953" lon="6.17329">
        <ele>878.3</ele>
        <time>2011-09-25T14:59:49Z</time>
      </trkpt>
      <trkpt lat="45.47953" lon="6.17302">
        <ele>876.86</ele>
        <time>2011-09-25T14:59:51Z</time>
      </trkpt>
      <trkpt lat="45.47955" lon="6.17261">
        <ele>875.9</ele>
        <time>2011-09-25T14:59:54Z</time>
      </trkpt>
      <trkpt lat="45.47958" lon="6.17249">
        <ele>875.42</ele>
        <time>2011-09-25T14:59:55Z</time>
      </trkpt>
      <trkpt lat="45.47965" lon="6.17239">
        <ele>875.42</ele>
        <time>2011-09-25T14:59:56Z</time>
      </trkpt>
      <trkpt lat="45.47975" lon="6.1722">
        <ele>873.98</ele>
        <time>2011-09-25T14:59:58Z</time>
      </trkpt>
      <trkpt lat="45.47977" lon="6.17208">
        <ele>873.5</ele>
        <time>2011-09-25T14:59:59Z</time>
      </trkpt>
      <trkpt lat="45.47977" lon="6.17196">
        <ele>873.98</ele>
        <time>2011-09-25T15:00:00Z</time>
      </trkpt>
      <trkpt lat="45.47975" lon="6.17186">
        <ele>873.98</ele>
        <time>2011-09-25T15:00:01Z</time>
      </trkpt>
      <trkpt lat="45.47972" lon="6.17176">
        <ele>873.98</ele>
        <time>2011-09-25T15:00:02Z</time>
      </trkpt>
      <trkpt lat="45.47965" lon="6.1716">
        <ele>871.57</ele>
        <time>2011-09-25T15:00:04Z</time>
      </trkpt>
      <trkpt lat="45.47964" lon="6.17153">
        <ele>871.57</ele>
        <time>2011-09-25T15:00:05Z</time>
      </trkpt>
      <trkpt lat="45.47965" lon="6.17148">
        <ele>871.57</ele>
        <time>2011-09-25T15:00:06Z</time>
      </trkpt>
      <trkpt lat="45.47967" lon="6.17144">
        <ele>871.09</ele>
        <time>2011-09-25T15:00:07Z</time>
      </trkpt>
      <trkpt lat="45.47969" lon="6.1714">
        <ele>871.09</ele>
        <time>2011-09-25T15:00:08Z</time>
      </trkpt>
      <trkpt lat="45.4797" lon="6.17138">
        <ele>871.57</ele>
        <time>2011-09-25T15:00:09Z</time>
      </trkpt>
      <trkpt lat="45.47969" lon="6.17135">
        <ele>871.57</ele>
        <time>2011-09-25T15:00:18Z</time>
      </trkpt>
      <trkpt lat="45.47969" lon="6.17135">
        <ele>871.57</ele>
        <time>2011-09-25T15:00:33Z</time>
      </trkpt>
      <trkpt lat="45.47971" lon="6.17132">
        <ele>871.57</ele>
        <time>2011-09-25T15:00:46Z</time>
      </trkpt>
      <trkpt lat="45.47971" lon="6.17132">
        <ele>871.09</ele>
        <time>2011-09-25T15:01:16Z</time>
      </trkpt>
      <trkpt lat="45.47971" lon="6.17132">
        <ele>871.57</ele>
        <time>2011-09-25T15:01:42Z</time>
      </trkpt>
      <trkpt lat="45.47971" lon="6.17131">
        <ele>871.57</ele>
        <time>2011-09-25T15:02:05Z</time>
      </trkpt>
      <trkpt lat="45.47971" lon="6.17131">
        <ele>871.57</ele>
        <time>2011-09-25T15:02:34Z</time>
      </trkpt>
      <trkpt lat="45.47971" lon="6.1713">
        <ele>871.09</ele>
        <time>2011-09-25T15:02:57Z</time>
      </trkpt>
      <trkpt lat="45.47971" lon="6.1713">
        <ele>871.09</ele>
        <time>2011-09-25T15:03:22Z</time>
      </trkpt>
      <trkpt lat="45.4797" lon="6.17128">
        <ele>871.57</ele>
        <time>2011-09-25T15:03:44Z</time>
      </trkpt>
      <trkpt lat="45.4797" lon="6.17129">
        <ele>871.09</ele>
        <time>2011-09-25T15:03:57Z</time>
      </trkpt>
      <trkpt lat="45.4797" lon="6.17129">
        <ele>871.09</ele>
        <time>2011-09-25T15:04:22Z</time>
      </trkpt>
      <trkpt lat="45.4797" lon="6.1713">
        <ele>871.09</ele>
        <time>2011-09-25T15:04:51Z</time>
      </trkpt>
      <trkpt lat="45.47971" lon="6.17131">
        <ele>870.61</ele>
        <time>2011-09-25T15:05:19Z</time>
      </trkpt>
      <trkpt lat="45.47971" lon="6.1713">
        <ele>870.61</ele>
        <time>2011-09-25T15:05:39Z</time>
      </trkpt>
      <trkpt lat="45.47971" lon="6.1713">
        <ele>870.61</ele>
        <time>2011-09-25T15:06:09Z</time>
      </trkpt>
      <trkpt lat="45.47971" lon="6.1713">
        <ele>870.13</ele>
        <time>2011-09-25T15:06:36Z</time>
      </trkpt>
      <trkpt lat="45.47971" lon="6.1713">
        <ele>869.65</ele>
        <time>2011-09-25T15:07:06Z</time>
      </trkpt>
      <trkpt lat="45.47971" lon="6.1713">
        <ele>870.13</ele>
        <time>2011-09-25T15:07:41Z</time>
      </trkpt>
      <trkpt lat="45.47971" lon="6.1713">
        <ele>869.65</ele>
        <time>2011-09-25T15:08:12Z</time>
      </trkpt>
      <trkpt lat="45.47972" lon="6.17129">
        <ele>869.65</ele>
        <time>2011-09-25T15:08:42Z</time>
      </trkpt>
      <trkpt lat="45.47971" lon="6.17129">
        <ele>869.17</ele>
        <time>2011-09-25T15:09:15Z</time>
      </trkpt>
      <trkpt lat="45.47971" lon="6.17129">
        <ele>869.17</ele>
        <time>2011-09-25T15:09:50Z</time>
      </trkpt>
      <trkpt lat="45.47971" lon="6.1713">
        <ele>868.69</ele>
        <time>2011-09-25T15:10:22Z</time>
      </trkpt>
      <trkpt lat="45.47971" lon="6.1713">
        <ele>868.69</ele>
        <time>2011-09-25T15:10:46Z</time>
      </trkpt>
      <trkpt lat="45.47971" lon="6.1713">
        <ele>868.69</ele>
        <time>2011-09-25T15:11:09Z</time>
      </trkpt>
      <trkpt lat="45.47971" lon="6.1713">
        <ele>868.21</ele>
        <time>2011-09-25T15:11:38Z</time>
      </trkpt>
      <trkpt lat="45.47971" lon="6.1713">
        <ele>868.21</ele>
        <time>2011-09-25T15:12:09Z</time>
      </trkpt>
      <trkpt lat="45.47971" lon="6.1713">
        <ele>867.73</ele>
        <time>2011-09-25T15:12:38Z</time>
      </trkpt>
      <trkpt lat="45.47971" lon="6.1713">
        <ele>867.25</ele>
        <time>2011-09-25T15:12:57Z</time>
      </trkpt>
      <trkpt lat="45.47971" lon="6.17133">
        <ele>867.25</ele>
        <time>2011-09-25T15:13:16Z</time>
      </trkpt>
      <trkpt lat="45.47969" lon="6.17137">
        <ele>867.73</ele>
        <time>2011-09-25T15:13:21Z</time>
      </trkpt>
      <trkpt lat="45.47966" lon="6.17145">
        <ele>867.25</ele>
        <time>2011-09-25T15:13:30Z</time>
      </trkpt>
      <trkpt lat="45.47964" lon="6.17151">
        <ele>867.73</ele>
        <time>2011-09-25T15:13:33Z</time>
      </trkpt>
      <trkpt lat="45.47981" lon="6.17152">
        <ele>867.73</ele>
        <time>2011-09-25T15:13:55Z</time>
      </trkpt>
      <trkpt lat="45.47987" lon="6.17148">
        <ele>867.73</ele>
        <time>2011-09-25T15:14:20Z</time>
      </trkpt>
      <trkpt lat="45.47988" lon="6.17146">
        <ele>868.21</ele>
        <time>2011-09-25T15:14:43Z</time>
      </trkpt>
      <trkpt lat="45.47988" lon="6.1715">
        <ele>868.21</ele>
        <time>2011-09-25T15:15:06Z</time>
      </trkpt>
      <trkpt lat="45.47988" lon="6.1715">
        <ele>867.73</ele>
        <time>2011-09-25T15:15:30Z</time>
      </trkpt>
      <trkpt lat="45.47988" lon="6.1715">
        <ele>867.73</ele>
        <time>2011-09-25T15:15:54Z</time>
      </trkpt>
      <trkpt lat="45.47987" lon="6.1715">
        <ele>868.21</ele>
        <time>2011-09-25T15:16:20Z</time>
      </trkpt>
      <trkpt lat="45.47987" lon="6.1715">
        <ele>867.73</ele>
        <time>2011-09-25T15:16:44Z</time>
      </trkpt>
      <trkpt lat="45.47992" lon="6.17153">
        <ele>867.73</ele>
        <time>2011-09-25T15:17:08Z</time>
      </trkpt>
      <trkpt lat="45.48003" lon="6.17148">
        <ele>867.73</ele>
        <time>2011-09-25T15:17:22Z</time>
      </trkpt>
      <trkpt lat="45.48003" lon="6.17143">
        <ele>867.73</ele>
        <time>2011-09-25T15:17:58Z</time>
      </trkpt>
      <trkpt lat="45.4799" lon="6.17182">
        <ele>868.21</ele>
        <time>2011-09-25T15:18:27Z</time>
      </trkpt>
      <trkpt lat="45.47992" lon="6.17179">
        <ele>868.21</ele>
        <time>2011-09-25T15:18:56Z</time>
      </trkpt>
    </trkseg>
  </trk>
</gpx>